<?xml version="1.0" encoding="UTF-8" standalone="no" ?>
<gpx xmlns="http://www.topografix.com/GPX/1/1" xmlns:xsi="http://www.w3.org/2001/XMLSchema-instance" xsi:schemaLocation="http://www.topografix.com/GPX/1/1 http://www.topografix.com/GPX/1/1/gpx.xsd" version="1.1" creator="VisuGPX - https://www.visugpx.com">
  <metadata>
    <name>83 - L - Régusse nord </name>
    <desc><![CDATA[83 - L - Régusse nord : le Bois des Collocations 
2022-09-26]]></desc>
  </metadata>
  <trk>
    <name><![CDATA[Régusse nord 2022-09-26-01]]></name>
    <trkseg>
      <trkpt lat="43.65972" lon="6.13064">
        <ele>621.8</ele>
        <time>2022-09-26T06:51:04Z</time>
      </trkpt>
      <trkpt lat="43.65971" lon="6.13064">
        <ele>623</ele>
        <time>2022-09-26T06:51:04Z</time>
      </trkpt>
      <trkpt lat="43.65971" lon="6.13064">
        <ele>623</ele>
        <time>2022-09-26T06:51:04Z</time>
      </trkpt>
      <trkpt lat="43.65964" lon="6.13055">
        <ele>568.7</ele>
        <time>2022-09-26T06:51:36Z</time>
      </trkpt>
      <trkpt lat="43.65969" lon="6.13066">
        <ele>569.9</ele>
        <time>2022-09-26T06:53:56Z</time>
      </trkpt>
      <trkpt lat="43.65967" lon="6.13078">
        <ele>570</ele>
        <time>2022-09-26T06:54:08Z</time>
      </trkpt>
      <trkpt lat="43.65968" lon="6.13092">
        <ele>569.7</ele>
        <time>2022-09-26T06:54:20Z</time>
      </trkpt>
      <trkpt lat="43.6597" lon="6.13105">
        <ele>569.1</ele>
        <time>2022-09-26T06:54:31Z</time>
      </trkpt>
      <trkpt lat="43.6597" lon="6.13118">
        <ele>571.2</ele>
        <time>2022-09-26T06:54:39Z</time>
      </trkpt>
      <trkpt lat="43.6597" lon="6.1313">
        <ele>570.9</ele>
        <time>2022-09-26T06:54:47Z</time>
      </trkpt>
      <trkpt lat="43.65973" lon="6.13142">
        <ele>570.6</ele>
        <time>2022-09-26T06:54:57Z</time>
      </trkpt>
      <trkpt lat="43.65974" lon="6.13156">
        <ele>570.3</ele>
        <time>2022-09-26T06:55:10Z</time>
      </trkpt>
      <trkpt lat="43.65974" lon="6.13168">
        <ele>570.2</ele>
        <time>2022-09-26T06:55:18Z</time>
      </trkpt>
      <trkpt lat="43.65975" lon="6.13182">
        <ele>569.9</ele>
        <time>2022-09-26T06:55:37Z</time>
      </trkpt>
      <trkpt lat="43.65978" lon="6.13195">
        <ele>570.1</ele>
        <time>2022-09-26T06:55:46Z</time>
      </trkpt>
      <trkpt lat="43.65977" lon="6.13208">
        <ele>569.8</ele>
        <time>2022-09-26T06:55:55Z</time>
      </trkpt>
      <trkpt lat="43.65974" lon="6.13222">
        <ele>570.5</ele>
        <time>2022-09-26T06:56:05Z</time>
      </trkpt>
      <trkpt lat="43.65969" lon="6.13233">
        <ele>570.6</ele>
        <time>2022-09-26T06:56:12Z</time>
      </trkpt>
      <trkpt lat="43.65969" lon="6.13246">
        <ele>570.5</ele>
        <time>2022-09-26T06:56:20Z</time>
      </trkpt>
      <trkpt lat="43.65971" lon="6.13259">
        <ele>570.6</ele>
        <time>2022-09-26T06:56:30Z</time>
      </trkpt>
      <trkpt lat="43.65969" lon="6.13272">
        <ele>570.7</ele>
        <time>2022-09-26T06:56:38Z</time>
      </trkpt>
      <trkpt lat="43.65972" lon="6.13285">
        <ele>570.8</ele>
        <time>2022-09-26T06:56:47Z</time>
      </trkpt>
      <trkpt lat="43.65973" lon="6.13298">
        <ele>570.7</ele>
        <time>2022-09-26T06:56:54Z</time>
      </trkpt>
      <trkpt lat="43.65973" lon="6.13312">
        <ele>570.7</ele>
        <time>2022-09-26T06:57:01Z</time>
      </trkpt>
      <trkpt lat="43.65976" lon="6.13324">
        <ele>570.8</ele>
        <time>2022-09-26T06:57:08Z</time>
      </trkpt>
      <trkpt lat="43.65974" lon="6.13337">
        <ele>570.9</ele>
        <time>2022-09-26T06:57:19Z</time>
      </trkpt>
      <trkpt lat="43.65971" lon="6.1335">
        <ele>571.7</ele>
        <time>2022-09-26T06:57:27Z</time>
      </trkpt>
      <trkpt lat="43.65972" lon="6.13364">
        <ele>571.7</ele>
        <time>2022-09-26T06:57:38Z</time>
      </trkpt>
      <trkpt lat="43.65971" lon="6.13378">
        <ele>570.1</ele>
        <time>2022-09-26T06:57:46Z</time>
      </trkpt>
      <trkpt lat="43.6597" lon="6.13391">
        <ele>570.3</ele>
        <time>2022-09-26T06:57:54Z</time>
      </trkpt>
      <trkpt lat="43.65971" lon="6.13403">
        <ele>571.1</ele>
        <time>2022-09-26T06:58:02Z</time>
      </trkpt>
      <trkpt lat="43.65969" lon="6.13416">
        <ele>571.5</ele>
        <time>2022-09-26T06:58:10Z</time>
      </trkpt>
      <trkpt lat="43.65971" lon="6.13428">
        <ele>571.1</ele>
        <time>2022-09-26T06:58:18Z</time>
      </trkpt>
      <trkpt lat="43.65974" lon="6.13441">
        <ele>571.4</ele>
        <time>2022-09-26T06:58:27Z</time>
      </trkpt>
      <trkpt lat="43.65977" lon="6.13454">
        <ele>572.5</ele>
        <time>2022-09-26T06:58:36Z</time>
      </trkpt>
      <trkpt lat="43.65979" lon="6.13466">
        <ele>571.8</ele>
        <time>2022-09-26T06:58:43Z</time>
      </trkpt>
      <trkpt lat="43.65978" lon="6.13479">
        <ele>572.8</ele>
        <time>2022-09-26T06:58:52Z</time>
      </trkpt>
      <trkpt lat="43.65978" lon="6.13493">
        <ele>571.7</ele>
        <time>2022-09-26T06:59:00Z</time>
      </trkpt>
      <trkpt lat="43.65976" lon="6.13507">
        <ele>571.3</ele>
        <time>2022-09-26T06:59:11Z</time>
      </trkpt>
      <trkpt lat="43.65975" lon="6.1352">
        <ele>571.6</ele>
        <time>2022-09-26T06:59:20Z</time>
      </trkpt>
      <trkpt lat="43.65973" lon="6.13534">
        <ele>572.1</ele>
        <time>2022-09-26T06:59:28Z</time>
      </trkpt>
      <trkpt lat="43.65966" lon="6.13542">
        <ele>572.3</ele>
        <time>2022-09-26T06:59:35Z</time>
      </trkpt>
      <trkpt lat="43.6596" lon="6.13552">
        <ele>570.5</ele>
        <time>2022-09-26T06:59:45Z</time>
      </trkpt>
      <trkpt lat="43.65956" lon="6.13563">
        <ele>569.6</ele>
        <time>2022-09-26T06:59:58Z</time>
      </trkpt>
      <trkpt lat="43.65952" lon="6.13576">
        <ele>570.7</ele>
        <time>2022-09-26T07:00:08Z</time>
      </trkpt>
      <trkpt lat="43.65948" lon="6.13589">
        <ele>569.8</ele>
        <time>2022-09-26T07:00:18Z</time>
      </trkpt>
      <trkpt lat="43.65942" lon="6.13599">
        <ele>567.2</ele>
        <time>2022-09-26T07:00:28Z</time>
      </trkpt>
      <trkpt lat="43.65937" lon="6.13611">
        <ele>566.8</ele>
        <time>2022-09-26T07:00:41Z</time>
      </trkpt>
      <trkpt lat="43.65931" lon="6.13621">
        <ele>565.7</ele>
        <time>2022-09-26T07:00:54Z</time>
      </trkpt>
      <trkpt lat="43.65928" lon="6.13634">
        <ele>563.5</ele>
        <time>2022-09-26T07:01:12Z</time>
      </trkpt>
      <trkpt lat="43.65929" lon="6.13646">
        <ele>561.9</ele>
        <time>2022-09-26T07:01:29Z</time>
      </trkpt>
      <trkpt lat="43.65932" lon="6.13659">
        <ele>562.2</ele>
        <time>2022-09-26T07:01:38Z</time>
      </trkpt>
      <trkpt lat="43.65937" lon="6.1367">
        <ele>562.6</ele>
        <time>2022-09-26T07:01:46Z</time>
      </trkpt>
      <trkpt lat="43.65944" lon="6.1368">
        <ele>563.1</ele>
        <time>2022-09-26T07:01:55Z</time>
      </trkpt>
      <trkpt lat="43.65951" lon="6.13689">
        <ele>564</ele>
        <time>2022-09-26T07:02:10Z</time>
      </trkpt>
      <trkpt lat="43.65952" lon="6.13702">
        <ele>564.2</ele>
        <time>2022-09-26T07:02:20Z</time>
      </trkpt>
      <trkpt lat="43.65955" lon="6.13715">
        <ele>564.5</ele>
        <time>2022-09-26T07:02:29Z</time>
      </trkpt>
      <trkpt lat="43.65959" lon="6.13727">
        <ele>564</ele>
        <time>2022-09-26T07:02:38Z</time>
      </trkpt>
      <trkpt lat="43.65962" lon="6.13739">
        <ele>564.1</ele>
        <time>2022-09-26T07:02:46Z</time>
      </trkpt>
      <trkpt lat="43.65964" lon="6.13751">
        <ele>564.9</ele>
        <time>2022-09-26T07:02:54Z</time>
      </trkpt>
      <trkpt lat="43.6597" lon="6.13761">
        <ele>566.5</ele>
        <time>2022-09-26T07:03:04Z</time>
      </trkpt>
      <trkpt lat="43.65976" lon="6.13771">
        <ele>568.9</ele>
        <time>2022-09-26T07:03:11Z</time>
      </trkpt>
      <trkpt lat="43.65982" lon="6.13781">
        <ele>570.4</ele>
        <time>2022-09-26T07:03:19Z</time>
      </trkpt>
      <trkpt lat="43.65989" lon="6.13792">
        <ele>569.4</ele>
        <time>2022-09-26T07:03:28Z</time>
      </trkpt>
      <trkpt lat="43.65997" lon="6.13799">
        <ele>569.9</ele>
        <time>2022-09-26T07:03:37Z</time>
      </trkpt>
      <trkpt lat="43.66005" lon="6.13807">
        <ele>570.8</ele>
        <time>2022-09-26T07:03:46Z</time>
      </trkpt>
      <trkpt lat="43.66012" lon="6.13814">
        <ele>571.4</ele>
        <time>2022-09-26T07:03:55Z</time>
      </trkpt>
      <trkpt lat="43.6602" lon="6.13822">
        <ele>572.3</ele>
        <time>2022-09-26T07:04:04Z</time>
      </trkpt>
      <trkpt lat="43.66028" lon="6.13829">
        <ele>573.1</ele>
        <time>2022-09-26T07:04:13Z</time>
      </trkpt>
      <trkpt lat="43.66035" lon="6.13838">
        <ele>573.1</ele>
        <time>2022-09-26T07:04:25Z</time>
      </trkpt>
      <trkpt lat="43.66043" lon="6.13845">
        <ele>574.6</ele>
        <time>2022-09-26T07:04:32Z</time>
      </trkpt>
      <trkpt lat="43.66051" lon="6.13853">
        <ele>574.1</ele>
        <time>2022-09-26T07:04:40Z</time>
      </trkpt>
      <trkpt lat="43.66058" lon="6.13863">
        <ele>573.9</ele>
        <time>2022-09-26T07:04:47Z</time>
      </trkpt>
      <trkpt lat="43.66064" lon="6.13872">
        <ele>574.3</ele>
        <time>2022-09-26T07:04:55Z</time>
      </trkpt>
      <trkpt lat="43.66073" lon="6.13877">
        <ele>575.2</ele>
        <time>2022-09-26T07:05:03Z</time>
      </trkpt>
      <trkpt lat="43.66083" lon="6.13878">
        <ele>576.1</ele>
        <time>2022-09-26T07:05:11Z</time>
      </trkpt>
      <trkpt lat="43.66091" lon="6.13885">
        <ele>574.8</ele>
        <time>2022-09-26T07:05:23Z</time>
      </trkpt>
      <trkpt lat="43.661" lon="6.13887">
        <ele>574.5</ele>
        <time>2022-09-26T07:05:31Z</time>
      </trkpt>
      <trkpt lat="43.66109" lon="6.1389">
        <ele>575.3</ele>
        <time>2022-09-26T07:05:40Z</time>
      </trkpt>
      <trkpt lat="43.66117" lon="6.13897">
        <ele>574.5</ele>
        <time>2022-09-26T07:05:50Z</time>
      </trkpt>
      <trkpt lat="43.66126" lon="6.13897">
        <ele>574.6</ele>
        <time>2022-09-26T07:06:00Z</time>
      </trkpt>
      <trkpt lat="43.66136" lon="6.13899">
        <ele>574.5</ele>
        <time>2022-09-26T07:06:09Z</time>
      </trkpt>
      <trkpt lat="43.66145" lon="6.13904">
        <ele>574.8</ele>
        <time>2022-09-26T07:06:16Z</time>
      </trkpt>
      <trkpt lat="43.66155" lon="6.13905">
        <ele>575.1</ele>
        <time>2022-09-26T07:06:24Z</time>
      </trkpt>
      <trkpt lat="43.66164" lon="6.13908">
        <ele>575.1</ele>
        <time>2022-09-26T07:06:31Z</time>
      </trkpt>
      <trkpt lat="43.66173" lon="6.13913">
        <ele>575.6</ele>
        <time>2022-09-26T07:06:38Z</time>
      </trkpt>
      <trkpt lat="43.66183" lon="6.13916">
        <ele>576</ele>
        <time>2022-09-26T07:06:44Z</time>
      </trkpt>
      <trkpt lat="43.66192" lon="6.13919">
        <ele>576.4</ele>
        <time>2022-09-26T07:06:52Z</time>
      </trkpt>
      <trkpt lat="43.66201" lon="6.13922">
        <ele>576.4</ele>
        <time>2022-09-26T07:06:59Z</time>
      </trkpt>
      <trkpt lat="43.66211" lon="6.13927">
        <ele>576.6</ele>
        <time>2022-09-26T07:07:07Z</time>
      </trkpt>
      <trkpt lat="43.66219" lon="6.13932">
        <ele>577.2</ele>
        <time>2022-09-26T07:07:15Z</time>
      </trkpt>
      <trkpt lat="43.66228" lon="6.13935">
        <ele>577.3</ele>
        <time>2022-09-26T07:07:23Z</time>
      </trkpt>
      <trkpt lat="43.66238" lon="6.13938">
        <ele>578.3</ele>
        <time>2022-09-26T07:07:31Z</time>
      </trkpt>
      <trkpt lat="43.66246" lon="6.13945">
        <ele>577.6</ele>
        <time>2022-09-26T07:07:41Z</time>
      </trkpt>
      <trkpt lat="43.66254" lon="6.13952">
        <ele>577</ele>
        <time>2022-09-26T07:07:48Z</time>
      </trkpt>
      <trkpt lat="43.66262" lon="6.13959">
        <ele>576.7</ele>
        <time>2022-09-26T07:07:56Z</time>
      </trkpt>
      <trkpt lat="43.66271" lon="6.13965">
        <ele>577.4</ele>
        <time>2022-09-26T07:08:04Z</time>
      </trkpt>
      <trkpt lat="43.6628" lon="6.13969">
        <ele>577.6</ele>
        <time>2022-09-26T07:08:10Z</time>
      </trkpt>
      <trkpt lat="43.66289" lon="6.13974">
        <ele>578.3</ele>
        <time>2022-09-26T07:08:18Z</time>
      </trkpt>
      <trkpt lat="43.66297" lon="6.13983">
        <ele>579.7</ele>
        <time>2022-09-26T07:08:25Z</time>
      </trkpt>
      <trkpt lat="43.66305" lon="6.13991">
        <ele>579.5</ele>
        <time>2022-09-26T07:08:32Z</time>
      </trkpt>
      <trkpt lat="43.66314" lon="6.13997">
        <ele>578.2</ele>
        <time>2022-09-26T07:08:46Z</time>
      </trkpt>
      <trkpt lat="43.66325" lon="6.14">
        <ele>578.4</ele>
        <time>2022-09-26T07:08:53Z</time>
      </trkpt>
      <trkpt lat="43.66334" lon="6.14007">
        <ele>579</ele>
        <time>2022-09-26T07:09:03Z</time>
      </trkpt>
      <trkpt lat="43.66343" lon="6.14013">
        <ele>578.5</ele>
        <time>2022-09-26T07:09:11Z</time>
      </trkpt>
      <trkpt lat="43.66351" lon="6.1402">
        <ele>578.8</ele>
        <time>2022-09-26T07:09:19Z</time>
      </trkpt>
      <trkpt lat="43.66361" lon="6.14026">
        <ele>579</ele>
        <time>2022-09-26T07:09:27Z</time>
      </trkpt>
      <trkpt lat="43.66369" lon="6.14032">
        <ele>579.3</ele>
        <time>2022-09-26T07:09:34Z</time>
      </trkpt>
      <trkpt lat="43.66376" lon="6.14042">
        <ele>579.6</ele>
        <time>2022-09-26T07:09:43Z</time>
      </trkpt>
      <trkpt lat="43.66382" lon="6.14052">
        <ele>579.9</ele>
        <time>2022-09-26T07:09:51Z</time>
      </trkpt>
      <trkpt lat="43.66389" lon="6.14062">
        <ele>580.6</ele>
        <time>2022-09-26T07:09:58Z</time>
      </trkpt>
      <trkpt lat="43.66397" lon="6.14068">
        <ele>581.2</ele>
        <time>2022-09-26T07:10:05Z</time>
      </trkpt>
      <trkpt lat="43.66406" lon="6.14075">
        <ele>582.3</ele>
        <time>2022-09-26T07:10:12Z</time>
      </trkpt>
      <trkpt lat="43.66412" lon="6.14084">
        <ele>581.8</ele>
        <time>2022-09-26T07:10:20Z</time>
      </trkpt>
      <trkpt lat="43.66419" lon="6.14092">
        <ele>583.4</ele>
        <time>2022-09-26T07:10:29Z</time>
      </trkpt>
      <trkpt lat="43.66425" lon="6.14102">
        <ele>582.7</ele>
        <time>2022-09-26T07:10:36Z</time>
      </trkpt>
      <trkpt lat="43.66431" lon="6.14114">
        <ele>582.6</ele>
        <time>2022-09-26T07:10:44Z</time>
      </trkpt>
      <trkpt lat="43.66437" lon="6.14123">
        <ele>583.2</ele>
        <time>2022-09-26T07:10:53Z</time>
      </trkpt>
      <trkpt lat="43.66444" lon="6.14132">
        <ele>584.9</ele>
        <time>2022-09-26T07:11:00Z</time>
      </trkpt>
      <trkpt lat="43.6645" lon="6.14141">
        <ele>585.2</ele>
        <time>2022-09-26T07:11:09Z</time>
      </trkpt>
      <trkpt lat="43.66458" lon="6.14147">
        <ele>585.2</ele>
        <time>2022-09-26T07:11:19Z</time>
      </trkpt>
      <trkpt lat="43.66464" lon="6.14157">
        <ele>584.3</ele>
        <time>2022-09-26T07:11:28Z</time>
      </trkpt>
      <trkpt lat="43.6647" lon="6.14168">
        <ele>584.9</ele>
        <time>2022-09-26T07:11:37Z</time>
      </trkpt>
      <trkpt lat="43.66477" lon="6.14176">
        <ele>586.1</ele>
        <time>2022-09-26T07:11:46Z</time>
      </trkpt>
      <trkpt lat="43.66485" lon="6.14182">
        <ele>586.7</ele>
        <time>2022-09-26T07:11:57Z</time>
      </trkpt>
      <trkpt lat="43.66495" lon="6.14181">
        <ele>585.4</ele>
        <time>2022-09-26T07:12:08Z</time>
      </trkpt>
      <trkpt lat="43.66504" lon="6.14177">
        <ele>585.8</ele>
        <time>2022-09-26T07:12:21Z</time>
      </trkpt>
      <trkpt lat="43.66508" lon="6.14166">
        <ele>587.2</ele>
        <time>2022-09-26T07:13:55Z</time>
      </trkpt>
      <trkpt lat="43.66516" lon="6.14159">
        <ele>587.3</ele>
        <time>2022-09-26T07:14:03Z</time>
      </trkpt>
      <trkpt lat="43.66522" lon="6.14149">
        <ele>588.2</ele>
        <time>2022-09-26T07:14:09Z</time>
      </trkpt>
      <trkpt lat="43.66529" lon="6.14141">
        <ele>588.2</ele>
        <time>2022-09-26T07:14:19Z</time>
      </trkpt>
      <trkpt lat="43.66535" lon="6.14132">
        <ele>587.1</ele>
        <time>2022-09-26T07:14:29Z</time>
      </trkpt>
      <trkpt lat="43.6654" lon="6.1412">
        <ele>587</ele>
        <time>2022-09-26T07:14:39Z</time>
      </trkpt>
      <trkpt lat="43.66544" lon="6.14108">
        <ele>589.1</ele>
        <time>2022-09-26T07:14:50Z</time>
      </trkpt>
      <trkpt lat="43.6655" lon="6.14118">
        <ele>587.3</ele>
        <time>2022-09-26T07:15:03Z</time>
      </trkpt>
      <trkpt lat="43.66552" lon="6.1413">
        <ele>587.5</ele>
        <time>2022-09-26T07:15:13Z</time>
      </trkpt>
      <trkpt lat="43.66554" lon="6.14143">
        <ele>587.8</ele>
        <time>2022-09-26T07:15:22Z</time>
      </trkpt>
      <trkpt lat="43.66557" lon="6.14155">
        <ele>588.4</ele>
        <time>2022-09-26T07:15:30Z</time>
      </trkpt>
      <trkpt lat="43.66559" lon="6.14168">
        <ele>588.8</ele>
        <time>2022-09-26T07:15:39Z</time>
      </trkpt>
      <trkpt lat="43.66562" lon="6.1418">
        <ele>589.8</ele>
        <time>2022-09-26T07:15:48Z</time>
      </trkpt>
      <trkpt lat="43.66566" lon="6.14192">
        <ele>588.7</ele>
        <time>2022-09-26T07:15:59Z</time>
      </trkpt>
      <trkpt lat="43.6657" lon="6.14204">
        <ele>588.8</ele>
        <time>2022-09-26T07:16:10Z</time>
      </trkpt>
      <trkpt lat="43.66574" lon="6.14216">
        <ele>589.6</ele>
        <time>2022-09-26T07:16:20Z</time>
      </trkpt>
      <trkpt lat="43.66578" lon="6.14227">
        <ele>591</ele>
        <time>2022-09-26T07:16:35Z</time>
      </trkpt>
      <trkpt lat="43.66581" lon="6.1424">
        <ele>590.1</ele>
        <time>2022-09-26T07:16:43Z</time>
      </trkpt>
      <trkpt lat="43.66585" lon="6.14253">
        <ele>588.6</ele>
        <time>2022-09-26T07:16:53Z</time>
      </trkpt>
      <trkpt lat="43.66592" lon="6.14262">
        <ele>588.6</ele>
        <time>2022-09-26T07:17:02Z</time>
      </trkpt>
      <trkpt lat="43.66596" lon="6.14273">
        <ele>589.7</ele>
        <time>2022-09-26T07:17:15Z</time>
      </trkpt>
      <trkpt lat="43.66603" lon="6.14281">
        <ele>589.1</ele>
        <time>2022-09-26T07:17:31Z</time>
      </trkpt>
      <trkpt lat="43.6661" lon="6.14291">
        <ele>588.8</ele>
        <time>2022-09-26T07:17:40Z</time>
      </trkpt>
      <trkpt lat="43.66616" lon="6.14301">
        <ele>588.5</ele>
        <time>2022-09-26T07:17:48Z</time>
      </trkpt>
      <trkpt lat="43.66623" lon="6.1431">
        <ele>588.8</ele>
        <time>2022-09-26T07:17:57Z</time>
      </trkpt>
      <trkpt lat="43.6663" lon="6.14318">
        <ele>589.3</ele>
        <time>2022-09-26T07:18:04Z</time>
      </trkpt>
      <trkpt lat="43.66637" lon="6.14328">
        <ele>590.1</ele>
        <time>2022-09-26T07:18:13Z</time>
      </trkpt>
      <trkpt lat="43.66644" lon="6.14336">
        <ele>591.2</ele>
        <time>2022-09-26T07:18:22Z</time>
      </trkpt>
      <trkpt lat="43.66651" lon="6.14345">
        <ele>592</ele>
        <time>2022-09-26T07:18:33Z</time>
      </trkpt>
      <trkpt lat="43.66659" lon="6.14353">
        <ele>592.6</ele>
        <time>2022-09-26T07:18:42Z</time>
      </trkpt>
      <trkpt lat="43.66668" lon="6.14359">
        <ele>593.1</ele>
        <time>2022-09-26T07:18:51Z</time>
      </trkpt>
      <trkpt lat="43.66675" lon="6.14367">
        <ele>593.8</ele>
        <time>2022-09-26T07:19:01Z</time>
      </trkpt>
      <trkpt lat="43.66683" lon="6.14375">
        <ele>594.7</ele>
        <time>2022-09-26T07:19:10Z</time>
      </trkpt>
      <trkpt lat="43.6669" lon="6.14383">
        <ele>595.4</ele>
        <time>2022-09-26T07:19:19Z</time>
      </trkpt>
      <trkpt lat="43.66697" lon="6.14392">
        <ele>596.1</ele>
        <time>2022-09-26T07:19:28Z</time>
      </trkpt>
      <trkpt lat="43.66706" lon="6.14399">
        <ele>596.5</ele>
        <time>2022-09-26T07:19:38Z</time>
      </trkpt>
      <trkpt lat="43.66714" lon="6.14406">
        <ele>597.2</ele>
        <time>2022-09-26T07:19:48Z</time>
      </trkpt>
      <trkpt lat="43.66722" lon="6.14414">
        <ele>597.8</ele>
        <time>2022-09-26T07:19:59Z</time>
      </trkpt>
      <trkpt lat="43.6673" lon="6.14421">
        <ele>595.6</ele>
        <time>2022-09-26T07:20:09Z</time>
      </trkpt>
      <trkpt lat="43.66737" lon="6.14428">
        <ele>596.6</ele>
        <time>2022-09-26T07:20:19Z</time>
      </trkpt>
      <trkpt lat="43.66744" lon="6.14436">
        <ele>597.4</ele>
        <time>2022-09-26T07:20:29Z</time>
      </trkpt>
      <trkpt lat="43.66752" lon="6.14444">
        <ele>597.4</ele>
        <time>2022-09-26T07:20:38Z</time>
      </trkpt>
      <trkpt lat="43.66761" lon="6.14454">
        <ele>598.5</ele>
        <time>2022-09-26T07:20:48Z</time>
      </trkpt>
      <trkpt lat="43.6677" lon="6.14461">
        <ele>597.1</ele>
        <time>2022-09-26T07:20:58Z</time>
      </trkpt>
      <trkpt lat="43.66778" lon="6.14467">
        <ele>597.2</ele>
        <time>2022-09-26T07:21:07Z</time>
      </trkpt>
      <trkpt lat="43.66786" lon="6.14475">
        <ele>597.1</ele>
        <time>2022-09-26T07:21:15Z</time>
      </trkpt>
      <trkpt lat="43.66794" lon="6.14482">
        <ele>597.1</ele>
        <time>2022-09-26T07:21:25Z</time>
      </trkpt>
      <trkpt lat="43.66801" lon="6.14488">
        <ele>598</ele>
        <time>2022-09-26T07:21:38Z</time>
      </trkpt>
      <trkpt lat="43.66811" lon="6.14494">
        <ele>599</ele>
        <time>2022-09-26T07:21:47Z</time>
      </trkpt>
      <trkpt lat="43.66819" lon="6.14502">
        <ele>599.8</ele>
        <time>2022-09-26T07:21:55Z</time>
      </trkpt>
      <trkpt lat="43.66826" lon="6.14511">
        <ele>598.2</ele>
        <time>2022-09-26T07:22:05Z</time>
      </trkpt>
      <trkpt lat="43.66833" lon="6.1452">
        <ele>598.6</ele>
        <time>2022-09-26T07:22:16Z</time>
      </trkpt>
      <trkpt lat="43.66841" lon="6.14529">
        <ele>599.8</ele>
        <time>2022-09-26T07:22:25Z</time>
      </trkpt>
      <trkpt lat="43.66847" lon="6.14539">
        <ele>599.6</ele>
        <time>2022-09-26T07:22:34Z</time>
      </trkpt>
      <trkpt lat="43.66854" lon="6.14548">
        <ele>599.4</ele>
        <time>2022-09-26T07:22:51Z</time>
      </trkpt>
      <trkpt lat="43.66861" lon="6.14557">
        <ele>599.7</ele>
        <time>2022-09-26T07:23:06Z</time>
      </trkpt>
      <trkpt lat="43.66868" lon="6.14565">
        <ele>599.6</ele>
        <time>2022-09-26T07:23:15Z</time>
      </trkpt>
      <trkpt lat="43.66875" lon="6.14573">
        <ele>599.5</ele>
        <time>2022-09-26T07:23:24Z</time>
      </trkpt>
      <trkpt lat="43.66882" lon="6.14581">
        <ele>599.3</ele>
        <time>2022-09-26T07:23:33Z</time>
      </trkpt>
      <trkpt lat="43.6689" lon="6.14589">
        <ele>599</ele>
        <time>2022-09-26T07:23:42Z</time>
      </trkpt>
      <trkpt lat="43.66897" lon="6.14596">
        <ele>598.7</ele>
        <time>2022-09-26T07:23:52Z</time>
      </trkpt>
      <trkpt lat="43.66902" lon="6.14607">
        <ele>598.6</ele>
        <time>2022-09-26T07:23:59Z</time>
      </trkpt>
      <trkpt lat="43.66908" lon="6.14617">
        <ele>598.3</ele>
        <time>2022-09-26T07:24:08Z</time>
      </trkpt>
      <trkpt lat="43.66916" lon="6.14625">
        <ele>597.8</ele>
        <time>2022-09-26T07:24:15Z</time>
      </trkpt>
      <trkpt lat="43.66923" lon="6.14635">
        <ele>597.3</ele>
        <time>2022-09-26T07:24:27Z</time>
      </trkpt>
      <trkpt lat="43.6693" lon="6.14644">
        <ele>596.9</ele>
        <time>2022-09-26T07:24:37Z</time>
      </trkpt>
      <trkpt lat="43.66937" lon="6.14653">
        <ele>596.7</ele>
        <time>2022-09-26T07:24:45Z</time>
      </trkpt>
      <trkpt lat="43.66945" lon="6.1466">
        <ele>596</ele>
        <time>2022-09-26T07:24:54Z</time>
      </trkpt>
      <trkpt lat="43.66953" lon="6.14667">
        <ele>595.3</ele>
        <time>2022-09-26T07:25:02Z</time>
      </trkpt>
      <trkpt lat="43.66961" lon="6.14673">
        <ele>595.6</ele>
        <time>2022-09-26T07:25:12Z</time>
      </trkpt>
      <trkpt lat="43.66969" lon="6.14681">
        <ele>596.9</ele>
        <time>2022-09-26T07:25:21Z</time>
      </trkpt>
      <trkpt lat="43.66977" lon="6.14685">
        <ele>596</ele>
        <time>2022-09-26T07:25:31Z</time>
      </trkpt>
      <trkpt lat="43.66986" lon="6.14689">
        <ele>596.1</ele>
        <time>2022-09-26T07:25:40Z</time>
      </trkpt>
      <trkpt lat="43.66994" lon="6.14694">
        <ele>596.6</ele>
        <time>2022-09-26T07:25:50Z</time>
      </trkpt>
      <trkpt lat="43.67002" lon="6.147">
        <ele>596.9</ele>
        <time>2022-09-26T07:25:59Z</time>
      </trkpt>
      <trkpt lat="43.6701" lon="6.14706">
        <ele>597</ele>
        <time>2022-09-26T07:26:08Z</time>
      </trkpt>
      <trkpt lat="43.67019" lon="6.14714">
        <ele>597.1</ele>
        <time>2022-09-26T07:26:18Z</time>
      </trkpt>
      <trkpt lat="43.67027" lon="6.1472">
        <ele>597.3</ele>
        <time>2022-09-26T07:26:27Z</time>
      </trkpt>
      <trkpt lat="43.67035" lon="6.14727">
        <ele>597.6</ele>
        <time>2022-09-26T07:26:35Z</time>
      </trkpt>
      <trkpt lat="43.67042" lon="6.14736">
        <ele>598.7</ele>
        <time>2022-09-26T07:26:40Z</time>
      </trkpt>
      <trkpt lat="43.67051" lon="6.14743">
        <ele>597.8</ele>
        <time>2022-09-26T07:26:52Z</time>
      </trkpt>
      <trkpt lat="43.67058" lon="6.14752">
        <ele>599.1</ele>
        <time>2022-09-26T07:27:00Z</time>
      </trkpt>
      <trkpt lat="43.67066" lon="6.1476">
        <ele>599.2</ele>
        <time>2022-09-26T07:27:08Z</time>
      </trkpt>
      <trkpt lat="43.67074" lon="6.14766">
        <ele>598</ele>
        <time>2022-09-26T07:27:17Z</time>
      </trkpt>
      <trkpt lat="43.67082" lon="6.14773">
        <ele>597.9</ele>
        <time>2022-09-26T07:27:26Z</time>
      </trkpt>
      <trkpt lat="43.6709" lon="6.14778">
        <ele>598</ele>
        <time>2022-09-26T07:27:33Z</time>
      </trkpt>
      <trkpt lat="43.67097" lon="6.14786">
        <ele>598.2</ele>
        <time>2022-09-26T07:27:43Z</time>
      </trkpt>
      <trkpt lat="43.67106" lon="6.14791">
        <ele>598.6</ele>
        <time>2022-09-26T07:27:53Z</time>
      </trkpt>
      <trkpt lat="43.67116" lon="6.14796">
        <ele>599</ele>
        <time>2022-09-26T07:28:02Z</time>
      </trkpt>
      <trkpt lat="43.67123" lon="6.14804">
        <ele>599.2</ele>
        <time>2022-09-26T07:28:12Z</time>
      </trkpt>
      <trkpt lat="43.6713" lon="6.14813">
        <ele>597.9</ele>
        <time>2022-09-26T07:28:21Z</time>
      </trkpt>
      <trkpt lat="43.67138" lon="6.1482">
        <ele>598.8</ele>
        <time>2022-09-26T07:28:33Z</time>
      </trkpt>
      <trkpt lat="43.67146" lon="6.14825">
        <ele>598.3</ele>
        <time>2022-09-26T07:28:41Z</time>
      </trkpt>
      <trkpt lat="43.67155" lon="6.1483">
        <ele>598.3</ele>
        <time>2022-09-26T07:28:51Z</time>
      </trkpt>
      <trkpt lat="43.67162" lon="6.14838">
        <ele>598.2</ele>
        <time>2022-09-26T07:28:59Z</time>
      </trkpt>
      <trkpt lat="43.67171" lon="6.14841">
        <ele>598.3</ele>
        <time>2022-09-26T07:29:07Z</time>
      </trkpt>
      <trkpt lat="43.67179" lon="6.14851">
        <ele>598.6</ele>
        <time>2022-09-26T07:29:18Z</time>
      </trkpt>
      <trkpt lat="43.67186" lon="6.14858">
        <ele>598.9</ele>
        <time>2022-09-26T07:29:28Z</time>
      </trkpt>
      <trkpt lat="43.67194" lon="6.14866">
        <ele>599.1</ele>
        <time>2022-09-26T07:29:37Z</time>
      </trkpt>
      <trkpt lat="43.67201" lon="6.14876">
        <ele>599.6</ele>
        <time>2022-09-26T07:29:48Z</time>
      </trkpt>
      <trkpt lat="43.67208" lon="6.14883">
        <ele>599.8</ele>
        <time>2022-09-26T07:29:57Z</time>
      </trkpt>
      <trkpt lat="43.67216" lon="6.14891">
        <ele>600.4</ele>
        <time>2022-09-26T07:30:07Z</time>
      </trkpt>
      <trkpt lat="43.67224" lon="6.149">
        <ele>600.7</ele>
        <time>2022-09-26T07:30:23Z</time>
      </trkpt>
      <trkpt lat="43.67232" lon="6.14908">
        <ele>601</ele>
        <time>2022-09-26T07:30:31Z</time>
      </trkpt>
      <trkpt lat="43.67241" lon="6.14903">
        <ele>601.4</ele>
        <time>2022-09-26T07:30:41Z</time>
      </trkpt>
      <trkpt lat="43.67249" lon="6.1491">
        <ele>601.6</ele>
        <time>2022-09-26T07:30:53Z</time>
      </trkpt>
      <trkpt lat="43.67256" lon="6.14919">
        <ele>602.2</ele>
        <time>2022-09-26T07:31:04Z</time>
      </trkpt>
      <trkpt lat="43.67261" lon="6.14929">
        <ele>602.5</ele>
        <time>2022-09-26T07:31:15Z</time>
      </trkpt>
      <trkpt lat="43.67267" lon="6.14939">
        <ele>602.9</ele>
        <time>2022-09-26T07:31:26Z</time>
      </trkpt>
      <trkpt lat="43.67272" lon="6.14951">
        <ele>603.1</ele>
        <time>2022-09-26T07:31:37Z</time>
      </trkpt>
      <trkpt lat="43.67277" lon="6.14962">
        <ele>603.1</ele>
        <time>2022-09-26T07:31:46Z</time>
      </trkpt>
      <trkpt lat="43.67283" lon="6.14971">
        <ele>603</ele>
        <time>2022-09-26T07:31:58Z</time>
      </trkpt>
      <trkpt lat="43.67289" lon="6.1498">
        <ele>603.8</ele>
        <time>2022-09-26T07:32:09Z</time>
      </trkpt>
      <trkpt lat="43.67296" lon="6.1499">
        <ele>603.9</ele>
        <time>2022-09-26T07:32:21Z</time>
      </trkpt>
      <trkpt lat="43.673" lon="6.15001">
        <ele>604.4</ele>
        <time>2022-09-26T07:32:32Z</time>
      </trkpt>
      <trkpt lat="43.67308" lon="6.15009">
        <ele>604.7</ele>
        <time>2022-09-26T07:32:43Z</time>
      </trkpt>
      <trkpt lat="43.67314" lon="6.15019">
        <ele>604.9</ele>
        <time>2022-09-26T07:32:53Z</time>
      </trkpt>
      <trkpt lat="43.67318" lon="6.1503">
        <ele>605.1</ele>
        <time>2022-09-26T07:33:01Z</time>
      </trkpt>
      <trkpt lat="43.67324" lon="6.15041">
        <ele>606</ele>
        <time>2022-09-26T07:33:14Z</time>
      </trkpt>
      <trkpt lat="43.6733" lon="6.1505">
        <ele>606</ele>
        <time>2022-09-26T07:33:23Z</time>
      </trkpt>
      <trkpt lat="43.67336" lon="6.1506">
        <ele>606.6</ele>
        <time>2022-09-26T07:33:32Z</time>
      </trkpt>
      <trkpt lat="43.67341" lon="6.15071">
        <ele>606.7</ele>
        <time>2022-09-26T07:33:42Z</time>
      </trkpt>
      <trkpt lat="43.67347" lon="6.1508">
        <ele>607.1</ele>
        <time>2022-09-26T07:34:06Z</time>
      </trkpt>
      <trkpt lat="43.67342" lon="6.15091">
        <ele>607.4</ele>
        <time>2022-09-26T07:34:28Z</time>
      </trkpt>
      <trkpt lat="43.67347" lon="6.15101">
        <ele>607.6</ele>
        <time>2022-09-26T07:35:10Z</time>
      </trkpt>
      <trkpt lat="43.67341" lon="6.15092">
        <ele>607.8</ele>
        <time>2022-09-26T07:36:39Z</time>
      </trkpt>
      <trkpt lat="43.67338" lon="6.1508">
        <ele>608.6</ele>
        <time>2022-09-26T07:38:24Z</time>
      </trkpt>
      <trkpt lat="43.67347" lon="6.15083">
        <ele>607.8</ele>
        <time>2022-09-26T07:39:49Z</time>
      </trkpt>
      <trkpt lat="43.67354" lon="6.15073">
        <ele>607.8</ele>
        <time>2022-09-26T07:40:07Z</time>
      </trkpt>
      <trkpt lat="43.67345" lon="6.15076">
        <ele>607.6</ele>
        <time>2022-09-26T07:41:28Z</time>
      </trkpt>
      <trkpt lat="43.6734" lon="6.15087">
        <ele>607.6</ele>
        <time>2022-09-26T07:41:52Z</time>
      </trkpt>
      <trkpt lat="43.67347" lon="6.15096">
        <ele>607.3</ele>
        <time>2022-09-26T07:42:06Z</time>
      </trkpt>
      <trkpt lat="43.67352" lon="6.15107">
        <ele>606.7</ele>
        <time>2022-09-26T07:42:17Z</time>
      </trkpt>
      <trkpt lat="43.67359" lon="6.15116">
        <ele>608</ele>
        <time>2022-09-26T07:42:29Z</time>
      </trkpt>
      <trkpt lat="43.67365" lon="6.15126">
        <ele>607.7</ele>
        <time>2022-09-26T07:42:41Z</time>
      </trkpt>
      <trkpt lat="43.6737" lon="6.15137">
        <ele>607.3</ele>
        <time>2022-09-26T07:42:53Z</time>
      </trkpt>
      <trkpt lat="43.67376" lon="6.15147">
        <ele>607.1</ele>
        <time>2022-09-26T07:43:04Z</time>
      </trkpt>
      <trkpt lat="43.67383" lon="6.15155">
        <ele>607.2</ele>
        <time>2022-09-26T07:43:14Z</time>
      </trkpt>
      <trkpt lat="43.6739" lon="6.15164">
        <ele>607.1</ele>
        <time>2022-09-26T07:43:23Z</time>
      </trkpt>
      <trkpt lat="43.67395" lon="6.15175">
        <ele>607.1</ele>
        <time>2022-09-26T07:43:32Z</time>
      </trkpt>
      <trkpt lat="43.67401" lon="6.15186">
        <ele>607</ele>
        <time>2022-09-26T07:43:42Z</time>
      </trkpt>
      <trkpt lat="43.67407" lon="6.15197">
        <ele>606.8</ele>
        <time>2022-09-26T07:43:51Z</time>
      </trkpt>
      <trkpt lat="43.67412" lon="6.15208">
        <ele>606.8</ele>
        <time>2022-09-26T07:44:00Z</time>
      </trkpt>
      <trkpt lat="43.67417" lon="6.15218">
        <ele>606.8</ele>
        <time>2022-09-26T07:44:10Z</time>
      </trkpt>
      <trkpt lat="43.67423" lon="6.15228">
        <ele>606.1</ele>
        <time>2022-09-26T07:44:19Z</time>
      </trkpt>
      <trkpt lat="43.67429" lon="6.15237">
        <ele>606.8</ele>
        <time>2022-09-26T07:44:28Z</time>
      </trkpt>
      <trkpt lat="43.67434" lon="6.15248">
        <ele>606.8</ele>
        <time>2022-09-26T07:44:39Z</time>
      </trkpt>
      <trkpt lat="43.6744" lon="6.15259">
        <ele>606.9</ele>
        <time>2022-09-26T07:44:53Z</time>
      </trkpt>
      <trkpt lat="43.67447" lon="6.15267">
        <ele>607.6</ele>
        <time>2022-09-26T07:45:02Z</time>
      </trkpt>
      <trkpt lat="43.67454" lon="6.15275">
        <ele>607.4</ele>
        <time>2022-09-26T07:45:09Z</time>
      </trkpt>
      <trkpt lat="43.67462" lon="6.15283">
        <ele>607.2</ele>
        <time>2022-09-26T07:45:19Z</time>
      </trkpt>
      <trkpt lat="43.67469" lon="6.15291">
        <ele>607.3</ele>
        <time>2022-09-26T07:45:30Z</time>
      </trkpt>
      <trkpt lat="43.67476" lon="6.153">
        <ele>607.1</ele>
        <time>2022-09-26T07:45:40Z</time>
      </trkpt>
      <trkpt lat="43.67484" lon="6.15308">
        <ele>607</ele>
        <time>2022-09-26T07:45:49Z</time>
      </trkpt>
      <trkpt lat="43.6749" lon="6.15317">
        <ele>606.9</ele>
        <time>2022-09-26T07:45:59Z</time>
      </trkpt>
      <trkpt lat="43.67498" lon="6.15324">
        <ele>607</ele>
        <time>2022-09-26T07:46:09Z</time>
      </trkpt>
      <trkpt lat="43.67507" lon="6.15329">
        <ele>606.9</ele>
        <time>2022-09-26T07:46:18Z</time>
      </trkpt>
      <trkpt lat="43.67516" lon="6.15336">
        <ele>606.8</ele>
        <time>2022-09-26T07:46:30Z</time>
      </trkpt>
      <trkpt lat="43.67524" lon="6.15344">
        <ele>606.7</ele>
        <time>2022-09-26T07:46:39Z</time>
      </trkpt>
      <trkpt lat="43.67534" lon="6.15347">
        <ele>606.3</ele>
        <time>2022-09-26T07:46:52Z</time>
      </trkpt>
      <trkpt lat="43.6754" lon="6.15357">
        <ele>606</ele>
        <time>2022-09-26T07:47:00Z</time>
      </trkpt>
      <trkpt lat="43.67548" lon="6.15364">
        <ele>606.2</ele>
        <time>2022-09-26T07:47:09Z</time>
      </trkpt>
      <trkpt lat="43.67556" lon="6.15372">
        <ele>605.9</ele>
        <time>2022-09-26T07:47:21Z</time>
      </trkpt>
      <trkpt lat="43.67563" lon="6.1538">
        <ele>605.7</ele>
        <time>2022-09-26T07:47:31Z</time>
      </trkpt>
      <trkpt lat="43.67572" lon="6.15386">
        <ele>605.8</ele>
        <time>2022-09-26T07:47:41Z</time>
      </trkpt>
      <trkpt lat="43.67579" lon="6.15395">
        <ele>605.7</ele>
        <time>2022-09-26T07:47:51Z</time>
      </trkpt>
      <trkpt lat="43.67585" lon="6.15405">
        <ele>605.7</ele>
        <time>2022-09-26T07:48:03Z</time>
      </trkpt>
      <trkpt lat="43.67593" lon="6.15411">
        <ele>605.9</ele>
        <time>2022-09-26T07:48:22Z</time>
      </trkpt>
      <trkpt lat="43.67599" lon="6.1542">
        <ele>605.7</ele>
        <time>2022-09-26T07:48:36Z</time>
      </trkpt>
      <trkpt lat="43.67601" lon="6.15433">
        <ele>606</ele>
        <time>2022-09-26T07:49:00Z</time>
      </trkpt>
      <trkpt lat="43.67607" lon="6.15443">
        <ele>606.2</ele>
        <time>2022-09-26T07:49:08Z</time>
      </trkpt>
      <trkpt lat="43.67614" lon="6.15453">
        <ele>606</ele>
        <time>2022-09-26T07:49:18Z</time>
      </trkpt>
      <trkpt lat="43.67622" lon="6.1546">
        <ele>605.8</ele>
        <time>2022-09-26T07:49:28Z</time>
      </trkpt>
      <trkpt lat="43.67629" lon="6.1547">
        <ele>605.7</ele>
        <time>2022-09-26T07:49:39Z</time>
      </trkpt>
      <trkpt lat="43.67634" lon="6.15481">
        <ele>605.5</ele>
        <time>2022-09-26T07:49:51Z</time>
      </trkpt>
      <trkpt lat="43.6764" lon="6.15491">
        <ele>605.3</ele>
        <time>2022-09-26T07:50:07Z</time>
      </trkpt>
      <trkpt lat="43.67646" lon="6.15501">
        <ele>605.3</ele>
        <time>2022-09-26T07:50:21Z</time>
      </trkpt>
      <trkpt lat="43.67655" lon="6.15499">
        <ele>604.6</ele>
        <time>2022-09-26T07:50:35Z</time>
      </trkpt>
      <trkpt lat="43.67664" lon="6.15493">
        <ele>604.5</ele>
        <time>2022-09-26T07:50:44Z</time>
      </trkpt>
      <trkpt lat="43.6767" lon="6.15484">
        <ele>604.1</ele>
        <time>2022-09-26T07:50:53Z</time>
      </trkpt>
      <trkpt lat="43.67677" lon="6.15476">
        <ele>603.5</ele>
        <time>2022-09-26T07:51:01Z</time>
      </trkpt>
      <trkpt lat="43.67684" lon="6.15468">
        <ele>601.9</ele>
        <time>2022-09-26T07:51:10Z</time>
      </trkpt>
      <trkpt lat="43.6769" lon="6.15459">
        <ele>600.2</ele>
        <time>2022-09-26T07:51:21Z</time>
      </trkpt>
      <trkpt lat="43.67695" lon="6.15447">
        <ele>599.6</ele>
        <time>2022-09-26T07:51:29Z</time>
      </trkpt>
      <trkpt lat="43.677" lon="6.15436">
        <ele>599.6</ele>
        <time>2022-09-26T07:51:39Z</time>
      </trkpt>
      <trkpt lat="43.67704" lon="6.15424">
        <ele>599.2</ele>
        <time>2022-09-26T07:51:48Z</time>
      </trkpt>
      <trkpt lat="43.67708" lon="6.15413">
        <ele>598.8</ele>
        <time>2022-09-26T07:51:58Z</time>
      </trkpt>
      <trkpt lat="43.67712" lon="6.15401">
        <ele>598.1</ele>
        <time>2022-09-26T07:52:07Z</time>
      </trkpt>
      <trkpt lat="43.67716" lon="6.15389">
        <ele>597.8</ele>
        <time>2022-09-26T07:52:16Z</time>
      </trkpt>
      <trkpt lat="43.67718" lon="6.15375">
        <ele>598</ele>
        <time>2022-09-26T07:52:27Z</time>
      </trkpt>
      <trkpt lat="43.6772" lon="6.15363">
        <ele>597.7</ele>
        <time>2022-09-26T07:52:38Z</time>
      </trkpt>
      <trkpt lat="43.67721" lon="6.1535">
        <ele>596</ele>
        <time>2022-09-26T07:52:48Z</time>
      </trkpt>
      <trkpt lat="43.67721" lon="6.15338">
        <ele>596.4</ele>
        <time>2022-09-26T07:52:55Z</time>
      </trkpt>
      <trkpt lat="43.67722" lon="6.15325">
        <ele>595.3</ele>
        <time>2022-09-26T07:53:05Z</time>
      </trkpt>
      <trkpt lat="43.67723" lon="6.15311">
        <ele>595.2</ele>
        <time>2022-09-26T07:53:13Z</time>
      </trkpt>
      <trkpt lat="43.67725" lon="6.15299">
        <ele>596.5</ele>
        <time>2022-09-26T07:53:22Z</time>
      </trkpt>
      <trkpt lat="43.6773" lon="6.15287">
        <ele>597.1</ele>
        <time>2022-09-26T07:53:32Z</time>
      </trkpt>
      <trkpt lat="43.67734" lon="6.15275">
        <ele>597.1</ele>
        <time>2022-09-26T07:53:42Z</time>
      </trkpt>
      <trkpt lat="43.67735" lon="6.15262">
        <ele>596.5</ele>
        <time>2022-09-26T07:53:51Z</time>
      </trkpt>
      <trkpt lat="43.67736" lon="6.15249">
        <ele>596.2</ele>
        <time>2022-09-26T07:54:01Z</time>
      </trkpt>
      <trkpt lat="43.67738" lon="6.15235">
        <ele>595.6</ele>
        <time>2022-09-26T07:54:11Z</time>
      </trkpt>
      <trkpt lat="43.67742" lon="6.15223">
        <ele>595</ele>
        <time>2022-09-26T07:54:22Z</time>
      </trkpt>
      <trkpt lat="43.67746" lon="6.15211">
        <ele>594.7</ele>
        <time>2022-09-26T07:54:32Z</time>
      </trkpt>
      <trkpt lat="43.67749" lon="6.15198">
        <ele>594.3</ele>
        <time>2022-09-26T07:54:41Z</time>
      </trkpt>
      <trkpt lat="43.67753" lon="6.15186">
        <ele>593.9</ele>
        <time>2022-09-26T07:54:51Z</time>
      </trkpt>
      <trkpt lat="43.67756" lon="6.15173">
        <ele>593.5</ele>
        <time>2022-09-26T07:55:00Z</time>
      </trkpt>
      <trkpt lat="43.67755" lon="6.15158">
        <ele>593.4</ele>
        <time>2022-09-26T07:55:08Z</time>
      </trkpt>
      <trkpt lat="43.67755" lon="6.15146">
        <ele>593.2</ele>
        <time>2022-09-26T07:55:17Z</time>
      </trkpt>
      <trkpt lat="43.67757" lon="6.15133">
        <ele>593</ele>
        <time>2022-09-26T07:55:24Z</time>
      </trkpt>
      <trkpt lat="43.67758" lon="6.1512">
        <ele>592.5</ele>
        <time>2022-09-26T07:55:32Z</time>
      </trkpt>
      <trkpt lat="43.67755" lon="6.15107">
        <ele>591.8</ele>
        <time>2022-09-26T07:55:45Z</time>
      </trkpt>
      <trkpt lat="43.67758" lon="6.15094">
        <ele>591.1</ele>
        <time>2022-09-26T07:55:57Z</time>
      </trkpt>
      <trkpt lat="43.67759" lon="6.15081">
        <ele>591.1</ele>
        <time>2022-09-26T07:56:08Z</time>
      </trkpt>
      <trkpt lat="43.6776" lon="6.15069">
        <ele>590.5</ele>
        <time>2022-09-26T07:56:19Z</time>
      </trkpt>
      <trkpt lat="43.6776" lon="6.15055">
        <ele>590</ele>
        <time>2022-09-26T07:56:29Z</time>
      </trkpt>
      <trkpt lat="43.67757" lon="6.15042">
        <ele>589.4</ele>
        <time>2022-09-26T07:56:39Z</time>
      </trkpt>
      <trkpt lat="43.67755" lon="6.15029">
        <ele>589.2</ele>
        <time>2022-09-26T07:56:48Z</time>
      </trkpt>
      <trkpt lat="43.67756" lon="6.15016">
        <ele>588.9</ele>
        <time>2022-09-26T07:56:58Z</time>
      </trkpt>
      <trkpt lat="43.67754" lon="6.15003">
        <ele>588.3</ele>
        <time>2022-09-26T07:57:06Z</time>
      </trkpt>
      <trkpt lat="43.6775" lon="6.1499">
        <ele>587.9</ele>
        <time>2022-09-26T07:57:15Z</time>
      </trkpt>
      <trkpt lat="43.67746" lon="6.14979">
        <ele>587</ele>
        <time>2022-09-26T07:57:25Z</time>
      </trkpt>
      <trkpt lat="43.67742" lon="6.14967">
        <ele>586.8</ele>
        <time>2022-09-26T07:57:36Z</time>
      </trkpt>
      <trkpt lat="43.67736" lon="6.14956">
        <ele>586.1</ele>
        <time>2022-09-26T07:57:46Z</time>
      </trkpt>
      <trkpt lat="43.67727" lon="6.14947">
        <ele>585.8</ele>
        <time>2022-09-26T07:57:54Z</time>
      </trkpt>
      <trkpt lat="43.6772" lon="6.14938">
        <ele>585.5</ele>
        <time>2022-09-26T07:58:01Z</time>
      </trkpt>
      <trkpt lat="43.67715" lon="6.14926">
        <ele>585.7</ele>
        <time>2022-09-26T07:58:11Z</time>
      </trkpt>
      <trkpt lat="43.67713" lon="6.14914">
        <ele>585.3</ele>
        <time>2022-09-26T07:58:21Z</time>
      </trkpt>
      <trkpt lat="43.67708" lon="6.14902">
        <ele>584.9</ele>
        <time>2022-09-26T07:58:30Z</time>
      </trkpt>
      <trkpt lat="43.67702" lon="6.14892">
        <ele>584.5</ele>
        <time>2022-09-26T07:58:39Z</time>
      </trkpt>
      <trkpt lat="43.67701" lon="6.14879">
        <ele>583.7</ele>
        <time>2022-09-26T07:58:51Z</time>
      </trkpt>
      <trkpt lat="43.67698" lon="6.14866">
        <ele>583.8</ele>
        <time>2022-09-26T07:59:01Z</time>
      </trkpt>
      <trkpt lat="43.67696" lon="6.14854">
        <ele>583.4</ele>
        <time>2022-09-26T07:59:10Z</time>
      </trkpt>
      <trkpt lat="43.67693" lon="6.14841">
        <ele>583</ele>
        <time>2022-09-26T07:59:17Z</time>
      </trkpt>
      <trkpt lat="43.6769" lon="6.14829">
        <ele>582.6</ele>
        <time>2022-09-26T07:59:25Z</time>
      </trkpt>
      <trkpt lat="43.67688" lon="6.14815">
        <ele>582.3</ele>
        <time>2022-09-26T07:59:35Z</time>
      </trkpt>
      <trkpt lat="43.67687" lon="6.14803">
        <ele>581.7</ele>
        <time>2022-09-26T07:59:45Z</time>
      </trkpt>
      <trkpt lat="43.6769" lon="6.14791">
        <ele>581.4</ele>
        <time>2022-09-26T07:59:55Z</time>
      </trkpt>
      <trkpt lat="43.6769" lon="6.14777">
        <ele>581.1</ele>
        <time>2022-09-26T08:00:05Z</time>
      </trkpt>
      <trkpt lat="43.67686" lon="6.14765">
        <ele>580.7</ele>
        <time>2022-09-26T08:00:14Z</time>
      </trkpt>
      <trkpt lat="43.67682" lon="6.14753">
        <ele>580.1</ele>
        <time>2022-09-26T08:00:43Z</time>
      </trkpt>
      <trkpt lat="43.67689" lon="6.14744">
        <ele>579.6</ele>
        <time>2022-09-26T08:01:24Z</time>
      </trkpt>
      <trkpt lat="43.67685" lon="6.14733">
        <ele>579.1</ele>
        <time>2022-09-26T08:01:36Z</time>
      </trkpt>
      <trkpt lat="43.67687" lon="6.1472">
        <ele>578.1</ele>
        <time>2022-09-26T08:02:47Z</time>
      </trkpt>
      <trkpt lat="43.67687" lon="6.14707">
        <ele>575.4</ele>
        <time>2022-09-26T08:02:59Z</time>
      </trkpt>
      <trkpt lat="43.67692" lon="6.14696">
        <ele>576.5</ele>
        <time>2022-09-26T08:03:10Z</time>
      </trkpt>
      <trkpt lat="43.67693" lon="6.14684">
        <ele>575.2</ele>
        <time>2022-09-26T08:03:19Z</time>
      </trkpt>
      <trkpt lat="43.67692" lon="6.1467">
        <ele>578</ele>
        <time>2022-09-26T08:03:24Z</time>
      </trkpt>
      <trkpt lat="43.67693" lon="6.14658">
        <ele>577.8</ele>
        <time>2022-09-26T08:03:34Z</time>
      </trkpt>
      <trkpt lat="43.67689" lon="6.14646">
        <ele>572.8</ele>
        <time>2022-09-26T08:04:09Z</time>
      </trkpt>
      <trkpt lat="43.67683" lon="6.14637">
        <ele>575.6</ele>
        <time>2022-09-26T08:04:31Z</time>
      </trkpt>
      <trkpt lat="43.6769" lon="6.14627">
        <ele>574.4</ele>
        <time>2022-09-26T08:04:46Z</time>
      </trkpt>
      <trkpt lat="43.67694" lon="6.14616">
        <ele>575.7</ele>
        <time>2022-09-26T08:04:54Z</time>
      </trkpt>
      <trkpt lat="43.67696" lon="6.14603">
        <ele>573.9</ele>
        <time>2022-09-26T08:05:07Z</time>
      </trkpt>
      <trkpt lat="43.67701" lon="6.14592">
        <ele>572.9</ele>
        <time>2022-09-26T08:05:18Z</time>
      </trkpt>
      <trkpt lat="43.67705" lon="6.14581">
        <ele>571.9</ele>
        <time>2022-09-26T08:05:31Z</time>
      </trkpt>
      <trkpt lat="43.67706" lon="6.14568">
        <ele>571.1</ele>
        <time>2022-09-26T08:05:45Z</time>
      </trkpt>
      <trkpt lat="43.6771" lon="6.14556">
        <ele>570.8</ele>
        <time>2022-09-26T08:05:57Z</time>
      </trkpt>
      <trkpt lat="43.67713" lon="6.14543">
        <ele>570.3</ele>
        <time>2022-09-26T08:06:09Z</time>
      </trkpt>
      <trkpt lat="43.67718" lon="6.14532">
        <ele>570</ele>
        <time>2022-09-26T08:06:19Z</time>
      </trkpt>
      <trkpt lat="43.6772" lon="6.14518">
        <ele>569.7</ele>
        <time>2022-09-26T08:06:29Z</time>
      </trkpt>
      <trkpt lat="43.67721" lon="6.14506">
        <ele>569.5</ele>
        <time>2022-09-26T08:06:41Z</time>
      </trkpt>
      <trkpt lat="43.6772" lon="6.14493">
        <ele>569.1</ele>
        <time>2022-09-26T08:06:51Z</time>
      </trkpt>
      <trkpt lat="43.67717" lon="6.14481">
        <ele>568.8</ele>
        <time>2022-09-26T08:07:02Z</time>
      </trkpt>
      <trkpt lat="43.67712" lon="6.1447">
        <ele>568.3</ele>
        <time>2022-09-26T08:07:12Z</time>
      </trkpt>
      <trkpt lat="43.67708" lon="6.14459">
        <ele>568.1</ele>
        <time>2022-09-26T08:07:22Z</time>
      </trkpt>
      <trkpt lat="43.67702" lon="6.14449">
        <ele>567.4</ele>
        <time>2022-09-26T08:07:33Z</time>
      </trkpt>
      <trkpt lat="43.67695" lon="6.1444">
        <ele>566.9</ele>
        <time>2022-09-26T08:07:45Z</time>
      </trkpt>
      <trkpt lat="43.67686" lon="6.14432">
        <ele>567</ele>
        <time>2022-09-26T08:08:02Z</time>
      </trkpt>
      <trkpt lat="43.67681" lon="6.14422">
        <ele>566.4</ele>
        <time>2022-09-26T08:08:12Z</time>
      </trkpt>
      <trkpt lat="43.67673" lon="6.14414">
        <ele>559.5</ele>
        <time>2022-09-26T08:08:22Z</time>
      </trkpt>
      <trkpt lat="43.67665" lon="6.14405">
        <ele>563.5</ele>
        <time>2022-09-26T08:08:32Z</time>
      </trkpt>
      <trkpt lat="43.67659" lon="6.14396">
        <ele>562.9</ele>
        <time>2022-09-26T08:08:38Z</time>
      </trkpt>
      <trkpt lat="43.67653" lon="6.14386">
        <ele>564.4</ele>
        <time>2022-09-26T08:08:49Z</time>
      </trkpt>
      <trkpt lat="43.67646" lon="6.14376">
        <ele>568.3</ele>
        <time>2022-09-26T08:08:59Z</time>
      </trkpt>
      <trkpt lat="43.67642" lon="6.14364">
        <ele>567</ele>
        <time>2022-09-26T08:09:08Z</time>
      </trkpt>
      <trkpt lat="43.67638" lon="6.14352">
        <ele>564.6</ele>
        <time>2022-09-26T08:09:18Z</time>
      </trkpt>
      <trkpt lat="43.67633" lon="6.14341">
        <ele>563.2</ele>
        <time>2022-09-26T08:09:30Z</time>
      </trkpt>
      <trkpt lat="43.67629" lon="6.14329">
        <ele>562.5</ele>
        <time>2022-09-26T08:09:42Z</time>
      </trkpt>
      <trkpt lat="43.67624" lon="6.14317">
        <ele>562</ele>
        <time>2022-09-26T08:09:53Z</time>
      </trkpt>
      <trkpt lat="43.67619" lon="6.14307">
        <ele>561.8</ele>
        <time>2022-09-26T08:10:02Z</time>
      </trkpt>
      <trkpt lat="43.67615" lon="6.14295">
        <ele>561.4</ele>
        <time>2022-09-26T08:10:11Z</time>
      </trkpt>
      <trkpt lat="43.67614" lon="6.14281">
        <ele>561.2</ele>
        <time>2022-09-26T08:10:21Z</time>
      </trkpt>
      <trkpt lat="43.67614" lon="6.14268">
        <ele>561</ele>
        <time>2022-09-26T08:10:32Z</time>
      </trkpt>
      <trkpt lat="43.67611" lon="6.14256">
        <ele>560.3</ele>
        <time>2022-09-26T08:10:42Z</time>
      </trkpt>
      <trkpt lat="43.67609" lon="6.14243">
        <ele>559.7</ele>
        <time>2022-09-26T08:10:54Z</time>
      </trkpt>
      <trkpt lat="43.67607" lon="6.1423">
        <ele>559</ele>
        <time>2022-09-26T08:11:07Z</time>
      </trkpt>
      <trkpt lat="43.67606" lon="6.14217">
        <ele>558.4</ele>
        <time>2022-09-26T08:11:17Z</time>
      </trkpt>
      <trkpt lat="43.67607" lon="6.14203">
        <ele>558.3</ele>
        <time>2022-09-26T08:11:29Z</time>
      </trkpt>
      <trkpt lat="43.67608" lon="6.1419">
        <ele>558</ele>
        <time>2022-09-26T08:11:39Z</time>
      </trkpt>
      <trkpt lat="43.6761" lon="6.14177">
        <ele>557.7</ele>
        <time>2022-09-26T08:11:48Z</time>
      </trkpt>
      <trkpt lat="43.67613" lon="6.14164">
        <ele>557.5</ele>
        <time>2022-09-26T08:12:01Z</time>
      </trkpt>
      <trkpt lat="43.67616" lon="6.14153">
        <ele>557.3</ele>
        <time>2022-09-26T08:12:10Z</time>
      </trkpt>
      <trkpt lat="43.67619" lon="6.14139">
        <ele>557.4</ele>
        <time>2022-09-26T08:12:20Z</time>
      </trkpt>
      <trkpt lat="43.6762" lon="6.14126">
        <ele>556.5</ele>
        <time>2022-09-26T08:12:29Z</time>
      </trkpt>
      <trkpt lat="43.6762" lon="6.14113">
        <ele>556.3</ele>
        <time>2022-09-26T08:12:37Z</time>
      </trkpt>
      <trkpt lat="43.67621" lon="6.14101">
        <ele>556.2</ele>
        <time>2022-09-26T08:12:46Z</time>
      </trkpt>
      <trkpt lat="43.6762" lon="6.14088">
        <ele>556.2</ele>
        <time>2022-09-26T08:12:57Z</time>
      </trkpt>
      <trkpt lat="43.67618" lon="6.14076">
        <ele>556.7</ele>
        <time>2022-09-26T08:13:05Z</time>
      </trkpt>
      <trkpt lat="43.67615" lon="6.14064">
        <ele>556.6</ele>
        <time>2022-09-26T08:13:13Z</time>
      </trkpt>
      <trkpt lat="43.67613" lon="6.1405">
        <ele>555.7</ele>
        <time>2022-09-26T08:13:24Z</time>
      </trkpt>
      <trkpt lat="43.6761" lon="6.14037">
        <ele>555.2</ele>
        <time>2022-09-26T08:13:34Z</time>
      </trkpt>
      <trkpt lat="43.67606" lon="6.14025">
        <ele>555</ele>
        <time>2022-09-26T08:13:43Z</time>
      </trkpt>
      <trkpt lat="43.67603" lon="6.14012">
        <ele>554.4</ele>
        <time>2022-09-26T08:13:55Z</time>
      </trkpt>
      <trkpt lat="43.67602" lon="6.13999">
        <ele>554.1</ele>
        <time>2022-09-26T08:14:05Z</time>
      </trkpt>
      <trkpt lat="43.67602" lon="6.13986">
        <ele>554.3</ele>
        <time>2022-09-26T08:14:15Z</time>
      </trkpt>
      <trkpt lat="43.67602" lon="6.13972">
        <ele>554.4</ele>
        <time>2022-09-26T08:14:24Z</time>
      </trkpt>
      <trkpt lat="43.67601" lon="6.13959">
        <ele>554</ele>
        <time>2022-09-26T08:14:33Z</time>
      </trkpt>
      <trkpt lat="43.676" lon="6.13946">
        <ele>553.7</ele>
        <time>2022-09-26T08:14:43Z</time>
      </trkpt>
      <trkpt lat="43.67602" lon="6.13932">
        <ele>552.1</ele>
        <time>2022-09-26T08:14:53Z</time>
      </trkpt>
      <trkpt lat="43.67603" lon="6.13919">
        <ele>550.8</ele>
        <time>2022-09-26T08:15:03Z</time>
      </trkpt>
      <trkpt lat="43.67603" lon="6.13906">
        <ele>552</ele>
        <time>2022-09-26T08:15:13Z</time>
      </trkpt>
      <trkpt lat="43.67605" lon="6.13893">
        <ele>552.4</ele>
        <time>2022-09-26T08:15:23Z</time>
      </trkpt>
      <trkpt lat="43.67606" lon="6.1388">
        <ele>552</ele>
        <time>2022-09-26T08:15:33Z</time>
      </trkpt>
      <trkpt lat="43.67608" lon="6.13867">
        <ele>552</ele>
        <time>2022-09-26T08:15:42Z</time>
      </trkpt>
      <trkpt lat="43.67611" lon="6.13854">
        <ele>551.3</ele>
        <time>2022-09-26T08:15:51Z</time>
      </trkpt>
      <trkpt lat="43.67616" lon="6.13843">
        <ele>551.5</ele>
        <time>2022-09-26T08:15:57Z</time>
      </trkpt>
      <trkpt lat="43.6762" lon="6.13831">
        <ele>550.7</ele>
        <time>2022-09-26T08:16:06Z</time>
      </trkpt>
      <trkpt lat="43.6762" lon="6.13818">
        <ele>550.8</ele>
        <time>2022-09-26T08:16:15Z</time>
      </trkpt>
      <trkpt lat="43.67619" lon="6.13805">
        <ele>550</ele>
        <time>2022-09-26T08:16:25Z</time>
      </trkpt>
      <trkpt lat="43.67619" lon="6.13792">
        <ele>550.1</ele>
        <time>2022-09-26T08:16:34Z</time>
      </trkpt>
      <trkpt lat="43.67617" lon="6.13779">
        <ele>549.6</ele>
        <time>2022-09-26T08:16:44Z</time>
      </trkpt>
      <trkpt lat="43.67615" lon="6.13767">
        <ele>550</ele>
        <time>2022-09-26T08:16:53Z</time>
      </trkpt>
      <trkpt lat="43.67612" lon="6.13754">
        <ele>549.9</ele>
        <time>2022-09-26T08:17:04Z</time>
      </trkpt>
      <trkpt lat="43.67607" lon="6.13743">
        <ele>549.6</ele>
        <time>2022-09-26T08:17:15Z</time>
      </trkpt>
      <trkpt lat="43.676" lon="6.13735">
        <ele>549.6</ele>
        <time>2022-09-26T08:17:24Z</time>
      </trkpt>
      <trkpt lat="43.67595" lon="6.13724">
        <ele>548.9</ele>
        <time>2022-09-26T08:17:39Z</time>
      </trkpt>
      <trkpt lat="43.67598" lon="6.13712">
        <ele>546.8</ele>
        <time>2022-09-26T08:18:05Z</time>
      </trkpt>
      <trkpt lat="43.67608" lon="6.1371">
        <ele>548</ele>
        <time>2022-09-26T08:19:50Z</time>
      </trkpt>
      <trkpt lat="43.67599" lon="6.13715">
        <ele>549.2</ele>
        <time>2022-09-26T08:23:32Z</time>
      </trkpt>
      <trkpt lat="43.67591" lon="6.13709">
        <ele>549.2</ele>
        <time>2022-09-26T08:28:44Z</time>
      </trkpt>
      <trkpt lat="43.676" lon="6.13715">
        <ele>550.6</ele>
        <time>2022-09-26T08:30:53Z</time>
      </trkpt>
      <trkpt lat="43.676" lon="6.13702">
        <ele>550.8</ele>
        <time>2022-09-26T08:31:59Z</time>
      </trkpt>
      <trkpt lat="43.67599" lon="6.13689">
        <ele>550.7</ele>
        <time>2022-09-26T08:32:18Z</time>
      </trkpt>
      <trkpt lat="43.67603" lon="6.13676">
        <ele>550.8</ele>
        <time>2022-09-26T08:32:30Z</time>
      </trkpt>
      <trkpt lat="43.67608" lon="6.13665">
        <ele>551.2</ele>
        <time>2022-09-26T08:33:08Z</time>
      </trkpt>
      <trkpt lat="43.67609" lon="6.13652">
        <ele>551.3</ele>
        <time>2022-09-26T08:33:25Z</time>
      </trkpt>
      <trkpt lat="43.67613" lon="6.1364">
        <ele>550.7</ele>
        <time>2022-09-26T08:33:38Z</time>
      </trkpt>
      <trkpt lat="43.67619" lon="6.13629">
        <ele>550.6</ele>
        <time>2022-09-26T08:33:48Z</time>
      </trkpt>
      <trkpt lat="43.67625" lon="6.13621">
        <ele>550.3</ele>
        <time>2022-09-26T08:33:58Z</time>
      </trkpt>
      <trkpt lat="43.67628" lon="6.13608">
        <ele>550</ele>
        <time>2022-09-26T08:34:12Z</time>
      </trkpt>
      <trkpt lat="43.67627" lon="6.13595">
        <ele>549.9</ele>
        <time>2022-09-26T08:34:28Z</time>
      </trkpt>
      <trkpt lat="43.67624" lon="6.13582">
        <ele>549.6</ele>
        <time>2022-09-26T08:34:42Z</time>
      </trkpt>
      <trkpt lat="43.6762" lon="6.1357">
        <ele>549.5</ele>
        <time>2022-09-26T08:34:52Z</time>
      </trkpt>
      <trkpt lat="43.67615" lon="6.13557">
        <ele>549.2</ele>
        <time>2022-09-26T08:35:03Z</time>
      </trkpt>
      <trkpt lat="43.67609" lon="6.13547">
        <ele>548.9</ele>
        <time>2022-09-26T08:35:13Z</time>
      </trkpt>
      <trkpt lat="43.67602" lon="6.13538">
        <ele>549</ele>
        <time>2022-09-26T08:35:23Z</time>
      </trkpt>
      <trkpt lat="43.67597" lon="6.13527">
        <ele>548.8</ele>
        <time>2022-09-26T08:35:34Z</time>
      </trkpt>
      <trkpt lat="43.67589" lon="6.1352">
        <ele>548.9</ele>
        <time>2022-09-26T08:35:42Z</time>
      </trkpt>
      <trkpt lat="43.67581" lon="6.13512">
        <ele>548.9</ele>
        <time>2022-09-26T08:35:50Z</time>
      </trkpt>
      <trkpt lat="43.67576" lon="6.13501">
        <ele>548.9</ele>
        <time>2022-09-26T08:36:02Z</time>
      </trkpt>
      <trkpt lat="43.67571" lon="6.1349">
        <ele>548.7</ele>
        <time>2022-09-26T08:36:12Z</time>
      </trkpt>
      <trkpt lat="43.67564" lon="6.13481">
        <ele>548.3</ele>
        <time>2022-09-26T08:36:22Z</time>
      </trkpt>
      <trkpt lat="43.67555" lon="6.13476">
        <ele>547.6</ele>
        <time>2022-09-26T08:36:32Z</time>
      </trkpt>
      <trkpt lat="43.67546" lon="6.13473">
        <ele>547.4</ele>
        <time>2022-09-26T08:36:42Z</time>
      </trkpt>
      <trkpt lat="43.67537" lon="6.13467">
        <ele>547.3</ele>
        <time>2022-09-26T08:36:52Z</time>
      </trkpt>
      <trkpt lat="43.67533" lon="6.13455">
        <ele>547.7</ele>
        <time>2022-09-26T08:37:02Z</time>
      </trkpt>
      <trkpt lat="43.67531" lon="6.13443">
        <ele>547.6</ele>
        <time>2022-09-26T08:37:13Z</time>
      </trkpt>
      <trkpt lat="43.67531" lon="6.1343">
        <ele>547.9</ele>
        <time>2022-09-26T08:37:23Z</time>
      </trkpt>
      <trkpt lat="43.67532" lon="6.13417">
        <ele>548.1</ele>
        <time>2022-09-26T08:37:32Z</time>
      </trkpt>
      <trkpt lat="43.67531" lon="6.13403">
        <ele>547.7</ele>
        <time>2022-09-26T08:37:42Z</time>
      </trkpt>
      <trkpt lat="43.67529" lon="6.1339">
        <ele>548.2</ele>
        <time>2022-09-26T08:37:51Z</time>
      </trkpt>
      <trkpt lat="43.67528" lon="6.13378">
        <ele>547.7</ele>
        <time>2022-09-26T08:38:00Z</time>
      </trkpt>
      <trkpt lat="43.67531" lon="6.13366">
        <ele>547.5</ele>
        <time>2022-09-26T08:38:09Z</time>
      </trkpt>
      <trkpt lat="43.67532" lon="6.13352">
        <ele>546.9</ele>
        <time>2022-09-26T08:38:17Z</time>
      </trkpt>
      <trkpt lat="43.67534" lon="6.1334">
        <ele>546.7</ele>
        <time>2022-09-26T08:38:25Z</time>
      </trkpt>
      <trkpt lat="43.67535" lon="6.13327">
        <ele>546.7</ele>
        <time>2022-09-26T08:38:34Z</time>
      </trkpt>
      <trkpt lat="43.67537" lon="6.13314">
        <ele>546.8</ele>
        <time>2022-09-26T08:38:43Z</time>
      </trkpt>
      <trkpt lat="43.67536" lon="6.13302">
        <ele>547.1</ele>
        <time>2022-09-26T08:38:53Z</time>
      </trkpt>
      <trkpt lat="43.67534" lon="6.1329">
        <ele>547.2</ele>
        <time>2022-09-26T08:39:02Z</time>
      </trkpt>
      <trkpt lat="43.67533" lon="6.13277">
        <ele>547.5</ele>
        <time>2022-09-26T08:39:12Z</time>
      </trkpt>
      <trkpt lat="43.67528" lon="6.13265">
        <ele>547.5</ele>
        <time>2022-09-26T08:39:22Z</time>
      </trkpt>
      <trkpt lat="43.6752" lon="6.13256">
        <ele>547.2</ele>
        <time>2022-09-26T08:39:32Z</time>
      </trkpt>
      <trkpt lat="43.67512" lon="6.13251">
        <ele>546.9</ele>
        <time>2022-09-26T08:39:41Z</time>
      </trkpt>
      <trkpt lat="43.67503" lon="6.13243">
        <ele>546</ele>
        <time>2022-09-26T08:39:52Z</time>
      </trkpt>
      <trkpt lat="43.67494" lon="6.13237">
        <ele>545.3</ele>
        <time>2022-09-26T08:40:00Z</time>
      </trkpt>
      <trkpt lat="43.67487" lon="6.13229">
        <ele>545.6</ele>
        <time>2022-09-26T08:40:11Z</time>
      </trkpt>
      <trkpt lat="43.67481" lon="6.1322">
        <ele>545.6</ele>
        <time>2022-09-26T08:40:21Z</time>
      </trkpt>
      <trkpt lat="43.67477" lon="6.13207">
        <ele>545.9</ele>
        <time>2022-09-26T08:40:32Z</time>
      </trkpt>
      <trkpt lat="43.67477" lon="6.13194">
        <ele>545.6</ele>
        <time>2022-09-26T08:40:42Z</time>
      </trkpt>
      <trkpt lat="43.67477" lon="6.13181">
        <ele>545.2</ele>
        <time>2022-09-26T08:40:53Z</time>
      </trkpt>
      <trkpt lat="43.67478" lon="6.13168">
        <ele>544.6</ele>
        <time>2022-09-26T08:41:04Z</time>
      </trkpt>
      <trkpt lat="43.67483" lon="6.13156">
        <ele>544.2</ele>
        <time>2022-09-26T08:41:13Z</time>
      </trkpt>
      <trkpt lat="43.67487" lon="6.13145">
        <ele>543.9</ele>
        <time>2022-09-26T08:41:22Z</time>
      </trkpt>
      <trkpt lat="43.67493" lon="6.13134">
        <ele>543.7</ele>
        <time>2022-09-26T08:41:33Z</time>
      </trkpt>
      <trkpt lat="43.67498" lon="6.13123">
        <ele>543.7</ele>
        <time>2022-09-26T08:41:43Z</time>
      </trkpt>
      <trkpt lat="43.67503" lon="6.13113">
        <ele>543.6</ele>
        <time>2022-09-26T08:41:55Z</time>
      </trkpt>
      <trkpt lat="43.67508" lon="6.13102">
        <ele>543.4</ele>
        <time>2022-09-26T08:42:06Z</time>
      </trkpt>
      <trkpt lat="43.67513" lon="6.1309">
        <ele>543.5</ele>
        <time>2022-09-26T08:42:16Z</time>
      </trkpt>
      <trkpt lat="43.67516" lon="6.13078">
        <ele>543.8</ele>
        <time>2022-09-26T08:42:25Z</time>
      </trkpt>
      <trkpt lat="43.67515" lon="6.13064">
        <ele>544.2</ele>
        <time>2022-09-26T08:42:35Z</time>
      </trkpt>
      <trkpt lat="43.6751" lon="6.13053">
        <ele>544.5</ele>
        <time>2022-09-26T08:42:45Z</time>
      </trkpt>
      <trkpt lat="43.67504" lon="6.13044">
        <ele>544.2</ele>
        <time>2022-09-26T08:42:54Z</time>
      </trkpt>
      <trkpt lat="43.67496" lon="6.13035">
        <ele>543.8</ele>
        <time>2022-09-26T08:43:04Z</time>
      </trkpt>
      <trkpt lat="43.67488" lon="6.13029">
        <ele>544.1</ele>
        <time>2022-09-26T08:43:14Z</time>
      </trkpt>
      <trkpt lat="43.67483" lon="6.13018">
        <ele>543.7</ele>
        <time>2022-09-26T08:43:26Z</time>
      </trkpt>
      <trkpt lat="43.67478" lon="6.13007">
        <ele>541.6</ele>
        <time>2022-09-26T08:43:48Z</time>
      </trkpt>
      <trkpt lat="43.67474" lon="6.12995">
        <ele>544.4</ele>
        <time>2022-09-26T08:43:59Z</time>
      </trkpt>
      <trkpt lat="43.67475" lon="6.12981">
        <ele>544.9</ele>
        <time>2022-09-26T08:44:12Z</time>
      </trkpt>
      <trkpt lat="43.67479" lon="6.1297">
        <ele>544.3</ele>
        <time>2022-09-26T08:44:23Z</time>
      </trkpt>
      <trkpt lat="43.67485" lon="6.12958">
        <ele>543.8</ele>
        <time>2022-09-26T08:44:34Z</time>
      </trkpt>
      <trkpt lat="43.6749" lon="6.12948">
        <ele>542.9</ele>
        <time>2022-09-26T08:44:44Z</time>
      </trkpt>
      <trkpt lat="43.67498" lon="6.12941">
        <ele>542.2</ele>
        <time>2022-09-26T08:44:55Z</time>
      </trkpt>
      <trkpt lat="43.67506" lon="6.12933">
        <ele>541.8</ele>
        <time>2022-09-26T08:45:05Z</time>
      </trkpt>
      <trkpt lat="43.67515" lon="6.12927">
        <ele>541.4</ele>
        <time>2022-09-26T08:45:15Z</time>
      </trkpt>
      <trkpt lat="43.67523" lon="6.1292">
        <ele>541.1</ele>
        <time>2022-09-26T08:45:25Z</time>
      </trkpt>
      <trkpt lat="43.6753" lon="6.12912">
        <ele>539.9</ele>
        <time>2022-09-26T08:45:35Z</time>
      </trkpt>
      <trkpt lat="43.67535" lon="6.12901">
        <ele>541.2</ele>
        <time>2022-09-26T08:45:44Z</time>
      </trkpt>
      <trkpt lat="43.67538" lon="6.12889">
        <ele>542</ele>
        <time>2022-09-26T08:45:54Z</time>
      </trkpt>
      <trkpt lat="43.67539" lon="6.12876">
        <ele>543.2</ele>
        <time>2022-09-26T08:46:04Z</time>
      </trkpt>
      <trkpt lat="43.67538" lon="6.12863">
        <ele>543.3</ele>
        <time>2022-09-26T08:46:15Z</time>
      </trkpt>
      <trkpt lat="43.67536" lon="6.1285">
        <ele>543.2</ele>
        <time>2022-09-26T08:46:24Z</time>
      </trkpt>
      <trkpt lat="43.67533" lon="6.12838">
        <ele>542.6</ele>
        <time>2022-09-26T08:46:33Z</time>
      </trkpt>
      <trkpt lat="43.67528" lon="6.12826">
        <ele>542</ele>
        <time>2022-09-26T08:46:41Z</time>
      </trkpt>
      <trkpt lat="43.67522" lon="6.12815">
        <ele>541.4</ele>
        <time>2022-09-26T08:46:51Z</time>
      </trkpt>
      <trkpt lat="43.67518" lon="6.12804">
        <ele>541.1</ele>
        <time>2022-09-26T08:47:01Z</time>
      </trkpt>
      <trkpt lat="43.6752" lon="6.12791">
        <ele>541.1</ele>
        <time>2022-09-26T08:47:10Z</time>
      </trkpt>
      <trkpt lat="43.67521" lon="6.12778">
        <ele>541.3</ele>
        <time>2022-09-26T08:47:21Z</time>
      </trkpt>
      <trkpt lat="43.67522" lon="6.12765">
        <ele>540.8</ele>
        <time>2022-09-26T08:47:32Z</time>
      </trkpt>
      <trkpt lat="43.67523" lon="6.12752">
        <ele>540.6</ele>
        <time>2022-09-26T08:47:42Z</time>
      </trkpt>
      <trkpt lat="43.67524" lon="6.12739">
        <ele>540.4</ele>
        <time>2022-09-26T08:47:52Z</time>
      </trkpt>
      <trkpt lat="43.67524" lon="6.12725">
        <ele>540.1</ele>
        <time>2022-09-26T08:48:03Z</time>
      </trkpt>
      <trkpt lat="43.6752" lon="6.12712">
        <ele>539.7</ele>
        <time>2022-09-26T08:48:11Z</time>
      </trkpt>
      <trkpt lat="43.67511" lon="6.12709">
        <ele>539.6</ele>
        <time>2022-09-26T08:48:21Z</time>
      </trkpt>
      <trkpt lat="43.67505" lon="6.12719">
        <ele>539.8</ele>
        <time>2022-09-26T08:48:31Z</time>
      </trkpt>
      <trkpt lat="43.67496" lon="6.12726">
        <ele>539.7</ele>
        <time>2022-09-26T08:48:42Z</time>
      </trkpt>
      <trkpt lat="43.67489" lon="6.12735">
        <ele>539.3</ele>
        <time>2022-09-26T08:49:09Z</time>
      </trkpt>
      <trkpt lat="43.67481" lon="6.12742">
        <ele>538.8</ele>
        <time>2022-09-26T08:49:20Z</time>
      </trkpt>
      <trkpt lat="43.67471" lon="6.12741">
        <ele>538.7</ele>
        <time>2022-09-26T08:49:31Z</time>
      </trkpt>
      <trkpt lat="43.67464" lon="6.12733">
        <ele>538.5</ele>
        <time>2022-09-26T08:49:40Z</time>
      </trkpt>
      <trkpt lat="43.67463" lon="6.1272">
        <ele>538.3</ele>
        <time>2022-09-26T08:49:51Z</time>
      </trkpt>
      <trkpt lat="43.67467" lon="6.12709">
        <ele>538.4</ele>
        <time>2022-09-26T08:49:58Z</time>
      </trkpt>
      <trkpt lat="43.67473" lon="6.12697">
        <ele>538.4</ele>
        <time>2022-09-26T08:50:06Z</time>
      </trkpt>
      <trkpt lat="43.67477" lon="6.12685">
        <ele>538.5</ele>
        <time>2022-09-26T08:50:15Z</time>
      </trkpt>
      <trkpt lat="43.67479" lon="6.12671">
        <ele>538.7</ele>
        <time>2022-09-26T08:50:24Z</time>
      </trkpt>
      <trkpt lat="43.6748" lon="6.12659">
        <ele>539</ele>
        <time>2022-09-26T08:50:32Z</time>
      </trkpt>
      <trkpt lat="43.6748" lon="6.12646">
        <ele>539.2</ele>
        <time>2022-09-26T08:50:40Z</time>
      </trkpt>
      <trkpt lat="43.67482" lon="6.12633">
        <ele>539.1</ele>
        <time>2022-09-26T08:50:48Z</time>
      </trkpt>
      <trkpt lat="43.67483" lon="6.1262">
        <ele>539.1</ele>
        <time>2022-09-26T08:50:56Z</time>
      </trkpt>
      <trkpt lat="43.67487" lon="6.12609">
        <ele>539.2</ele>
        <time>2022-09-26T08:51:05Z</time>
      </trkpt>
      <trkpt lat="43.67489" lon="6.12596">
        <ele>539.3</ele>
        <time>2022-09-26T08:51:14Z</time>
      </trkpt>
      <trkpt lat="43.67491" lon="6.12583">
        <ele>539.3</ele>
        <time>2022-09-26T08:51:25Z</time>
      </trkpt>
      <trkpt lat="43.67492" lon="6.12569">
        <ele>539.1</ele>
        <time>2022-09-26T08:51:33Z</time>
      </trkpt>
      <trkpt lat="43.67495" lon="6.12557">
        <ele>539</ele>
        <time>2022-09-26T08:51:42Z</time>
      </trkpt>
      <trkpt lat="43.67497" lon="6.12544">
        <ele>538.9</ele>
        <time>2022-09-26T08:51:50Z</time>
      </trkpt>
      <trkpt lat="43.67502" lon="6.12532">
        <ele>538.8</ele>
        <time>2022-09-26T08:51:58Z</time>
      </trkpt>
      <trkpt lat="43.67503" lon="6.1252">
        <ele>538.9</ele>
        <time>2022-09-26T08:52:07Z</time>
      </trkpt>
      <trkpt lat="43.67508" lon="6.12509">
        <ele>539.3</ele>
        <time>2022-09-26T08:52:32Z</time>
      </trkpt>
      <trkpt lat="43.67512" lon="6.12497">
        <ele>539.2</ele>
        <time>2022-09-26T08:52:42Z</time>
      </trkpt>
      <trkpt lat="43.67518" lon="6.12486">
        <ele>539.1</ele>
        <time>2022-09-26T08:52:53Z</time>
      </trkpt>
      <trkpt lat="43.67524" lon="6.12475">
        <ele>538.8</ele>
        <time>2022-09-26T08:53:03Z</time>
      </trkpt>
      <trkpt lat="43.67532" lon="6.12467">
        <ele>538.7</ele>
        <time>2022-09-26T08:53:12Z</time>
      </trkpt>
      <trkpt lat="43.67539" lon="6.1246">
        <ele>538.8</ele>
        <time>2022-09-26T08:53:19Z</time>
      </trkpt>
      <trkpt lat="43.67546" lon="6.12451">
        <ele>538.7</ele>
        <time>2022-09-26T08:53:28Z</time>
      </trkpt>
      <trkpt lat="43.67554" lon="6.12442">
        <ele>538.7</ele>
        <time>2022-09-26T08:53:37Z</time>
      </trkpt>
      <trkpt lat="43.67559" lon="6.12431">
        <ele>538.6</ele>
        <time>2022-09-26T08:53:45Z</time>
      </trkpt>
      <trkpt lat="43.67563" lon="6.12418">
        <ele>538.4</ele>
        <time>2022-09-26T08:53:54Z</time>
      </trkpt>
      <trkpt lat="43.67564" lon="6.12405">
        <ele>538</ele>
        <time>2022-09-26T08:54:03Z</time>
      </trkpt>
      <trkpt lat="43.67569" lon="6.12393">
        <ele>537.8</ele>
        <time>2022-09-26T08:54:11Z</time>
      </trkpt>
      <trkpt lat="43.67573" lon="6.12381">
        <ele>538</ele>
        <time>2022-09-26T08:54:19Z</time>
      </trkpt>
      <trkpt lat="43.6758" lon="6.12371">
        <ele>538.1</ele>
        <time>2022-09-26T08:54:28Z</time>
      </trkpt>
      <trkpt lat="43.67587" lon="6.12362">
        <ele>537.9</ele>
        <time>2022-09-26T08:54:38Z</time>
      </trkpt>
      <trkpt lat="43.67593" lon="6.12353">
        <ele>537.4</ele>
        <time>2022-09-26T08:54:47Z</time>
      </trkpt>
      <trkpt lat="43.676" lon="6.12343">
        <ele>537.4</ele>
        <time>2022-09-26T08:54:57Z</time>
      </trkpt>
      <trkpt lat="43.67607" lon="6.12335">
        <ele>537.3</ele>
        <time>2022-09-26T08:55:05Z</time>
      </trkpt>
      <trkpt lat="43.67616" lon="6.12328">
        <ele>537.1</ele>
        <time>2022-09-26T08:55:14Z</time>
      </trkpt>
      <trkpt lat="43.67625" lon="6.12323">
        <ele>537.1</ele>
        <time>2022-09-26T08:55:23Z</time>
      </trkpt>
      <trkpt lat="43.67634" lon="6.12319">
        <ele>537.1</ele>
        <time>2022-09-26T08:55:31Z</time>
      </trkpt>
      <trkpt lat="43.67643" lon="6.12313">
        <ele>536.8</ele>
        <time>2022-09-26T08:55:40Z</time>
      </trkpt>
      <trkpt lat="43.6765" lon="6.12304">
        <ele>537.1</ele>
        <time>2022-09-26T08:55:49Z</time>
      </trkpt>
      <trkpt lat="43.67659" lon="6.12298">
        <ele>536.9</ele>
        <time>2022-09-26T08:56:02Z</time>
      </trkpt>
      <trkpt lat="43.67667" lon="6.12292">
        <ele>536.8</ele>
        <time>2022-09-26T08:56:11Z</time>
      </trkpt>
      <trkpt lat="43.67676" lon="6.12289">
        <ele>536.6</ele>
        <time>2022-09-26T08:56:20Z</time>
      </trkpt>
      <trkpt lat="43.67685" lon="6.12288">
        <ele>536.5</ele>
        <time>2022-09-26T08:56:29Z</time>
      </trkpt>
      <trkpt lat="43.67694" lon="6.12285">
        <ele>536.5</ele>
        <time>2022-09-26T08:56:37Z</time>
      </trkpt>
      <trkpt lat="43.67704" lon="6.12286">
        <ele>536.6</ele>
        <time>2022-09-26T08:56:47Z</time>
      </trkpt>
      <trkpt lat="43.67714" lon="6.12285">
        <ele>536.7</ele>
        <time>2022-09-26T08:56:58Z</time>
      </trkpt>
      <trkpt lat="43.67723" lon="6.12283">
        <ele>537</ele>
        <time>2022-09-26T08:57:06Z</time>
      </trkpt>
      <trkpt lat="43.67732" lon="6.12282">
        <ele>536.9</ele>
        <time>2022-09-26T08:57:15Z</time>
      </trkpt>
      <trkpt lat="43.67742" lon="6.12282">
        <ele>536.9</ele>
        <time>2022-09-26T08:57:23Z</time>
      </trkpt>
      <trkpt lat="43.67751" lon="6.1228">
        <ele>536.8</ele>
        <time>2022-09-26T08:57:32Z</time>
      </trkpt>
      <trkpt lat="43.67761" lon="6.12278">
        <ele>536.7</ele>
        <time>2022-09-26T08:57:40Z</time>
      </trkpt>
      <trkpt lat="43.67771" lon="6.12277">
        <ele>536.8</ele>
        <time>2022-09-26T08:57:49Z</time>
      </trkpt>
      <trkpt lat="43.6778" lon="6.12279">
        <ele>535.2</ele>
        <time>2022-09-26T08:57:59Z</time>
      </trkpt>
      <trkpt lat="43.6779" lon="6.12281">
        <ele>535.2</ele>
        <time>2022-09-26T08:58:07Z</time>
      </trkpt>
      <trkpt lat="43.67799" lon="6.12283">
        <ele>536</ele>
        <time>2022-09-26T08:58:17Z</time>
      </trkpt>
      <trkpt lat="43.67808" lon="6.1228">
        <ele>535.8</ele>
        <time>2022-09-26T08:58:25Z</time>
      </trkpt>
      <trkpt lat="43.67817" lon="6.12277">
        <ele>538</ele>
        <time>2022-09-26T08:58:34Z</time>
      </trkpt>
      <trkpt lat="43.67825" lon="6.12271">
        <ele>537.6</ele>
        <time>2022-09-26T08:58:41Z</time>
      </trkpt>
      <trkpt lat="43.67832" lon="6.12262">
        <ele>536.9</ele>
        <time>2022-09-26T08:58:50Z</time>
      </trkpt>
      <trkpt lat="43.67838" lon="6.12251">
        <ele>536.4</ele>
        <time>2022-09-26T08:59:00Z</time>
      </trkpt>
      <trkpt lat="43.67841" lon="6.12239">
        <ele>535.9</ele>
        <time>2022-09-26T08:59:09Z</time>
      </trkpt>
      <trkpt lat="43.67843" lon="6.12226">
        <ele>535.7</ele>
        <time>2022-09-26T08:59:17Z</time>
      </trkpt>
      <trkpt lat="43.67845" lon="6.12213">
        <ele>535.3</ele>
        <time>2022-09-26T08:59:27Z</time>
      </trkpt>
      <trkpt lat="43.67849" lon="6.12201">
        <ele>535.1</ele>
        <time>2022-09-26T08:59:34Z</time>
      </trkpt>
      <trkpt lat="43.67851" lon="6.12189">
        <ele>535</ele>
        <time>2022-09-26T08:59:45Z</time>
      </trkpt>
      <trkpt lat="43.67853" lon="6.12176">
        <ele>534.7</ele>
        <time>2022-09-26T08:59:55Z</time>
      </trkpt>
      <trkpt lat="43.67856" lon="6.12164">
        <ele>533.8</ele>
        <time>2022-09-26T09:00:05Z</time>
      </trkpt>
      <trkpt lat="43.67859" lon="6.12152">
        <ele>533.4</ele>
        <time>2022-09-26T09:00:14Z</time>
      </trkpt>
      <trkpt lat="43.67862" lon="6.12139">
        <ele>532.3</ele>
        <time>2022-09-26T09:00:25Z</time>
      </trkpt>
      <trkpt lat="43.67865" lon="6.12127">
        <ele>532.5</ele>
        <time>2022-09-26T09:00:35Z</time>
      </trkpt>
      <trkpt lat="43.67868" lon="6.12114">
        <ele>532.6</ele>
        <time>2022-09-26T09:00:47Z</time>
      </trkpt>
      <trkpt lat="43.67865" lon="6.12103">
        <ele>532.4</ele>
        <time>2022-09-26T09:00:57Z</time>
      </trkpt>
      <trkpt lat="43.67872" lon="6.12095">
        <ele>534.2</ele>
        <time>2022-09-26T09:03:24Z</time>
      </trkpt>
      <trkpt lat="43.67863" lon="6.12098">
        <ele>533.5</ele>
        <time>2022-09-26T09:05:53Z</time>
      </trkpt>
      <trkpt lat="43.67865" lon="6.12086">
        <ele>533.4</ele>
        <time>2022-09-26T09:07:52Z</time>
      </trkpt>
      <trkpt lat="43.67869" lon="6.12074">
        <ele>533.1</ele>
        <time>2022-09-26T09:09:24Z</time>
      </trkpt>
      <trkpt lat="43.6787" lon="6.1206">
        <ele>533.4</ele>
        <time>2022-09-26T09:10:30Z</time>
      </trkpt>
      <trkpt lat="43.67876" lon="6.1205">
        <ele>533</ele>
        <time>2022-09-26T09:10:42Z</time>
      </trkpt>
      <trkpt lat="43.67881" lon="6.1204">
        <ele>532.5</ele>
        <time>2022-09-26T09:10:56Z</time>
      </trkpt>
      <trkpt lat="43.67887" lon="6.12029">
        <ele>533.5</ele>
        <time>2022-09-26T09:11:06Z</time>
      </trkpt>
      <trkpt lat="43.67893" lon="6.12021">
        <ele>533.6</ele>
        <time>2022-09-26T09:11:29Z</time>
      </trkpt>
      <trkpt lat="43.679" lon="6.12013">
        <ele>533.2</ele>
        <time>2022-09-26T09:11:39Z</time>
      </trkpt>
      <trkpt lat="43.67908" lon="6.12007">
        <ele>533.1</ele>
        <time>2022-09-26T09:11:48Z</time>
      </trkpt>
      <trkpt lat="43.67917" lon="6.11999">
        <ele>532.8</ele>
        <time>2022-09-26T09:11:58Z</time>
      </trkpt>
      <trkpt lat="43.67926" lon="6.11993">
        <ele>532.3</ele>
        <time>2022-09-26T09:12:10Z</time>
      </trkpt>
      <trkpt lat="43.67934" lon="6.11986">
        <ele>532.4</ele>
        <time>2022-09-26T09:12:19Z</time>
      </trkpt>
      <trkpt lat="43.67942" lon="6.11979">
        <ele>532.5</ele>
        <time>2022-09-26T09:12:27Z</time>
      </trkpt>
      <trkpt lat="43.67948" lon="6.1197">
        <ele>532.2</ele>
        <time>2022-09-26T09:12:46Z</time>
      </trkpt>
      <trkpt lat="43.67954" lon="6.1196">
        <ele>531.9</ele>
        <time>2022-09-26T09:12:56Z</time>
      </trkpt>
      <trkpt lat="43.67959" lon="6.11948">
        <ele>531.8</ele>
        <time>2022-09-26T09:13:08Z</time>
      </trkpt>
      <trkpt lat="43.6796" lon="6.11935">
        <ele>531.6</ele>
        <time>2022-09-26T09:13:17Z</time>
      </trkpt>
      <trkpt lat="43.67962" lon="6.11923">
        <ele>531.9</ele>
        <time>2022-09-26T09:13:26Z</time>
      </trkpt>
      <trkpt lat="43.67964" lon="6.1191">
        <ele>531.4</ele>
        <time>2022-09-26T09:13:36Z</time>
      </trkpt>
      <trkpt lat="43.67967" lon="6.11897">
        <ele>530.9</ele>
        <time>2022-09-26T09:13:46Z</time>
      </trkpt>
      <trkpt lat="43.6797" lon="6.11885">
        <ele>530.9</ele>
        <time>2022-09-26T09:13:56Z</time>
      </trkpt>
      <trkpt lat="43.67975" lon="6.11873">
        <ele>531</ele>
        <time>2022-09-26T09:14:08Z</time>
      </trkpt>
      <trkpt lat="43.67982" lon="6.11864">
        <ele>530.8</ele>
        <time>2022-09-26T09:14:20Z</time>
      </trkpt>
      <trkpt lat="43.67991" lon="6.11859">
        <ele>530.4</ele>
        <time>2022-09-26T09:14:29Z</time>
      </trkpt>
      <trkpt lat="43.67998" lon="6.11851">
        <ele>530.3</ele>
        <time>2022-09-26T09:14:37Z</time>
      </trkpt>
      <trkpt lat="43.68007" lon="6.11848">
        <ele>529.8</ele>
        <time>2022-09-26T09:14:47Z</time>
      </trkpt>
      <trkpt lat="43.68015" lon="6.11842">
        <ele>530</ele>
        <time>2022-09-26T09:14:58Z</time>
      </trkpt>
      <trkpt lat="43.68018" lon="6.11829">
        <ele>528.3</ele>
        <time>2022-09-26T09:15:08Z</time>
      </trkpt>
      <trkpt lat="43.68019" lon="6.11815">
        <ele>528.9</ele>
        <time>2022-09-26T09:15:20Z</time>
      </trkpt>
      <trkpt lat="43.68013" lon="6.11805">
        <ele>528.7</ele>
        <time>2022-09-26T09:15:29Z</time>
      </trkpt>
      <trkpt lat="43.68008" lon="6.11795">
        <ele>528.8</ele>
        <time>2022-09-26T09:15:39Z</time>
      </trkpt>
      <trkpt lat="43.68003" lon="6.11785">
        <ele>528.3</ele>
        <time>2022-09-26T09:15:48Z</time>
      </trkpt>
      <trkpt lat="43.68001" lon="6.11772">
        <ele>528</ele>
        <time>2022-09-26T09:15:58Z</time>
      </trkpt>
      <trkpt lat="43.68002" lon="6.11759">
        <ele>527.8</ele>
        <time>2022-09-26T09:16:07Z</time>
      </trkpt>
      <trkpt lat="43.68008" lon="6.11749">
        <ele>527.5</ele>
        <time>2022-09-26T09:16:19Z</time>
      </trkpt>
      <trkpt lat="43.68016" lon="6.11743">
        <ele>528.1</ele>
        <time>2022-09-26T09:16:28Z</time>
      </trkpt>
      <trkpt lat="43.68026" lon="6.11742">
        <ele>526.4</ele>
        <time>2022-09-26T09:16:40Z</time>
      </trkpt>
      <trkpt lat="43.68035" lon="6.11742">
        <ele>528.3</ele>
        <time>2022-09-26T09:16:50Z</time>
      </trkpt>
      <trkpt lat="43.68045" lon="6.1174">
        <ele>527.8</ele>
        <time>2022-09-26T09:16:57Z</time>
      </trkpt>
      <trkpt lat="43.68054" lon="6.11735">
        <ele>525.8</ele>
        <time>2022-09-26T09:17:08Z</time>
      </trkpt>
      <trkpt lat="43.68064" lon="6.11735">
        <ele>526.8</ele>
        <time>2022-09-26T09:17:17Z</time>
      </trkpt>
      <trkpt lat="43.68074" lon="6.11731">
        <ele>526.3</ele>
        <time>2022-09-26T09:17:27Z</time>
      </trkpt>
      <trkpt lat="43.68082" lon="6.11725">
        <ele>526.2</ele>
        <time>2022-09-26T09:17:35Z</time>
      </trkpt>
      <trkpt lat="43.6809" lon="6.1172">
        <ele>526.5</ele>
        <time>2022-09-26T09:17:46Z</time>
      </trkpt>
      <trkpt lat="43.68096" lon="6.11711">
        <ele>525.7</ele>
        <time>2022-09-26T09:17:54Z</time>
      </trkpt>
      <trkpt lat="43.68103" lon="6.117">
        <ele>526.4</ele>
        <time>2022-09-26T09:18:02Z</time>
      </trkpt>
      <trkpt lat="43.68104" lon="6.11688">
        <ele>525.7</ele>
        <time>2022-09-26T09:18:12Z</time>
      </trkpt>
      <trkpt lat="43.68105" lon="6.11675">
        <ele>524.3</ele>
        <time>2022-09-26T09:18:24Z</time>
      </trkpt>
      <trkpt lat="43.68109" lon="6.11664">
        <ele>523.5</ele>
        <time>2022-09-26T09:18:34Z</time>
      </trkpt>
      <trkpt lat="43.68114" lon="6.11653">
        <ele>522.9</ele>
        <time>2022-09-26T09:18:43Z</time>
      </trkpt>
      <trkpt lat="43.68121" lon="6.11645">
        <ele>522.4</ele>
        <time>2022-09-26T09:18:53Z</time>
      </trkpt>
      <trkpt lat="43.68127" lon="6.11635">
        <ele>522.2</ele>
        <time>2022-09-26T09:19:00Z</time>
      </trkpt>
      <trkpt lat="43.68135" lon="6.11627">
        <ele>522.2</ele>
        <time>2022-09-26T09:19:08Z</time>
      </trkpt>
      <trkpt lat="43.68142" lon="6.11618">
        <ele>522</ele>
        <time>2022-09-26T09:19:17Z</time>
      </trkpt>
      <trkpt lat="43.6815" lon="6.11612">
        <ele>521.8</ele>
        <time>2022-09-26T09:19:27Z</time>
      </trkpt>
      <trkpt lat="43.68158" lon="6.11605">
        <ele>521.9</ele>
        <time>2022-09-26T09:19:36Z</time>
      </trkpt>
      <trkpt lat="43.68166" lon="6.11599">
        <ele>521.9</ele>
        <time>2022-09-26T09:19:44Z</time>
      </trkpt>
      <trkpt lat="43.68173" lon="6.11591">
        <ele>521.8</ele>
        <time>2022-09-26T09:19:53Z</time>
      </trkpt>
      <trkpt lat="43.68182" lon="6.11586">
        <ele>521.6</ele>
        <time>2022-09-26T09:20:02Z</time>
      </trkpt>
      <trkpt lat="43.6819" lon="6.1158">
        <ele>521.5</ele>
        <time>2022-09-26T09:20:10Z</time>
      </trkpt>
      <trkpt lat="43.68197" lon="6.11572">
        <ele>521.4</ele>
        <time>2022-09-26T09:20:19Z</time>
      </trkpt>
      <trkpt lat="43.68205" lon="6.11566">
        <ele>521.3</ele>
        <time>2022-09-26T09:20:28Z</time>
      </trkpt>
      <trkpt lat="43.68211" lon="6.11556">
        <ele>520.5</ele>
        <time>2022-09-26T09:20:38Z</time>
      </trkpt>
      <trkpt lat="43.68217" lon="6.11546">
        <ele>520.9</ele>
        <time>2022-09-26T09:20:46Z</time>
      </trkpt>
      <trkpt lat="43.68223" lon="6.11535">
        <ele>520.7</ele>
        <time>2022-09-26T09:20:55Z</time>
      </trkpt>
      <trkpt lat="43.68229" lon="6.11526">
        <ele>520.6</ele>
        <time>2022-09-26T09:21:04Z</time>
      </trkpt>
      <trkpt lat="43.68234" lon="6.11514">
        <ele>520.6</ele>
        <time>2022-09-26T09:21:14Z</time>
      </trkpt>
      <trkpt lat="43.68238" lon="6.11502">
        <ele>520.8</ele>
        <time>2022-09-26T09:21:25Z</time>
      </trkpt>
      <trkpt lat="43.68245" lon="6.11493">
        <ele>518.5</ele>
        <time>2022-09-26T09:21:33Z</time>
      </trkpt>
      <trkpt lat="43.68252" lon="6.11484">
        <ele>518.3</ele>
        <time>2022-09-26T09:21:41Z</time>
      </trkpt>
      <trkpt lat="43.68259" lon="6.11476">
        <ele>519.5</ele>
        <time>2022-09-26T09:21:50Z</time>
      </trkpt>
      <trkpt lat="43.68268" lon="6.11471">
        <ele>519.4</ele>
        <time>2022-09-26T09:22:00Z</time>
      </trkpt>
      <trkpt lat="43.68277" lon="6.11467">
        <ele>520.3</ele>
        <time>2022-09-26T09:22:09Z</time>
      </trkpt>
      <trkpt lat="43.68287" lon="6.11469">
        <ele>519.4</ele>
        <time>2022-09-26T09:22:18Z</time>
      </trkpt>
      <trkpt lat="43.68296" lon="6.1147">
        <ele>518.9</ele>
        <time>2022-09-26T09:22:27Z</time>
      </trkpt>
      <trkpt lat="43.68305" lon="6.11475">
        <ele>519</ele>
        <time>2022-09-26T09:22:36Z</time>
      </trkpt>
      <trkpt lat="43.68315" lon="6.11476">
        <ele>521.5</ele>
        <time>2022-09-26T09:22:46Z</time>
      </trkpt>
      <trkpt lat="43.68326" lon="6.11476">
        <ele>521.7</ele>
        <time>2022-09-26T09:22:54Z</time>
      </trkpt>
      <trkpt lat="43.68334" lon="6.1147">
        <ele>520.8</ele>
        <time>2022-09-26T09:23:06Z</time>
      </trkpt>
      <trkpt lat="43.68343" lon="6.1147">
        <ele>519.3</ele>
        <time>2022-09-26T09:23:26Z</time>
      </trkpt>
      <trkpt lat="43.68352" lon="6.11467">
        <ele>519.2</ele>
        <time>2022-09-26T09:23:39Z</time>
      </trkpt>
      <trkpt lat="43.6836" lon="6.11461">
        <ele>519</ele>
        <time>2022-09-26T09:23:49Z</time>
      </trkpt>
      <trkpt lat="43.68368" lon="6.11454">
        <ele>518.8</ele>
        <time>2022-09-26T09:23:58Z</time>
      </trkpt>
      <trkpt lat="43.68374" lon="6.11445">
        <ele>518.1</ele>
        <time>2022-09-26T09:24:09Z</time>
      </trkpt>
      <trkpt lat="43.68382" lon="6.1144">
        <ele>517.9</ele>
        <time>2022-09-26T09:24:20Z</time>
      </trkpt>
      <trkpt lat="43.68381" lon="6.11426">
        <ele>517.6</ele>
        <time>2022-09-26T09:24:31Z</time>
      </trkpt>
      <trkpt lat="43.6838" lon="6.11413">
        <ele>517.4</ele>
        <time>2022-09-26T09:24:40Z</time>
      </trkpt>
      <trkpt lat="43.68382" lon="6.11401">
        <ele>517.5</ele>
        <time>2022-09-26T09:24:51Z</time>
      </trkpt>
      <trkpt lat="43.68387" lon="6.11389">
        <ele>517.3</ele>
        <time>2022-09-26T09:24:57Z</time>
      </trkpt>
      <trkpt lat="43.68392" lon="6.11379">
        <ele>517</ele>
        <time>2022-09-26T09:25:06Z</time>
      </trkpt>
      <trkpt lat="43.68399" lon="6.11369">
        <ele>516.9</ele>
        <time>2022-09-26T09:25:13Z</time>
      </trkpt>
      <trkpt lat="43.68407" lon="6.11361">
        <ele>516.7</ele>
        <time>2022-09-26T09:25:21Z</time>
      </trkpt>
      <trkpt lat="43.68415" lon="6.11353">
        <ele>516.5</ele>
        <time>2022-09-26T09:25:29Z</time>
      </trkpt>
      <trkpt lat="43.68424" lon="6.11348">
        <ele>516.7</ele>
        <time>2022-09-26T09:25:37Z</time>
      </trkpt>
      <trkpt lat="43.68432" lon="6.11341">
        <ele>516.6</ele>
        <time>2022-09-26T09:25:43Z</time>
      </trkpt>
      <trkpt lat="43.68441" lon="6.11339">
        <ele>516.5</ele>
        <time>2022-09-26T09:25:51Z</time>
      </trkpt>
      <trkpt lat="43.6845" lon="6.11345">
        <ele>516.6</ele>
        <time>2022-09-26T09:25:59Z</time>
      </trkpt>
      <trkpt lat="43.68459" lon="6.11346">
        <ele>516.5</ele>
        <time>2022-09-26T09:26:09Z</time>
      </trkpt>
      <trkpt lat="43.68469" lon="6.11353">
        <ele>516.3</ele>
        <time>2022-09-26T09:26:17Z</time>
      </trkpt>
      <trkpt lat="43.68477" lon="6.11361">
        <ele>516.1</ele>
        <time>2022-09-26T09:26:26Z</time>
      </trkpt>
      <trkpt lat="43.68484" lon="6.11369">
        <ele>516</ele>
        <time>2022-09-26T09:26:36Z</time>
      </trkpt>
      <trkpt lat="43.68491" lon="6.11379">
        <ele>515.6</ele>
        <time>2022-09-26T09:26:46Z</time>
      </trkpt>
      <trkpt lat="43.68496" lon="6.1139">
        <ele>515.3</ele>
        <time>2022-09-26T09:26:54Z</time>
      </trkpt>
      <trkpt lat="43.68502" lon="6.11403">
        <ele>515.2</ele>
        <time>2022-09-26T09:27:03Z</time>
      </trkpt>
      <trkpt lat="43.68505" lon="6.11415">
        <ele>514.7</ele>
        <time>2022-09-26T09:27:13Z</time>
      </trkpt>
      <trkpt lat="43.68511" lon="6.11425">
        <ele>514.6</ele>
        <time>2022-09-26T09:27:22Z</time>
      </trkpt>
      <trkpt lat="43.68516" lon="6.11438">
        <ele>512.9</ele>
        <time>2022-09-26T09:27:27Z</time>
      </trkpt>
      <trkpt lat="43.68522" lon="6.11449">
        <ele>511.5</ele>
        <time>2022-09-26T09:27:35Z</time>
      </trkpt>
      <trkpt lat="43.68532" lon="6.1145">
        <ele>511.6</ele>
        <time>2022-09-26T09:27:44Z</time>
      </trkpt>
      <trkpt lat="43.68541" lon="6.11446">
        <ele>514.1</ele>
        <time>2022-09-26T09:27:55Z</time>
      </trkpt>
      <trkpt lat="43.68545" lon="6.11434">
        <ele>513.4</ele>
        <time>2022-09-26T09:28:10Z</time>
      </trkpt>
      <trkpt lat="43.68548" lon="6.11422">
        <ele>517.9</ele>
        <time>2022-09-26T09:28:22Z</time>
      </trkpt>
      <trkpt lat="43.68551" lon="6.1141">
        <ele>515.4</ele>
        <time>2022-09-26T09:28:33Z</time>
      </trkpt>
      <trkpt lat="43.68554" lon="6.11398">
        <ele>513.5</ele>
        <time>2022-09-26T09:28:46Z</time>
      </trkpt>
      <trkpt lat="43.68556" lon="6.11385">
        <ele>513</ele>
        <time>2022-09-26T09:28:58Z</time>
      </trkpt>
      <trkpt lat="43.6856" lon="6.11373">
        <ele>512.2</ele>
        <time>2022-09-26T09:29:08Z</time>
      </trkpt>
      <trkpt lat="43.68567" lon="6.11363">
        <ele>512.1</ele>
        <time>2022-09-26T09:29:15Z</time>
      </trkpt>
      <trkpt lat="43.68574" lon="6.11354">
        <ele>512.7</ele>
        <time>2022-09-26T09:29:22Z</time>
      </trkpt>
      <trkpt lat="43.68581" lon="6.11346">
        <ele>513.3</ele>
        <time>2022-09-26T09:29:30Z</time>
      </trkpt>
      <trkpt lat="43.68589" lon="6.11339">
        <ele>512.8</ele>
        <time>2022-09-26T09:29:39Z</time>
      </trkpt>
      <trkpt lat="43.68596" lon="6.11329">
        <ele>512</ele>
        <time>2022-09-26T09:29:49Z</time>
      </trkpt>
      <trkpt lat="43.68606" lon="6.11333">
        <ele>510.6</ele>
        <time>2022-09-26T09:29:59Z</time>
      </trkpt>
      <trkpt lat="43.68614" lon="6.1134">
        <ele>510.5</ele>
        <time>2022-09-26T09:30:04Z</time>
      </trkpt>
      <trkpt lat="43.68623" lon="6.11344">
        <ele>510.6</ele>
        <time>2022-09-26T09:30:16Z</time>
      </trkpt>
      <trkpt lat="43.68626" lon="6.11356">
        <ele>512.1</ele>
        <time>2022-09-26T09:30:21Z</time>
      </trkpt>
      <trkpt lat="43.68633" lon="6.11365">
        <ele>511.6</ele>
        <time>2022-09-26T09:30:43Z</time>
      </trkpt>
      <trkpt lat="43.68641" lon="6.11361">
        <ele>511.5</ele>
        <time>2022-09-26T09:31:58Z</time>
      </trkpt>
      <trkpt lat="43.6865" lon="6.11364">
        <ele>511</ele>
        <time>2022-09-26T09:32:10Z</time>
      </trkpt>
      <trkpt lat="43.6866" lon="6.11364">
        <ele>510.9</ele>
        <time>2022-09-26T09:32:23Z</time>
      </trkpt>
      <trkpt lat="43.68669" lon="6.11365">
        <ele>510.9</ele>
        <time>2022-09-26T09:32:37Z</time>
      </trkpt>
      <trkpt lat="43.68678" lon="6.11367">
        <ele>510.8</ele>
        <time>2022-09-26T09:32:47Z</time>
      </trkpt>
      <trkpt lat="43.68687" lon="6.11369">
        <ele>510.7</ele>
        <time>2022-09-26T09:32:57Z</time>
      </trkpt>
      <trkpt lat="43.68696" lon="6.11371">
        <ele>510.7</ele>
        <time>2022-09-26T09:33:06Z</time>
      </trkpt>
      <trkpt lat="43.68706" lon="6.1137">
        <ele>510.6</ele>
        <time>2022-09-26T09:33:18Z</time>
      </trkpt>
      <trkpt lat="43.68715" lon="6.11372">
        <ele>510.8</ele>
        <time>2022-09-26T09:33:26Z</time>
      </trkpt>
      <trkpt lat="43.68724" lon="6.1137">
        <ele>510.5</ele>
        <time>2022-09-26T09:33:36Z</time>
      </trkpt>
      <trkpt lat="43.68732" lon="6.11362">
        <ele>510.3</ele>
        <time>2022-09-26T09:33:47Z</time>
      </trkpt>
      <trkpt lat="43.68741" lon="6.11364">
        <ele>510.3</ele>
        <time>2022-09-26T09:33:57Z</time>
      </trkpt>
      <trkpt lat="43.6875" lon="6.11368">
        <ele>510.2</ele>
        <time>2022-09-26T09:34:06Z</time>
      </trkpt>
      <trkpt lat="43.6876" lon="6.11368">
        <ele>510</ele>
        <time>2022-09-26T09:34:14Z</time>
      </trkpt>
      <trkpt lat="43.68769" lon="6.11364">
        <ele>510</ele>
        <time>2022-09-26T09:34:23Z</time>
      </trkpt>
      <trkpt lat="43.68776" lon="6.11355">
        <ele>509.9</ele>
        <time>2022-09-26T09:34:32Z</time>
      </trkpt>
      <trkpt lat="43.6878" lon="6.11344">
        <ele>509.5</ele>
        <time>2022-09-26T09:34:45Z</time>
      </trkpt>
      <trkpt lat="43.68779" lon="6.11331">
        <ele>509.6</ele>
        <time>2022-09-26T09:34:58Z</time>
      </trkpt>
      <trkpt lat="43.68777" lon="6.11319">
        <ele>510.5</ele>
        <time>2022-09-26T09:35:08Z</time>
      </trkpt>
      <trkpt lat="43.68782" lon="6.11307">
        <ele>511.8</ele>
        <time>2022-09-26T09:35:21Z</time>
      </trkpt>
      <trkpt lat="43.68791" lon="6.11304">
        <ele>512.9</ele>
        <time>2022-09-26T09:35:55Z</time>
      </trkpt>
      <trkpt lat="43.68799" lon="6.1131">
        <ele>512.9</ele>
        <time>2022-09-26T09:36:18Z</time>
      </trkpt>
      <trkpt lat="43.68808" lon="6.11316">
        <ele>513</ele>
        <time>2022-09-26T09:36:28Z</time>
      </trkpt>
      <trkpt lat="43.68817" lon="6.1132">
        <ele>512.8</ele>
        <time>2022-09-26T09:36:37Z</time>
      </trkpt>
      <trkpt lat="43.68827" lon="6.11321">
        <ele>512.8</ele>
        <time>2022-09-26T09:36:47Z</time>
      </trkpt>
      <trkpt lat="43.68834" lon="6.1133">
        <ele>513.2</ele>
        <time>2022-09-26T09:36:59Z</time>
      </trkpt>
      <trkpt lat="43.68834" lon="6.11342">
        <ele>514.4</ele>
        <time>2022-09-26T09:37:21Z</time>
      </trkpt>
      <trkpt lat="43.68832" lon="6.11355">
        <ele>516.5</ele>
        <time>2022-09-26T09:37:50Z</time>
      </trkpt>
      <trkpt lat="43.68835" lon="6.11367">
        <ele>518</ele>
        <time>2022-09-26T09:44:39Z</time>
      </trkpt>
      <trkpt lat="43.68826" lon="6.11369">
        <ele>518.8</ele>
        <time>2022-09-26T10:27:14Z</time>
      </trkpt>
      <trkpt lat="43.68829" lon="6.11357">
        <ele>518.6</ele>
        <time>2022-09-26T10:37:51Z</time>
      </trkpt>
      <trkpt lat="43.68835" lon="6.11367">
        <ele>518.4</ele>
        <time>2022-09-26T10:44:09Z</time>
      </trkpt>
      <trkpt lat="43.6883" lon="6.11357">
        <ele>519.8</ele>
        <time>2022-09-26T10:44:55Z</time>
      </trkpt>
      <trkpt lat="43.68828" lon="6.11344">
        <ele>518.1</ele>
        <time>2022-09-26T10:48:13Z</time>
      </trkpt>
      <trkpt lat="43.6883" lon="6.11332">
        <ele>517.6</ele>
        <time>2022-09-26T10:49:11Z</time>
      </trkpt>
      <trkpt lat="43.68831" lon="6.1132">
        <ele>515.8</ele>
        <time>2022-09-26T10:49:35Z</time>
      </trkpt>
      <trkpt lat="43.68835" lon="6.11331">
        <ele>516.3</ele>
        <time>2022-09-26T10:50:03Z</time>
      </trkpt>
      <trkpt lat="43.68826" lon="6.11332">
        <ele>516.3</ele>
        <time>2022-09-26T10:50:20Z</time>
      </trkpt>
      <trkpt lat="43.68816" lon="6.11328">
        <ele>515.8</ele>
        <time>2022-09-26T10:50:33Z</time>
      </trkpt>
      <trkpt lat="43.68808" lon="6.11322">
        <ele>515.5</ele>
        <time>2022-09-26T10:50:45Z</time>
      </trkpt>
      <trkpt lat="43.68799" lon="6.11315">
        <ele>515.4</ele>
        <time>2022-09-26T10:50:55Z</time>
      </trkpt>
      <trkpt lat="43.68791" lon="6.11309">
        <ele>515.4</ele>
        <time>2022-09-26T10:51:03Z</time>
      </trkpt>
      <trkpt lat="43.68783" lon="6.11302">
        <ele>515.5</ele>
        <time>2022-09-26T10:51:12Z</time>
      </trkpt>
      <trkpt lat="43.68774" lon="6.11304">
        <ele>516</ele>
        <time>2022-09-26T10:51:31Z</time>
      </trkpt>
      <trkpt lat="43.68765" lon="6.11309">
        <ele>517</ele>
        <time>2022-09-26T10:51:47Z</time>
      </trkpt>
      <trkpt lat="43.68756" lon="6.11312">
        <ele>518</ele>
        <time>2022-09-26T10:52:02Z</time>
      </trkpt>
      <trkpt lat="43.68746" lon="6.11313">
        <ele>518.8</ele>
        <time>2022-09-26T10:52:13Z</time>
      </trkpt>
      <trkpt lat="43.68737" lon="6.11316">
        <ele>519.5</ele>
        <time>2022-09-26T10:52:27Z</time>
      </trkpt>
      <trkpt lat="43.68727" lon="6.11314">
        <ele>520.3</ele>
        <time>2022-09-26T10:52:39Z</time>
      </trkpt>
      <trkpt lat="43.68719" lon="6.1131">
        <ele>521.2</ele>
        <time>2022-09-26T10:52:49Z</time>
      </trkpt>
      <trkpt lat="43.68709" lon="6.11306">
        <ele>522.2</ele>
        <time>2022-09-26T10:53:01Z</time>
      </trkpt>
      <trkpt lat="43.68701" lon="6.11304">
        <ele>521.3</ele>
        <time>2022-09-26T10:53:12Z</time>
      </trkpt>
      <trkpt lat="43.68692" lon="6.11301">
        <ele>526.3</ele>
        <time>2022-09-26T10:53:27Z</time>
      </trkpt>
      <trkpt lat="43.68682" lon="6.11297">
        <ele>526.3</ele>
        <time>2022-09-26T10:53:44Z</time>
      </trkpt>
      <trkpt lat="43.68673" lon="6.11295">
        <ele>527</ele>
        <time>2022-09-26T10:53:57Z</time>
      </trkpt>
      <trkpt lat="43.68664" lon="6.11293">
        <ele>528</ele>
        <time>2022-09-26T10:54:09Z</time>
      </trkpt>
      <trkpt lat="43.68654" lon="6.11291">
        <ele>529.4</ele>
        <time>2022-09-26T10:54:23Z</time>
      </trkpt>
      <trkpt lat="43.68645" lon="6.1129">
        <ele>530.2</ele>
        <time>2022-09-26T10:54:42Z</time>
      </trkpt>
      <trkpt lat="43.68636" lon="6.11291">
        <ele>531.9</ele>
        <time>2022-09-26T10:54:56Z</time>
      </trkpt>
      <trkpt lat="43.68626" lon="6.11286">
        <ele>533.1</ele>
        <time>2022-09-26T10:55:08Z</time>
      </trkpt>
      <trkpt lat="43.68618" lon="6.11281">
        <ele>533.8</ele>
        <time>2022-09-26T10:55:17Z</time>
      </trkpt>
      <trkpt lat="43.68609" lon="6.11277">
        <ele>534.6</ele>
        <time>2022-09-26T10:55:27Z</time>
      </trkpt>
      <trkpt lat="43.686" lon="6.11275">
        <ele>535.6</ele>
        <time>2022-09-26T10:55:46Z</time>
      </trkpt>
      <trkpt lat="43.68602" lon="6.11263">
        <ele>536.5</ele>
        <time>2022-09-26T10:56:00Z</time>
      </trkpt>
      <trkpt lat="43.68603" lon="6.11249">
        <ele>536.8</ele>
        <time>2022-09-26T10:56:11Z</time>
      </trkpt>
      <trkpt lat="43.68603" lon="6.11235">
        <ele>537.2</ele>
        <time>2022-09-26T10:56:22Z</time>
      </trkpt>
      <trkpt lat="43.68603" lon="6.11223">
        <ele>537.9</ele>
        <time>2022-09-26T10:56:33Z</time>
      </trkpt>
      <trkpt lat="43.68604" lon="6.1121">
        <ele>538.3</ele>
        <time>2022-09-26T10:56:46Z</time>
      </trkpt>
      <trkpt lat="43.68605" lon="6.11197">
        <ele>538.7</ele>
        <time>2022-09-26T10:56:56Z</time>
      </trkpt>
      <trkpt lat="43.68606" lon="6.11183">
        <ele>539.2</ele>
        <time>2022-09-26T10:57:06Z</time>
      </trkpt>
      <trkpt lat="43.68608" lon="6.11171">
        <ele>540</ele>
        <time>2022-09-26T10:57:23Z</time>
      </trkpt>
      <trkpt lat="43.68609" lon="6.11158">
        <ele>540.1</ele>
        <time>2022-09-26T10:57:37Z</time>
      </trkpt>
      <trkpt lat="43.68609" lon="6.11145">
        <ele>540.5</ele>
        <time>2022-09-26T10:57:47Z</time>
      </trkpt>
      <trkpt lat="43.68609" lon="6.11133">
        <ele>540.9</ele>
        <time>2022-09-26T10:57:57Z</time>
      </trkpt>
      <trkpt lat="43.68609" lon="6.11119">
        <ele>541.5</ele>
        <time>2022-09-26T10:58:09Z</time>
      </trkpt>
      <trkpt lat="43.68606" lon="6.11107">
        <ele>542.8</ele>
        <time>2022-09-26T10:58:23Z</time>
      </trkpt>
      <trkpt lat="43.68601" lon="6.11096">
        <ele>543.8</ele>
        <time>2022-09-26T10:58:35Z</time>
      </trkpt>
      <trkpt lat="43.68597" lon="6.11083">
        <ele>544.6</ele>
        <time>2022-09-26T10:58:47Z</time>
      </trkpt>
      <trkpt lat="43.68591" lon="6.11074">
        <ele>546.5</ele>
        <time>2022-09-26T10:59:06Z</time>
      </trkpt>
      <trkpt lat="43.68582" lon="6.11068">
        <ele>548.5</ele>
        <time>2022-09-26T10:59:22Z</time>
      </trkpt>
      <trkpt lat="43.68573" lon="6.11067">
        <ele>550</ele>
        <time>2022-09-26T10:59:39Z</time>
      </trkpt>
      <trkpt lat="43.68564" lon="6.11072">
        <ele>551.3</ele>
        <time>2022-09-26T10:59:58Z</time>
      </trkpt>
      <trkpt lat="43.68554" lon="6.11072">
        <ele>552.1</ele>
        <time>2022-09-26T11:00:09Z</time>
      </trkpt>
      <trkpt lat="43.68546" lon="6.11067">
        <ele>551.5</ele>
        <time>2022-09-26T11:00:50Z</time>
      </trkpt>
      <trkpt lat="43.68547" lon="6.1108">
        <ele>554.1</ele>
        <time>2022-09-26T11:02:05Z</time>
      </trkpt>
      <trkpt lat="43.68539" lon="6.11084">
        <ele>551.5</ele>
        <time>2022-09-26T11:04:02Z</time>
      </trkpt>
      <trkpt lat="43.68529" lon="6.11087">
        <ele>552</ele>
        <time>2022-09-26T11:04:17Z</time>
      </trkpt>
      <trkpt lat="43.6852" lon="6.11083">
        <ele>552.5</ele>
        <time>2022-09-26T11:04:27Z</time>
      </trkpt>
      <trkpt lat="43.68515" lon="6.11072">
        <ele>553.1</ele>
        <time>2022-09-26T11:04:40Z</time>
      </trkpt>
      <trkpt lat="43.68507" lon="6.11067">
        <ele>554.5</ele>
        <time>2022-09-26T11:05:02Z</time>
      </trkpt>
      <trkpt lat="43.68498" lon="6.11064">
        <ele>555.7</ele>
        <time>2022-09-26T11:05:20Z</time>
      </trkpt>
      <trkpt lat="43.68489" lon="6.1106">
        <ele>556.9</ele>
        <time>2022-09-26T11:05:42Z</time>
      </trkpt>
      <trkpt lat="43.6848" lon="6.11059">
        <ele>558.1</ele>
        <time>2022-09-26T11:05:59Z</time>
      </trkpt>
      <trkpt lat="43.68471" lon="6.11058">
        <ele>558.7</ele>
        <time>2022-09-26T11:06:09Z</time>
      </trkpt>
      <trkpt lat="43.68461" lon="6.11059">
        <ele>559.2</ele>
        <time>2022-09-26T11:06:20Z</time>
      </trkpt>
      <trkpt lat="43.68452" lon="6.1106">
        <ele>559.7</ele>
        <time>2022-09-26T11:06:33Z</time>
      </trkpt>
      <trkpt lat="43.68442" lon="6.1106">
        <ele>560.2</ele>
        <time>2022-09-26T11:06:45Z</time>
      </trkpt>
      <trkpt lat="43.68433" lon="6.11063">
        <ele>560.4</ele>
        <time>2022-09-26T11:06:53Z</time>
      </trkpt>
      <trkpt lat="43.68424" lon="6.11063">
        <ele>560.9</ele>
        <time>2022-09-26T11:07:05Z</time>
      </trkpt>
      <trkpt lat="43.68414" lon="6.11063">
        <ele>561.7</ele>
        <time>2022-09-26T11:07:22Z</time>
      </trkpt>
      <trkpt lat="43.68405" lon="6.11064">
        <ele>562.4</ele>
        <time>2022-09-26T11:07:37Z</time>
      </trkpt>
      <trkpt lat="43.68396" lon="6.11066">
        <ele>562.8</ele>
        <time>2022-09-26T11:07:48Z</time>
      </trkpt>
      <trkpt lat="43.68386" lon="6.11067">
        <ele>563.2</ele>
        <time>2022-09-26T11:08:00Z</time>
      </trkpt>
      <trkpt lat="43.68377" lon="6.11068">
        <ele>563.7</ele>
        <time>2022-09-26T11:08:11Z</time>
      </trkpt>
      <trkpt lat="43.68366" lon="6.11068">
        <ele>563.8</ele>
        <time>2022-09-26T11:08:20Z</time>
      </trkpt>
      <trkpt lat="43.68356" lon="6.11069">
        <ele>564.2</ele>
        <time>2022-09-26T11:08:26Z</time>
      </trkpt>
      <trkpt lat="43.68346" lon="6.11068">
        <ele>564.4</ele>
        <time>2022-09-26T11:08:33Z</time>
      </trkpt>
      <trkpt lat="43.68337" lon="6.11066">
        <ele>564.6</ele>
        <time>2022-09-26T11:08:40Z</time>
      </trkpt>
      <trkpt lat="43.68328" lon="6.11063">
        <ele>564.8</ele>
        <time>2022-09-26T11:08:47Z</time>
      </trkpt>
      <trkpt lat="43.68319" lon="6.11062">
        <ele>565.2</ele>
        <time>2022-09-26T11:08:56Z</time>
      </trkpt>
      <trkpt lat="43.6831" lon="6.11061">
        <ele>565.4</ele>
        <time>2022-09-26T11:09:07Z</time>
      </trkpt>
      <trkpt lat="43.683" lon="6.1106">
        <ele>565.6</ele>
        <time>2022-09-26T11:09:17Z</time>
      </trkpt>
      <trkpt lat="43.68291" lon="6.1106">
        <ele>565.4</ele>
        <time>2022-09-26T11:09:26Z</time>
      </trkpt>
      <trkpt lat="43.68281" lon="6.11059">
        <ele>566.1</ele>
        <time>2022-09-26T11:09:35Z</time>
      </trkpt>
      <trkpt lat="43.68272" lon="6.11059">
        <ele>566.3</ele>
        <time>2022-09-26T11:09:44Z</time>
      </trkpt>
      <trkpt lat="43.68264" lon="6.11056">
        <ele>566.4</ele>
        <time>2022-09-26T11:09:53Z</time>
      </trkpt>
      <trkpt lat="43.68254" lon="6.11052">
        <ele>566.6</ele>
        <time>2022-09-26T11:10:02Z</time>
      </trkpt>
      <trkpt lat="43.68244" lon="6.11053">
        <ele>566.8</ele>
        <time>2022-09-26T11:10:10Z</time>
      </trkpt>
      <trkpt lat="43.68235" lon="6.11053">
        <ele>567.1</ele>
        <time>2022-09-26T11:10:17Z</time>
      </trkpt>
      <trkpt lat="43.68226" lon="6.11049">
        <ele>567.3</ele>
        <time>2022-09-26T11:10:26Z</time>
      </trkpt>
      <trkpt lat="43.68216" lon="6.11048">
        <ele>567.4</ele>
        <time>2022-09-26T11:10:38Z</time>
      </trkpt>
      <trkpt lat="43.68207" lon="6.11046">
        <ele>567.4</ele>
        <time>2022-09-26T11:10:48Z</time>
      </trkpt>
      <trkpt lat="43.68198" lon="6.11046">
        <ele>567.8</ele>
        <time>2022-09-26T11:10:59Z</time>
      </trkpt>
      <trkpt lat="43.68189" lon="6.11043">
        <ele>567.9</ele>
        <time>2022-09-26T11:11:09Z</time>
      </trkpt>
      <trkpt lat="43.6818" lon="6.1104">
        <ele>568.1</ele>
        <time>2022-09-26T11:11:20Z</time>
      </trkpt>
      <trkpt lat="43.6817" lon="6.11041">
        <ele>568.3</ele>
        <time>2022-09-26T11:11:28Z</time>
      </trkpt>
      <trkpt lat="43.6816" lon="6.1104">
        <ele>568.5</ele>
        <time>2022-09-26T11:11:40Z</time>
      </trkpt>
      <trkpt lat="43.68151" lon="6.11042">
        <ele>568.6</ele>
        <time>2022-09-26T11:11:50Z</time>
      </trkpt>
      <trkpt lat="43.68142" lon="6.1104">
        <ele>568.6</ele>
        <time>2022-09-26T11:11:58Z</time>
      </trkpt>
      <trkpt lat="43.68133" lon="6.11038">
        <ele>568.6</ele>
        <time>2022-09-26T11:12:08Z</time>
      </trkpt>
      <trkpt lat="43.68124" lon="6.11037">
        <ele>568.6</ele>
        <time>2022-09-26T11:12:18Z</time>
      </trkpt>
      <trkpt lat="43.68115" lon="6.11033">
        <ele>568.8</ele>
        <time>2022-09-26T11:12:26Z</time>
      </trkpt>
      <trkpt lat="43.68108" lon="6.11041">
        <ele>568.5</ele>
        <time>2022-09-26T11:12:50Z</time>
      </trkpt>
      <trkpt lat="43.68104" lon="6.11053">
        <ele>568.9</ele>
        <time>2022-09-26T11:13:22Z</time>
      </trkpt>
      <trkpt lat="43.681" lon="6.11064">
        <ele>568.9</ele>
        <time>2022-09-26T11:13:36Z</time>
      </trkpt>
      <trkpt lat="43.68098" lon="6.11077">
        <ele>568.9</ele>
        <time>2022-09-26T11:13:55Z</time>
      </trkpt>
      <trkpt lat="43.68094" lon="6.11089">
        <ele>568.9</ele>
        <time>2022-09-26T11:14:05Z</time>
      </trkpt>
      <trkpt lat="43.68088" lon="6.11099">
        <ele>568.8</ele>
        <time>2022-09-26T11:14:14Z</time>
      </trkpt>
      <trkpt lat="43.68081" lon="6.11108">
        <ele>568.4</ele>
        <time>2022-09-26T11:14:22Z</time>
      </trkpt>
      <trkpt lat="43.68076" lon="6.11119">
        <ele>568.9</ele>
        <time>2022-09-26T11:14:30Z</time>
      </trkpt>
      <trkpt lat="43.68069" lon="6.1113">
        <ele>568.5</ele>
        <time>2022-09-26T11:14:39Z</time>
      </trkpt>
      <trkpt lat="43.68064" lon="6.1114">
        <ele>568.4</ele>
        <time>2022-09-26T11:14:48Z</time>
      </trkpt>
      <trkpt lat="43.68058" lon="6.1115">
        <ele>567.9</ele>
        <time>2022-09-26T11:14:57Z</time>
      </trkpt>
      <trkpt lat="43.68052" lon="6.11161">
        <ele>566.5</ele>
        <time>2022-09-26T11:15:06Z</time>
      </trkpt>
      <trkpt lat="43.68047" lon="6.11171">
        <ele>566.6</ele>
        <time>2022-09-26T11:15:14Z</time>
      </trkpt>
      <trkpt lat="43.68042" lon="6.11182">
        <ele>566.1</ele>
        <time>2022-09-26T11:15:22Z</time>
      </trkpt>
      <trkpt lat="43.68036" lon="6.11193">
        <ele>561.8</ele>
        <time>2022-09-26T11:15:30Z</time>
      </trkpt>
      <trkpt lat="43.68033" lon="6.11205">
        <ele>566.8</ele>
        <time>2022-09-26T11:15:41Z</time>
      </trkpt>
      <trkpt lat="43.68027" lon="6.11216">
        <ele>568.4</ele>
        <time>2022-09-26T11:15:50Z</time>
      </trkpt>
      <trkpt lat="43.6802" lon="6.11224">
        <ele>569</ele>
        <time>2022-09-26T11:16:01Z</time>
      </trkpt>
      <trkpt lat="43.68013" lon="6.11232">
        <ele>569.1</ele>
        <time>2022-09-26T11:16:08Z</time>
      </trkpt>
      <trkpt lat="43.68005" lon="6.11239">
        <ele>569.2</ele>
        <time>2022-09-26T11:16:16Z</time>
      </trkpt>
      <trkpt lat="43.67999" lon="6.1125">
        <ele>569.2</ele>
        <time>2022-09-26T11:16:26Z</time>
      </trkpt>
      <trkpt lat="43.67992" lon="6.11258">
        <ele>569.2</ele>
        <time>2022-09-26T11:16:35Z</time>
      </trkpt>
      <trkpt lat="43.67984" lon="6.11268">
        <ele>569.2</ele>
        <time>2022-09-26T11:16:44Z</time>
      </trkpt>
      <trkpt lat="43.67977" lon="6.11277">
        <ele>569.3</ele>
        <time>2022-09-26T11:16:52Z</time>
      </trkpt>
      <trkpt lat="43.6797" lon="6.11285">
        <ele>569.4</ele>
        <time>2022-09-26T11:17:00Z</time>
      </trkpt>
      <trkpt lat="43.67962" lon="6.11294">
        <ele>569.4</ele>
        <time>2022-09-26T11:17:10Z</time>
      </trkpt>
      <trkpt lat="43.67953" lon="6.11299">
        <ele>569.3</ele>
        <time>2022-09-26T11:17:19Z</time>
      </trkpt>
      <trkpt lat="43.67946" lon="6.11307">
        <ele>569.3</ele>
        <time>2022-09-26T11:17:29Z</time>
      </trkpt>
      <trkpt lat="43.67941" lon="6.11318">
        <ele>569.1</ele>
        <time>2022-09-26T11:17:37Z</time>
      </trkpt>
      <trkpt lat="43.67939" lon="6.11332">
        <ele>569</ele>
        <time>2022-09-26T11:17:47Z</time>
      </trkpt>
      <trkpt lat="43.67939" lon="6.11346">
        <ele>568.7</ele>
        <time>2022-09-26T11:17:57Z</time>
      </trkpt>
      <trkpt lat="43.6794" lon="6.11359">
        <ele>568.7</ele>
        <time>2022-09-26T11:18:05Z</time>
      </trkpt>
      <trkpt lat="43.67937" lon="6.11372">
        <ele>568.7</ele>
        <time>2022-09-26T11:18:14Z</time>
      </trkpt>
      <trkpt lat="43.67933" lon="6.11385">
        <ele>568.8</ele>
        <time>2022-09-26T11:18:24Z</time>
      </trkpt>
      <trkpt lat="43.6793" lon="6.11397">
        <ele>568.7</ele>
        <time>2022-09-26T11:18:35Z</time>
      </trkpt>
      <trkpt lat="43.67925" lon="6.11408">
        <ele>568.6</ele>
        <time>2022-09-26T11:18:45Z</time>
      </trkpt>
      <trkpt lat="43.6792" lon="6.11419">
        <ele>568.5</ele>
        <time>2022-09-26T11:18:56Z</time>
      </trkpt>
      <trkpt lat="43.67913" lon="6.11429">
        <ele>568.7</ele>
        <time>2022-09-26T11:19:06Z</time>
      </trkpt>
      <trkpt lat="43.67907" lon="6.11438">
        <ele>568.6</ele>
        <time>2022-09-26T11:19:15Z</time>
      </trkpt>
      <trkpt lat="43.67899" lon="6.11446">
        <ele>568.5</ele>
        <time>2022-09-26T11:19:24Z</time>
      </trkpt>
      <trkpt lat="43.67891" lon="6.11451">
        <ele>568.3</ele>
        <time>2022-09-26T11:19:33Z</time>
      </trkpt>
      <trkpt lat="43.67882" lon="6.11454">
        <ele>568</ele>
        <time>2022-09-26T11:19:43Z</time>
      </trkpt>
      <trkpt lat="43.67872" lon="6.11455">
        <ele>567.9</ele>
        <time>2022-09-26T11:19:51Z</time>
      </trkpt>
      <trkpt lat="43.67863" lon="6.11455">
        <ele>568</ele>
        <time>2022-09-26T11:20:00Z</time>
      </trkpt>
      <trkpt lat="43.67853" lon="6.11458">
        <ele>568</ele>
        <time>2022-09-26T11:20:09Z</time>
      </trkpt>
      <trkpt lat="43.67844" lon="6.11461">
        <ele>568</ele>
        <time>2022-09-26T11:20:18Z</time>
      </trkpt>
      <trkpt lat="43.67835" lon="6.11466">
        <ele>567.8</ele>
        <time>2022-09-26T11:20:27Z</time>
      </trkpt>
      <trkpt lat="43.67826" lon="6.11469">
        <ele>567.7</ele>
        <time>2022-09-26T11:20:37Z</time>
      </trkpt>
      <trkpt lat="43.67817" lon="6.11471">
        <ele>567.7</ele>
        <time>2022-09-26T11:20:45Z</time>
      </trkpt>
      <trkpt lat="43.67807" lon="6.1147">
        <ele>567.6</ele>
        <time>2022-09-26T11:20:54Z</time>
      </trkpt>
      <trkpt lat="43.67798" lon="6.1147">
        <ele>567.4</ele>
        <time>2022-09-26T11:21:05Z</time>
      </trkpt>
      <trkpt lat="43.67789" lon="6.11475">
        <ele>567.4</ele>
        <time>2022-09-26T11:21:16Z</time>
      </trkpt>
      <trkpt lat="43.67781" lon="6.11476">
        <ele>567.3</ele>
        <time>2022-09-26T11:21:25Z</time>
      </trkpt>
      <trkpt lat="43.67771" lon="6.1148">
        <ele>567.3</ele>
        <time>2022-09-26T11:21:34Z</time>
      </trkpt>
      <trkpt lat="43.67763" lon="6.11483">
        <ele>567.2</ele>
        <time>2022-09-26T11:21:43Z</time>
      </trkpt>
      <trkpt lat="43.67755" lon="6.1149">
        <ele>567.1</ele>
        <time>2022-09-26T11:21:52Z</time>
      </trkpt>
      <trkpt lat="43.67746" lon="6.11497">
        <ele>567.1</ele>
        <time>2022-09-26T11:22:03Z</time>
      </trkpt>
      <trkpt lat="43.67737" lon="6.11503">
        <ele>567</ele>
        <time>2022-09-26T11:22:12Z</time>
      </trkpt>
      <trkpt lat="43.6773" lon="6.11511">
        <ele>567.1</ele>
        <time>2022-09-26T11:22:20Z</time>
      </trkpt>
      <trkpt lat="43.67722" lon="6.1152">
        <ele>567.2</ele>
        <time>2022-09-26T11:22:29Z</time>
      </trkpt>
      <trkpt lat="43.67714" lon="6.11526">
        <ele>567.1</ele>
        <time>2022-09-26T11:22:39Z</time>
      </trkpt>
      <trkpt lat="43.67706" lon="6.11533">
        <ele>567.1</ele>
        <time>2022-09-26T11:22:50Z</time>
      </trkpt>
      <trkpt lat="43.67701" lon="6.11545">
        <ele>567.2</ele>
        <time>2022-09-26T11:22:58Z</time>
      </trkpt>
      <trkpt lat="43.67692" lon="6.11552">
        <ele>567.1</ele>
        <time>2022-09-26T11:23:07Z</time>
      </trkpt>
      <trkpt lat="43.67684" lon="6.11559">
        <ele>567.1</ele>
        <time>2022-09-26T11:23:15Z</time>
      </trkpt>
      <trkpt lat="43.67676" lon="6.11564">
        <ele>567.1</ele>
        <time>2022-09-26T11:23:24Z</time>
      </trkpt>
      <trkpt lat="43.67668" lon="6.11572">
        <ele>567.1</ele>
        <time>2022-09-26T11:23:34Z</time>
      </trkpt>
      <trkpt lat="43.6766" lon="6.11579">
        <ele>566.8</ele>
        <time>2022-09-26T11:23:41Z</time>
      </trkpt>
      <trkpt lat="43.67653" lon="6.11587">
        <ele>566.4</ele>
        <time>2022-09-26T11:23:50Z</time>
      </trkpt>
      <trkpt lat="43.67646" lon="6.11595">
        <ele>566.4</ele>
        <time>2022-09-26T11:23:58Z</time>
      </trkpt>
      <trkpt lat="43.6764" lon="6.11606">
        <ele>566.4</ele>
        <time>2022-09-26T11:24:08Z</time>
      </trkpt>
      <trkpt lat="43.67632" lon="6.11615">
        <ele>566.7</ele>
        <time>2022-09-26T11:24:18Z</time>
      </trkpt>
      <trkpt lat="43.67626" lon="6.11624">
        <ele>566.5</ele>
        <time>2022-09-26T11:24:29Z</time>
      </trkpt>
      <trkpt lat="43.67617" lon="6.11628">
        <ele>566.4</ele>
        <time>2022-09-26T11:24:40Z</time>
      </trkpt>
      <trkpt lat="43.67609" lon="6.11633">
        <ele>563.2</ele>
        <time>2022-09-26T11:30:15Z</time>
      </trkpt>
      <trkpt lat="43.67604" lon="6.11645">
        <ele>563.2</ele>
        <time>2022-09-26T11:30:26Z</time>
      </trkpt>
      <trkpt lat="43.67596" lon="6.11652">
        <ele>563.1</ele>
        <time>2022-09-26T11:30:41Z</time>
      </trkpt>
      <trkpt lat="43.67591" lon="6.11664">
        <ele>562.8</ele>
        <time>2022-09-26T11:30:51Z</time>
      </trkpt>
      <trkpt lat="43.67584" lon="6.11672">
        <ele>562.6</ele>
        <time>2022-09-26T11:31:01Z</time>
      </trkpt>
      <trkpt lat="43.67575" lon="6.11675">
        <ele>562.4</ele>
        <time>2022-09-26T11:31:07Z</time>
      </trkpt>
      <trkpt lat="43.67565" lon="6.11676">
        <ele>562.2</ele>
        <time>2022-09-26T11:31:20Z</time>
      </trkpt>
      <trkpt lat="43.67556" lon="6.11675">
        <ele>562.2</ele>
        <time>2022-09-26T11:31:31Z</time>
      </trkpt>
      <trkpt lat="43.67547" lon="6.1167">
        <ele>562.2</ele>
        <time>2022-09-26T11:31:40Z</time>
      </trkpt>
      <trkpt lat="43.67537" lon="6.11671">
        <ele>562.2</ele>
        <time>2022-09-26T11:31:52Z</time>
      </trkpt>
      <trkpt lat="43.67528" lon="6.11672">
        <ele>562.2</ele>
        <time>2022-09-26T11:32:01Z</time>
      </trkpt>
      <trkpt lat="43.67519" lon="6.11666">
        <ele>562.2</ele>
        <time>2022-09-26T11:32:09Z</time>
      </trkpt>
      <trkpt lat="43.67511" lon="6.1166">
        <ele>562.5</ele>
        <time>2022-09-26T11:32:18Z</time>
      </trkpt>
      <trkpt lat="43.67502" lon="6.1166">
        <ele>562.8</ele>
        <time>2022-09-26T11:32:27Z</time>
      </trkpt>
      <trkpt lat="43.67492" lon="6.11661">
        <ele>563.1</ele>
        <time>2022-09-26T11:32:36Z</time>
      </trkpt>
      <trkpt lat="43.67484" lon="6.11664">
        <ele>563.2</ele>
        <time>2022-09-26T11:32:46Z</time>
      </trkpt>
      <trkpt lat="43.67475" lon="6.11664">
        <ele>563.4</ele>
        <time>2022-09-26T11:32:56Z</time>
      </trkpt>
      <trkpt lat="43.67465" lon="6.11665">
        <ele>563.8</ele>
        <time>2022-09-26T11:33:06Z</time>
      </trkpt>
      <trkpt lat="43.67455" lon="6.11668">
        <ele>564</ele>
        <time>2022-09-26T11:33:14Z</time>
      </trkpt>
      <trkpt lat="43.67446" lon="6.11674">
        <ele>564.3</ele>
        <time>2022-09-26T11:33:23Z</time>
      </trkpt>
      <trkpt lat="43.67437" lon="6.11678">
        <ele>564.6</ele>
        <time>2022-09-26T11:33:32Z</time>
      </trkpt>
      <trkpt lat="43.67428" lon="6.1168">
        <ele>565</ele>
        <time>2022-09-26T11:33:39Z</time>
      </trkpt>
      <trkpt lat="43.67419" lon="6.11684">
        <ele>565.4</ele>
        <time>2022-09-26T11:33:47Z</time>
      </trkpt>
      <trkpt lat="43.6741" lon="6.11688">
        <ele>565.4</ele>
        <time>2022-09-26T11:33:56Z</time>
      </trkpt>
      <trkpt lat="43.67401" lon="6.11694">
        <ele>565.4</ele>
        <time>2022-09-26T11:34:05Z</time>
      </trkpt>
      <trkpt lat="43.67394" lon="6.11703">
        <ele>565.5</ele>
        <time>2022-09-26T11:34:14Z</time>
      </trkpt>
      <trkpt lat="43.67387" lon="6.11713">
        <ele>565.5</ele>
        <time>2022-09-26T11:34:24Z</time>
      </trkpt>
      <trkpt lat="43.67379" lon="6.1172">
        <ele>565.5</ele>
        <time>2022-09-26T11:34:32Z</time>
      </trkpt>
      <trkpt lat="43.67371" lon="6.11726">
        <ele>565.5</ele>
        <time>2022-09-26T11:34:40Z</time>
      </trkpt>
      <trkpt lat="43.67363" lon="6.11734">
        <ele>565.6</ele>
        <time>2022-09-26T11:34:48Z</time>
      </trkpt>
      <trkpt lat="43.67356" lon="6.11742">
        <ele>565.8</ele>
        <time>2022-09-26T11:34:58Z</time>
      </trkpt>
      <trkpt lat="43.6735" lon="6.11751">
        <ele>566.3</ele>
        <time>2022-09-26T11:35:08Z</time>
      </trkpt>
      <trkpt lat="43.67342" lon="6.11758">
        <ele>566.7</ele>
        <time>2022-09-26T11:35:18Z</time>
      </trkpt>
      <trkpt lat="43.67332" lon="6.1176">
        <ele>566.9</ele>
        <time>2022-09-26T11:35:24Z</time>
      </trkpt>
      <trkpt lat="43.67322" lon="6.1176">
        <ele>567.1</ele>
        <time>2022-09-26T11:35:30Z</time>
      </trkpt>
      <trkpt lat="43.67313" lon="6.11762">
        <ele>567.4</ele>
        <time>2022-09-26T11:35:36Z</time>
      </trkpt>
      <trkpt lat="43.67303" lon="6.11765">
        <ele>567.7</ele>
        <time>2022-09-26T11:35:42Z</time>
      </trkpt>
      <trkpt lat="43.67294" lon="6.1177">
        <ele>568.2</ele>
        <time>2022-09-26T11:35:51Z</time>
      </trkpt>
      <trkpt lat="43.67286" lon="6.11775">
        <ele>568.8</ele>
        <time>2022-09-26T11:36:00Z</time>
      </trkpt>
      <trkpt lat="43.67277" lon="6.1178">
        <ele>569.2</ele>
        <time>2022-09-26T11:36:07Z</time>
      </trkpt>
      <trkpt lat="43.67269" lon="6.11785">
        <ele>569.4</ele>
        <time>2022-09-26T11:36:15Z</time>
      </trkpt>
      <trkpt lat="43.6726" lon="6.1179">
        <ele>569.5</ele>
        <time>2022-09-26T11:36:23Z</time>
      </trkpt>
      <trkpt lat="43.67252" lon="6.11797">
        <ele>569.8</ele>
        <time>2022-09-26T11:36:32Z</time>
      </trkpt>
      <trkpt lat="43.67244" lon="6.11804">
        <ele>570.2</ele>
        <time>2022-09-26T11:36:41Z</time>
      </trkpt>
      <trkpt lat="43.67236" lon="6.11812">
        <ele>570.6</ele>
        <time>2022-09-26T11:36:50Z</time>
      </trkpt>
      <trkpt lat="43.67227" lon="6.1182">
        <ele>570.9</ele>
        <time>2022-09-26T11:36:58Z</time>
      </trkpt>
      <trkpt lat="43.67221" lon="6.11829">
        <ele>571.2</ele>
        <time>2022-09-26T11:37:08Z</time>
      </trkpt>
      <trkpt lat="43.67213" lon="6.11837">
        <ele>571.8</ele>
        <time>2022-09-26T11:37:17Z</time>
      </trkpt>
      <trkpt lat="43.67206" lon="6.11846">
        <ele>572.3</ele>
        <time>2022-09-26T11:37:25Z</time>
      </trkpt>
      <trkpt lat="43.67198" lon="6.11854">
        <ele>572.6</ele>
        <time>2022-09-26T11:37:35Z</time>
      </trkpt>
      <trkpt lat="43.6719" lon="6.11862">
        <ele>573</ele>
        <time>2022-09-26T11:37:44Z</time>
      </trkpt>
      <trkpt lat="43.67182" lon="6.11868">
        <ele>573.4</ele>
        <time>2022-09-26T11:37:54Z</time>
      </trkpt>
      <trkpt lat="43.67174" lon="6.11877">
        <ele>573.7</ele>
        <time>2022-09-26T11:38:02Z</time>
      </trkpt>
      <trkpt lat="43.67166" lon="6.11883">
        <ele>573.9</ele>
        <time>2022-09-26T11:38:10Z</time>
      </trkpt>
      <trkpt lat="43.67157" lon="6.1189">
        <ele>574.4</ele>
        <time>2022-09-26T11:38:19Z</time>
      </trkpt>
      <trkpt lat="43.6715" lon="6.11896">
        <ele>574.7</ele>
        <time>2022-09-26T11:38:27Z</time>
      </trkpt>
      <trkpt lat="43.67141" lon="6.11903">
        <ele>574.9</ele>
        <time>2022-09-26T11:38:36Z</time>
      </trkpt>
      <trkpt lat="43.67134" lon="6.11913">
        <ele>575.1</ele>
        <time>2022-09-26T11:38:47Z</time>
      </trkpt>
      <trkpt lat="43.67126" lon="6.11921">
        <ele>575.1</ele>
        <time>2022-09-26T11:38:56Z</time>
      </trkpt>
      <trkpt lat="43.67119" lon="6.1193">
        <ele>575</ele>
        <time>2022-09-26T11:39:06Z</time>
      </trkpt>
      <trkpt lat="43.67111" lon="6.11939">
        <ele>575.2</ele>
        <time>2022-09-26T11:39:15Z</time>
      </trkpt>
      <trkpt lat="43.67106" lon="6.11949">
        <ele>575.1</ele>
        <time>2022-09-26T11:39:25Z</time>
      </trkpt>
      <trkpt lat="43.67098" lon="6.11958">
        <ele>575.1</ele>
        <time>2022-09-26T11:39:34Z</time>
      </trkpt>
      <trkpt lat="43.67093" lon="6.11968">
        <ele>575.3</ele>
        <time>2022-09-26T11:39:44Z</time>
      </trkpt>
      <trkpt lat="43.67086" lon="6.11977">
        <ele>575.4</ele>
        <time>2022-09-26T11:39:54Z</time>
      </trkpt>
      <trkpt lat="43.67078" lon="6.11984">
        <ele>575.5</ele>
        <time>2022-09-26T11:40:02Z</time>
      </trkpt>
      <trkpt lat="43.67069" lon="6.1199">
        <ele>575.7</ele>
        <time>2022-09-26T11:40:12Z</time>
      </trkpt>
      <trkpt lat="43.6706" lon="6.11995">
        <ele>576</ele>
        <time>2022-09-26T11:40:21Z</time>
      </trkpt>
      <trkpt lat="43.67053" lon="6.12002">
        <ele>576.3</ele>
        <time>2022-09-26T11:40:32Z</time>
      </trkpt>
      <trkpt lat="43.67045" lon="6.1201">
        <ele>576.4</ele>
        <time>2022-09-26T11:40:41Z</time>
      </trkpt>
      <trkpt lat="43.67037" lon="6.12018">
        <ele>576.6</ele>
        <time>2022-09-26T11:40:49Z</time>
      </trkpt>
      <trkpt lat="43.67028" lon="6.12024">
        <ele>577</ele>
        <time>2022-09-26T11:40:58Z</time>
      </trkpt>
      <trkpt lat="43.67019" lon="6.12025">
        <ele>577.4</ele>
        <time>2022-09-26T11:41:07Z</time>
      </trkpt>
      <trkpt lat="43.6701" lon="6.12024">
        <ele>577.8</ele>
        <time>2022-09-26T11:41:16Z</time>
      </trkpt>
      <trkpt lat="43.67001" lon="6.12027">
        <ele>578.3</ele>
        <time>2022-09-26T11:41:26Z</time>
      </trkpt>
      <trkpt lat="43.66991" lon="6.12028">
        <ele>578.9</ele>
        <time>2022-09-26T11:41:35Z</time>
      </trkpt>
      <trkpt lat="43.66982" lon="6.12029">
        <ele>579.4</ele>
        <time>2022-09-26T11:41:43Z</time>
      </trkpt>
      <trkpt lat="43.66974" lon="6.12037">
        <ele>579.8</ele>
        <time>2022-09-26T11:41:53Z</time>
      </trkpt>
      <trkpt lat="43.66968" lon="6.12046">
        <ele>580.1</ele>
        <time>2022-09-26T11:42:03Z</time>
      </trkpt>
      <trkpt lat="43.6696" lon="6.12054">
        <ele>580.7</ele>
        <time>2022-09-26T11:42:15Z</time>
      </trkpt>
      <trkpt lat="43.66967" lon="6.12062">
        <ele>583.1</ele>
        <time>2022-09-26T11:46:22Z</time>
      </trkpt>
      <trkpt lat="43.66958" lon="6.12062">
        <ele>582.6</ele>
        <time>2022-09-26T11:49:38Z</time>
      </trkpt>
      <trkpt lat="43.6695" lon="6.12068">
        <ele>582.1</ele>
        <time>2022-09-26T11:52:47Z</time>
      </trkpt>
      <trkpt lat="43.66945" lon="6.1208">
        <ele>582.6</ele>
        <time>2022-09-26T11:53:00Z</time>
      </trkpt>
      <trkpt lat="43.66938" lon="6.12089">
        <ele>583</ele>
        <time>2022-09-26T11:53:12Z</time>
      </trkpt>
      <trkpt lat="43.66932" lon="6.12099">
        <ele>583.5</ele>
        <time>2022-09-26T11:53:23Z</time>
      </trkpt>
      <trkpt lat="43.66925" lon="6.12108">
        <ele>583.8</ele>
        <time>2022-09-26T11:53:35Z</time>
      </trkpt>
      <trkpt lat="43.66921" lon="6.1212">
        <ele>584.2</ele>
        <time>2022-09-26T11:53:44Z</time>
      </trkpt>
      <trkpt lat="43.66918" lon="6.12132">
        <ele>584.3</ele>
        <time>2022-09-26T11:53:52Z</time>
      </trkpt>
      <trkpt lat="43.66915" lon="6.12143">
        <ele>584.9</ele>
        <time>2022-09-26T11:54:04Z</time>
      </trkpt>
      <trkpt lat="43.66908" lon="6.12153">
        <ele>585.1</ele>
        <time>2022-09-26T11:54:16Z</time>
      </trkpt>
      <trkpt lat="43.66903" lon="6.12164">
        <ele>585.5</ele>
        <time>2022-09-26T11:54:27Z</time>
      </trkpt>
      <trkpt lat="43.66898" lon="6.12175">
        <ele>585.7</ele>
        <time>2022-09-26T11:54:38Z</time>
      </trkpt>
      <trkpt lat="43.66894" lon="6.12187">
        <ele>586.1</ele>
        <time>2022-09-26T11:54:49Z</time>
      </trkpt>
      <trkpt lat="43.66889" lon="6.12198">
        <ele>586.2</ele>
        <time>2022-09-26T11:54:58Z</time>
      </trkpt>
      <trkpt lat="43.66884" lon="6.1221">
        <ele>586.8</ele>
        <time>2022-09-26T11:55:08Z</time>
      </trkpt>
      <trkpt lat="43.6688" lon="6.12222">
        <ele>586.7</ele>
        <time>2022-09-26T11:55:18Z</time>
      </trkpt>
      <trkpt lat="43.66874" lon="6.12232">
        <ele>587</ele>
        <time>2022-09-26T11:55:27Z</time>
      </trkpt>
      <trkpt lat="43.66868" lon="6.12242">
        <ele>587.2</ele>
        <time>2022-09-26T11:55:38Z</time>
      </trkpt>
      <trkpt lat="43.66862" lon="6.12254">
        <ele>587.6</ele>
        <time>2022-09-26T11:55:48Z</time>
      </trkpt>
      <trkpt lat="43.66856" lon="6.12264">
        <ele>588.2</ele>
        <time>2022-09-26T11:55:58Z</time>
      </trkpt>
      <trkpt lat="43.66851" lon="6.12276">
        <ele>588.4</ele>
        <time>2022-09-26T11:56:08Z</time>
      </trkpt>
      <trkpt lat="43.66847" lon="6.12287">
        <ele>588.8</ele>
        <time>2022-09-26T11:56:17Z</time>
      </trkpt>
      <trkpt lat="43.66843" lon="6.12298">
        <ele>588.9</ele>
        <time>2022-09-26T11:56:29Z</time>
      </trkpt>
      <trkpt lat="43.66838" lon="6.12309">
        <ele>589</ele>
        <time>2022-09-26T11:56:39Z</time>
      </trkpt>
      <trkpt lat="43.66834" lon="6.12322">
        <ele>586.1</ele>
        <time>2022-09-26T11:56:51Z</time>
      </trkpt>
      <trkpt lat="43.66828" lon="6.12333">
        <ele>588.5</ele>
        <time>2022-09-26T11:57:01Z</time>
      </trkpt>
      <trkpt lat="43.66823" lon="6.12343">
        <ele>589.9</ele>
        <time>2022-09-26T11:57:10Z</time>
      </trkpt>
      <trkpt lat="43.66818" lon="6.12354">
        <ele>590.8</ele>
        <time>2022-09-26T11:57:20Z</time>
      </trkpt>
      <trkpt lat="43.66813" lon="6.12365">
        <ele>591.6</ele>
        <time>2022-09-26T11:57:32Z</time>
      </trkpt>
      <trkpt lat="43.66808" lon="6.12377">
        <ele>591.7</ele>
        <time>2022-09-26T11:57:42Z</time>
      </trkpt>
      <trkpt lat="43.66802" lon="6.12387">
        <ele>591.7</ele>
        <time>2022-09-26T11:57:50Z</time>
      </trkpt>
      <trkpt lat="43.66797" lon="6.12398">
        <ele>591.9</ele>
        <time>2022-09-26T11:58:00Z</time>
      </trkpt>
      <trkpt lat="43.66791" lon="6.12408">
        <ele>592.4</ele>
        <time>2022-09-26T11:58:09Z</time>
      </trkpt>
      <trkpt lat="43.66786" lon="6.12419">
        <ele>593</ele>
        <time>2022-09-26T11:58:18Z</time>
      </trkpt>
      <trkpt lat="43.6678" lon="6.1243">
        <ele>593.7</ele>
        <time>2022-09-26T11:58:28Z</time>
      </trkpt>
      <trkpt lat="43.66774" lon="6.1244">
        <ele>593.7</ele>
        <time>2022-09-26T11:58:38Z</time>
      </trkpt>
      <trkpt lat="43.6677" lon="6.12452">
        <ele>594.4</ele>
        <time>2022-09-26T11:58:50Z</time>
      </trkpt>
      <trkpt lat="43.66765" lon="6.12463">
        <ele>594.5</ele>
        <time>2022-09-26T11:59:00Z</time>
      </trkpt>
      <trkpt lat="43.6676" lon="6.12475">
        <ele>596.3</ele>
        <time>2022-09-26T11:59:10Z</time>
      </trkpt>
      <trkpt lat="43.66755" lon="6.12485">
        <ele>594.8</ele>
        <time>2022-09-26T11:59:20Z</time>
      </trkpt>
      <trkpt lat="43.6675" lon="6.12496">
        <ele>595.8</ele>
        <time>2022-09-26T11:59:31Z</time>
      </trkpt>
      <trkpt lat="43.66745" lon="6.12509">
        <ele>594.6</ele>
        <time>2022-09-26T11:59:43Z</time>
      </trkpt>
      <trkpt lat="43.66741" lon="6.12521">
        <ele>596</ele>
        <time>2022-09-26T11:59:53Z</time>
      </trkpt>
      <trkpt lat="43.66736" lon="6.12533">
        <ele>598.1</ele>
        <time>2022-09-26T12:00:03Z</time>
      </trkpt>
      <trkpt lat="43.6673" lon="6.12543">
        <ele>600.2</ele>
        <time>2022-09-26T12:00:14Z</time>
      </trkpt>
      <trkpt lat="43.66725" lon="6.12553">
        <ele>599.6</ele>
        <time>2022-09-26T12:00:23Z</time>
      </trkpt>
      <trkpt lat="43.6672" lon="6.12564">
        <ele>599.2</ele>
        <time>2022-09-26T12:00:33Z</time>
      </trkpt>
      <trkpt lat="43.66715" lon="6.12575">
        <ele>599.7</ele>
        <time>2022-09-26T12:00:44Z</time>
      </trkpt>
      <trkpt lat="43.6671" lon="6.12585">
        <ele>599.8</ele>
        <time>2022-09-26T12:00:52Z</time>
      </trkpt>
      <trkpt lat="43.66703" lon="6.12595">
        <ele>600.7</ele>
        <time>2022-09-26T12:01:03Z</time>
      </trkpt>
      <trkpt lat="43.66697" lon="6.12604">
        <ele>600.8</ele>
        <time>2022-09-26T12:01:13Z</time>
      </trkpt>
      <trkpt lat="43.66689" lon="6.12611">
        <ele>602.1</ele>
        <time>2022-09-26T12:01:24Z</time>
      </trkpt>
      <trkpt lat="43.66682" lon="6.12619">
        <ele>602.3</ele>
        <time>2022-09-26T12:01:35Z</time>
      </trkpt>
      <trkpt lat="43.66675" lon="6.12629">
        <ele>602.2</ele>
        <time>2022-09-26T12:01:47Z</time>
      </trkpt>
      <trkpt lat="43.66669" lon="6.12638">
        <ele>602.6</ele>
        <time>2022-09-26T12:01:57Z</time>
      </trkpt>
      <trkpt lat="43.66662" lon="6.12646">
        <ele>602.8</ele>
        <time>2022-09-26T12:02:07Z</time>
      </trkpt>
      <trkpt lat="43.66655" lon="6.12655">
        <ele>603.4</ele>
        <time>2022-09-26T12:02:18Z</time>
      </trkpt>
      <trkpt lat="43.66652" lon="6.12667">
        <ele>603.4</ele>
        <time>2022-09-26T12:02:47Z</time>
      </trkpt>
      <trkpt lat="43.66656" lon="6.12679">
        <ele>604.6</ele>
        <time>2022-09-26T12:02:58Z</time>
      </trkpt>
      <trkpt lat="43.66663" lon="6.12689">
        <ele>604.6</ele>
        <time>2022-09-26T12:03:10Z</time>
      </trkpt>
      <trkpt lat="43.66668" lon="6.12699">
        <ele>604.1</ele>
        <time>2022-09-26T12:03:21Z</time>
      </trkpt>
      <trkpt lat="43.66668" lon="6.12713">
        <ele>603.5</ele>
        <time>2022-09-26T12:03:30Z</time>
      </trkpt>
      <trkpt lat="43.66668" lon="6.12726">
        <ele>603.8</ele>
        <time>2022-09-26T12:03:39Z</time>
      </trkpt>
      <trkpt lat="43.66662" lon="6.12735">
        <ele>603.9</ele>
        <time>2022-09-26T12:03:49Z</time>
      </trkpt>
      <trkpt lat="43.66655" lon="6.12746">
        <ele>605.9</ele>
        <time>2022-09-26T12:03:57Z</time>
      </trkpt>
      <trkpt lat="43.6665" lon="6.12757">
        <ele>605.7</ele>
        <time>2022-09-26T12:04:08Z</time>
      </trkpt>
      <trkpt lat="43.66645" lon="6.12768">
        <ele>605.3</ele>
        <time>2022-09-26T12:04:15Z</time>
      </trkpt>
      <trkpt lat="43.6664" lon="6.12779">
        <ele>604.4</ele>
        <time>2022-09-26T12:04:26Z</time>
      </trkpt>
      <trkpt lat="43.66635" lon="6.1279">
        <ele>605</ele>
        <time>2022-09-26T12:04:34Z</time>
      </trkpt>
      <trkpt lat="43.66633" lon="6.12803">
        <ele>604.5</ele>
        <time>2022-09-26T12:04:44Z</time>
      </trkpt>
      <trkpt lat="43.66637" lon="6.12814">
        <ele>604.4</ele>
        <time>2022-09-26T12:04:54Z</time>
      </trkpt>
      <trkpt lat="43.66636" lon="6.12826">
        <ele>605.6</ele>
        <time>2022-09-26T12:07:35Z</time>
      </trkpt>
      <trkpt lat="43.66643" lon="6.12835">
        <ele>605.3</ele>
        <time>2022-09-26T12:07:48Z</time>
      </trkpt>
      <trkpt lat="43.66649" lon="6.12844">
        <ele>605</ele>
        <time>2022-09-26T12:08:02Z</time>
      </trkpt>
      <trkpt lat="43.66656" lon="6.12854">
        <ele>604.4</ele>
        <time>2022-09-26T12:08:12Z</time>
      </trkpt>
      <trkpt lat="43.66662" lon="6.12863">
        <ele>603.5</ele>
        <time>2022-09-26T12:08:23Z</time>
      </trkpt>
      <trkpt lat="43.66668" lon="6.12874">
        <ele>601.8</ele>
        <time>2022-09-26T12:08:36Z</time>
      </trkpt>
      <trkpt lat="43.66674" lon="6.12885">
        <ele>601.7</ele>
        <time>2022-09-26T12:08:45Z</time>
      </trkpt>
      <trkpt lat="43.66679" lon="6.12896">
        <ele>600.8</ele>
        <time>2022-09-26T12:08:54Z</time>
      </trkpt>
      <trkpt lat="43.66686" lon="6.12904">
        <ele>599.6</ele>
        <time>2022-09-26T12:09:03Z</time>
      </trkpt>
      <trkpt lat="43.66693" lon="6.12913">
        <ele>599</ele>
        <time>2022-09-26T12:09:12Z</time>
      </trkpt>
      <trkpt lat="43.66701" lon="6.12921">
        <ele>598.6</ele>
        <time>2022-09-26T12:09:20Z</time>
      </trkpt>
      <trkpt lat="43.66706" lon="6.12932">
        <ele>598</ele>
        <time>2022-09-26T12:09:32Z</time>
      </trkpt>
      <trkpt lat="43.66714" lon="6.12938">
        <ele>597</ele>
        <time>2022-09-26T12:09:42Z</time>
      </trkpt>
      <trkpt lat="43.66722" lon="6.12945">
        <ele>597.8</ele>
        <time>2022-09-26T12:09:50Z</time>
      </trkpt>
      <trkpt lat="43.66731" lon="6.12949">
        <ele>597</ele>
        <time>2022-09-26T12:09:59Z</time>
      </trkpt>
      <trkpt lat="43.66739" lon="6.12956">
        <ele>596.7</ele>
        <time>2022-09-26T12:10:11Z</time>
      </trkpt>
      <trkpt lat="43.66746" lon="6.12965">
        <ele>595.5</ele>
        <time>2022-09-26T12:10:18Z</time>
      </trkpt>
      <trkpt lat="43.66754" lon="6.12972">
        <ele>594.9</ele>
        <time>2022-09-26T12:10:27Z</time>
      </trkpt>
      <trkpt lat="43.66762" lon="6.12978">
        <ele>594.2</ele>
        <time>2022-09-26T12:10:38Z</time>
      </trkpt>
      <trkpt lat="43.6677" lon="6.12985">
        <ele>593.6</ele>
        <time>2022-09-26T12:10:46Z</time>
      </trkpt>
      <trkpt lat="43.66778" lon="6.12991">
        <ele>593.3</ele>
        <time>2022-09-26T12:10:54Z</time>
      </trkpt>
      <trkpt lat="43.66788" lon="6.12994">
        <ele>592.4</ele>
        <time>2022-09-26T12:11:11Z</time>
      </trkpt>
      <trkpt lat="43.66795" lon="6.13001">
        <ele>592.9</ele>
        <time>2022-09-26T12:11:23Z</time>
      </trkpt>
      <trkpt lat="43.66803" lon="6.13008">
        <ele>591.7</ele>
        <time>2022-09-26T12:11:36Z</time>
      </trkpt>
      <trkpt lat="43.66811" lon="6.13014">
        <ele>590.9</ele>
        <time>2022-09-26T12:11:50Z</time>
      </trkpt>
      <trkpt lat="43.66819" lon="6.13021">
        <ele>589.9</ele>
        <time>2022-09-26T12:12:02Z</time>
      </trkpt>
      <trkpt lat="43.66827" lon="6.13028">
        <ele>589.3</ele>
        <time>2022-09-26T12:12:11Z</time>
      </trkpt>
      <trkpt lat="43.66835" lon="6.13034">
        <ele>589</ele>
        <time>2022-09-26T12:12:19Z</time>
      </trkpt>
      <trkpt lat="43.66843" lon="6.1304">
        <ele>588.6</ele>
        <time>2022-09-26T12:12:26Z</time>
      </trkpt>
      <trkpt lat="43.66851" lon="6.13048">
        <ele>588</ele>
        <time>2022-09-26T12:12:36Z</time>
      </trkpt>
      <trkpt lat="43.66856" lon="6.13058">
        <ele>587.7</ele>
        <time>2022-09-26T12:12:46Z</time>
      </trkpt>
      <trkpt lat="43.66856" lon="6.13071">
        <ele>587.2</ele>
        <time>2022-09-26T12:12:57Z</time>
      </trkpt>
      <trkpt lat="43.66854" lon="6.13084">
        <ele>586.9</ele>
        <time>2022-09-26T12:13:09Z</time>
      </trkpt>
      <trkpt lat="43.66853" lon="6.13097">
        <ele>586.9</ele>
        <time>2022-09-26T12:13:18Z</time>
      </trkpt>
      <trkpt lat="43.66849" lon="6.13109">
        <ele>587.1</ele>
        <time>2022-09-26T12:13:26Z</time>
      </trkpt>
      <trkpt lat="43.66847" lon="6.13121">
        <ele>587.3</ele>
        <time>2022-09-26T12:13:36Z</time>
      </trkpt>
      <trkpt lat="43.66845" lon="6.13134">
        <ele>586.9</ele>
        <time>2022-09-26T12:13:43Z</time>
      </trkpt>
      <trkpt lat="43.66843" lon="6.13147">
        <ele>586.5</ele>
        <time>2022-09-26T12:13:51Z</time>
      </trkpt>
      <trkpt lat="43.66843" lon="6.1316">
        <ele>586.6</ele>
        <time>2022-09-26T12:14:00Z</time>
      </trkpt>
      <trkpt lat="43.6684" lon="6.13173">
        <ele>586.4</ele>
        <time>2022-09-26T12:14:09Z</time>
      </trkpt>
      <trkpt lat="43.66837" lon="6.13185">
        <ele>586.3</ele>
        <time>2022-09-26T12:14:18Z</time>
      </trkpt>
      <trkpt lat="43.66834" lon="6.13198">
        <ele>586.9</ele>
        <time>2022-09-26T12:14:37Z</time>
      </trkpt>
      <trkpt lat="43.66831" lon="6.13212">
        <ele>587</ele>
        <time>2022-09-26T12:14:46Z</time>
      </trkpt>
      <trkpt lat="43.66829" lon="6.13225">
        <ele>587</ele>
        <time>2022-09-26T12:14:55Z</time>
      </trkpt>
      <trkpt lat="43.66826" lon="6.13238">
        <ele>587</ele>
        <time>2022-09-26T12:15:04Z</time>
      </trkpt>
      <trkpt lat="43.66823" lon="6.1325">
        <ele>587</ele>
        <time>2022-09-26T12:15:13Z</time>
      </trkpt>
      <trkpt lat="43.66821" lon="6.13263">
        <ele>587</ele>
        <time>2022-09-26T12:15:21Z</time>
      </trkpt>
      <trkpt lat="43.66818" lon="6.13276">
        <ele>587.1</ele>
        <time>2022-09-26T12:15:31Z</time>
      </trkpt>
      <trkpt lat="43.66818" lon="6.13289">
        <ele>587.4</ele>
        <time>2022-09-26T12:15:40Z</time>
      </trkpt>
      <trkpt lat="43.66815" lon="6.13301">
        <ele>587.6</ele>
        <time>2022-09-26T12:15:50Z</time>
      </trkpt>
      <trkpt lat="43.66814" lon="6.13314">
        <ele>587.6</ele>
        <time>2022-09-26T12:16:01Z</time>
      </trkpt>
      <trkpt lat="43.6681" lon="6.13326">
        <ele>587.3</ele>
        <time>2022-09-26T12:16:11Z</time>
      </trkpt>
      <trkpt lat="43.66806" lon="6.13338">
        <ele>587</ele>
        <time>2022-09-26T12:16:20Z</time>
      </trkpt>
      <trkpt lat="43.66803" lon="6.13351">
        <ele>586.6</ele>
        <time>2022-09-26T12:16:29Z</time>
      </trkpt>
      <trkpt lat="43.668" lon="6.13363">
        <ele>585.2</ele>
        <time>2022-09-26T12:16:37Z</time>
      </trkpt>
      <trkpt lat="43.668" lon="6.13377">
        <ele>585.3</ele>
        <time>2022-09-26T12:16:46Z</time>
      </trkpt>
      <trkpt lat="43.66798" lon="6.1339">
        <ele>585.3</ele>
        <time>2022-09-26T12:16:56Z</time>
      </trkpt>
      <trkpt lat="43.66794" lon="6.13402">
        <ele>585.4</ele>
        <time>2022-09-26T12:17:05Z</time>
      </trkpt>
      <trkpt lat="43.66791" lon="6.13414">
        <ele>585.9</ele>
        <time>2022-09-26T12:17:14Z</time>
      </trkpt>
      <trkpt lat="43.66787" lon="6.13427">
        <ele>584.8</ele>
        <time>2022-09-26T12:17:24Z</time>
      </trkpt>
      <trkpt lat="43.66783" lon="6.13438">
        <ele>584.2</ele>
        <time>2022-09-26T12:17:33Z</time>
      </trkpt>
      <trkpt lat="43.66779" lon="6.1345">
        <ele>583.5</ele>
        <time>2022-09-26T12:17:44Z</time>
      </trkpt>
      <trkpt lat="43.66774" lon="6.13462">
        <ele>584.1</ele>
        <time>2022-09-26T12:17:54Z</time>
      </trkpt>
      <trkpt lat="43.66773" lon="6.13474">
        <ele>583.6</ele>
        <time>2022-09-26T12:18:03Z</time>
      </trkpt>
      <trkpt lat="43.6677" lon="6.13487">
        <ele>583.7</ele>
        <time>2022-09-26T12:18:11Z</time>
      </trkpt>
      <trkpt lat="43.66769" lon="6.13499">
        <ele>583.4</ele>
        <time>2022-09-26T12:18:20Z</time>
      </trkpt>
      <trkpt lat="43.66765" lon="6.13512">
        <ele>583.1</ele>
        <time>2022-09-26T12:18:31Z</time>
      </trkpt>
      <trkpt lat="43.66763" lon="6.13524">
        <ele>582.9</ele>
        <time>2022-09-26T12:18:43Z</time>
      </trkpt>
      <trkpt lat="43.66761" lon="6.13537">
        <ele>582.4</ele>
        <time>2022-09-26T12:19:12Z</time>
      </trkpt>
      <trkpt lat="43.66758" lon="6.13549">
        <ele>581.8</ele>
        <time>2022-09-26T12:19:25Z</time>
      </trkpt>
      <trkpt lat="43.66755" lon="6.13561">
        <ele>581.6</ele>
        <time>2022-09-26T12:19:37Z</time>
      </trkpt>
      <trkpt lat="43.66754" lon="6.13574">
        <ele>581</ele>
        <time>2022-09-26T12:19:46Z</time>
      </trkpt>
      <trkpt lat="43.66752" lon="6.13587">
        <ele>580.4</ele>
        <time>2022-09-26T12:19:57Z</time>
      </trkpt>
      <trkpt lat="43.6675" lon="6.13599">
        <ele>579.9</ele>
        <time>2022-09-26T12:20:08Z</time>
      </trkpt>
      <trkpt lat="43.66747" lon="6.13612">
        <ele>579.4</ele>
        <time>2022-09-26T12:20:18Z</time>
      </trkpt>
      <trkpt lat="43.66744" lon="6.13625">
        <ele>579</ele>
        <time>2022-09-26T12:20:26Z</time>
      </trkpt>
      <trkpt lat="43.66742" lon="6.13638">
        <ele>578.7</ele>
        <time>2022-09-26T12:20:35Z</time>
      </trkpt>
      <trkpt lat="43.66739" lon="6.13651">
        <ele>578.1</ele>
        <time>2022-09-26T12:20:45Z</time>
      </trkpt>
      <trkpt lat="43.66734" lon="6.13663">
        <ele>578.1</ele>
        <time>2022-09-26T12:20:55Z</time>
      </trkpt>
      <trkpt lat="43.66731" lon="6.13674">
        <ele>577.9</ele>
        <time>2022-09-26T12:21:04Z</time>
      </trkpt>
      <trkpt lat="43.66726" lon="6.13685">
        <ele>577.2</ele>
        <time>2022-09-26T12:21:12Z</time>
      </trkpt>
      <trkpt lat="43.66722" lon="6.13697">
        <ele>581</ele>
        <time>2022-09-26T12:21:19Z</time>
      </trkpt>
      <trkpt lat="43.66718" lon="6.13709">
        <ele>579.6</ele>
        <time>2022-09-26T12:21:28Z</time>
      </trkpt>
      <trkpt lat="43.66713" lon="6.1372">
        <ele>578.4</ele>
        <time>2022-09-26T12:21:36Z</time>
      </trkpt>
      <trkpt lat="43.66708" lon="6.13731">
        <ele>577.5</ele>
        <time>2022-09-26T12:21:44Z</time>
      </trkpt>
      <trkpt lat="43.66703" lon="6.13742">
        <ele>575.2</ele>
        <time>2022-09-26T12:21:55Z</time>
      </trkpt>
      <trkpt lat="43.66698" lon="6.13754">
        <ele>575</ele>
        <time>2022-09-26T12:22:05Z</time>
      </trkpt>
      <trkpt lat="43.66694" lon="6.13765">
        <ele>574.6</ele>
        <time>2022-09-26T12:22:14Z</time>
      </trkpt>
      <trkpt lat="43.66689" lon="6.13775">
        <ele>574.3</ele>
        <time>2022-09-26T12:22:25Z</time>
      </trkpt>
      <trkpt lat="43.66685" lon="6.13787">
        <ele>574</ele>
        <time>2022-09-26T12:22:34Z</time>
      </trkpt>
      <trkpt lat="43.6668" lon="6.13798">
        <ele>573.2</ele>
        <time>2022-09-26T12:22:42Z</time>
      </trkpt>
      <trkpt lat="43.66675" lon="6.13809">
        <ele>572.4</ele>
        <time>2022-09-26T12:22:52Z</time>
      </trkpt>
      <trkpt lat="43.6667" lon="6.1382">
        <ele>572.8</ele>
        <time>2022-09-26T12:23:04Z</time>
      </trkpt>
      <trkpt lat="43.66664" lon="6.13832">
        <ele>573.7</ele>
        <time>2022-09-26T12:23:14Z</time>
      </trkpt>
      <trkpt lat="43.66659" lon="6.13842">
        <ele>574.4</ele>
        <time>2022-09-26T12:23:25Z</time>
      </trkpt>
      <trkpt lat="43.66654" lon="6.13855">
        <ele>574.5</ele>
        <time>2022-09-26T12:23:35Z</time>
      </trkpt>
      <trkpt lat="43.66649" lon="6.13866">
        <ele>573.5</ele>
        <time>2022-09-26T12:23:44Z</time>
      </trkpt>
      <trkpt lat="43.66645" lon="6.13877">
        <ele>572.3</ele>
        <time>2022-09-26T12:23:52Z</time>
      </trkpt>
      <trkpt lat="43.6664" lon="6.13889">
        <ele>574.8</ele>
        <time>2022-09-26T12:24:02Z</time>
      </trkpt>
      <trkpt lat="43.66637" lon="6.13901">
        <ele>570.4</ele>
        <time>2022-09-26T12:24:11Z</time>
      </trkpt>
      <trkpt lat="43.66633" lon="6.13914">
        <ele>573.2</ele>
        <time>2022-09-26T12:24:19Z</time>
      </trkpt>
      <trkpt lat="43.66626" lon="6.13924">
        <ele>575</ele>
        <time>2022-09-26T12:24:29Z</time>
      </trkpt>
      <trkpt lat="43.66621" lon="6.13935">
        <ele>575.3</ele>
        <time>2022-09-26T12:24:39Z</time>
      </trkpt>
      <trkpt lat="43.66617" lon="6.13946">
        <ele>575.4</ele>
        <time>2022-09-26T12:24:47Z</time>
      </trkpt>
      <trkpt lat="43.66612" lon="6.13957">
        <ele>575.6</ele>
        <time>2022-09-26T12:24:56Z</time>
      </trkpt>
      <trkpt lat="43.66608" lon="6.13969">
        <ele>575.4</ele>
        <time>2022-09-26T12:25:06Z</time>
      </trkpt>
      <trkpt lat="43.66603" lon="6.1398">
        <ele>575.4</ele>
        <time>2022-09-26T12:25:15Z</time>
      </trkpt>
      <trkpt lat="43.66599" lon="6.13991">
        <ele>575.3</ele>
        <time>2022-09-26T12:25:24Z</time>
      </trkpt>
      <trkpt lat="43.66595" lon="6.14003">
        <ele>575.2</ele>
        <time>2022-09-26T12:25:32Z</time>
      </trkpt>
      <trkpt lat="43.66591" lon="6.14015">
        <ele>575.3</ele>
        <time>2022-09-26T12:25:40Z</time>
      </trkpt>
      <trkpt lat="43.66586" lon="6.14026">
        <ele>574.9</ele>
        <time>2022-09-26T12:25:50Z</time>
      </trkpt>
      <trkpt lat="43.66581" lon="6.14037">
        <ele>574.6</ele>
        <time>2022-09-26T12:25:59Z</time>
      </trkpt>
      <trkpt lat="43.66576" lon="6.14049">
        <ele>573.9</ele>
        <time>2022-09-26T12:26:10Z</time>
      </trkpt>
      <trkpt lat="43.66571" lon="6.14062">
        <ele>574.3</ele>
        <time>2022-09-26T12:26:20Z</time>
      </trkpt>
      <trkpt lat="43.66567" lon="6.14074">
        <ele>574.4</ele>
        <time>2022-09-26T12:26:29Z</time>
      </trkpt>
      <trkpt lat="43.66564" lon="6.14087">
        <ele>574.4</ele>
        <time>2022-09-26T12:26:38Z</time>
      </trkpt>
      <trkpt lat="43.66556" lon="6.14093">
        <ele>574.3</ele>
        <time>2022-09-26T12:26:46Z</time>
      </trkpt>
      <trkpt lat="43.66548" lon="6.141">
        <ele>574.3</ele>
        <time>2022-09-26T12:27:03Z</time>
      </trkpt>
      <trkpt lat="43.66544" lon="6.14112">
        <ele>574.2</ele>
        <time>2022-09-26T12:27:14Z</time>
      </trkpt>
      <trkpt lat="43.66536" lon="6.14119">
        <ele>573.9</ele>
        <time>2022-09-26T12:27:23Z</time>
      </trkpt>
      <trkpt lat="43.66529" lon="6.14127">
        <ele>573.1</ele>
        <time>2022-09-26T12:27:32Z</time>
      </trkpt>
      <trkpt lat="43.66523" lon="6.14139">
        <ele>573.9</ele>
        <time>2022-09-26T12:27:44Z</time>
      </trkpt>
      <trkpt lat="43.66516" lon="6.14148">
        <ele>573.6</ele>
        <time>2022-09-26T12:27:55Z</time>
      </trkpt>
      <trkpt lat="43.66508" lon="6.14153">
        <ele>573.5</ele>
        <time>2022-09-26T12:28:05Z</time>
      </trkpt>
      <trkpt lat="43.665" lon="6.1416">
        <ele>573.5</ele>
        <time>2022-09-26T12:28:15Z</time>
      </trkpt>
      <trkpt lat="43.66491" lon="6.14165">
        <ele>573.5</ele>
        <time>2022-09-26T12:28:24Z</time>
      </trkpt>
      <trkpt lat="43.66482" lon="6.14171">
        <ele>573</ele>
        <time>2022-09-26T12:28:34Z</time>
      </trkpt>
      <trkpt lat="43.66473" lon="6.14166">
        <ele>572.8</ele>
        <time>2022-09-26T12:28:43Z</time>
      </trkpt>
      <trkpt lat="43.66466" lon="6.14157">
        <ele>572.5</ele>
        <time>2022-09-26T12:28:52Z</time>
      </trkpt>
      <trkpt lat="43.66459" lon="6.14149">
        <ele>572.2</ele>
        <time>2022-09-26T12:29:01Z</time>
      </trkpt>
      <trkpt lat="43.66452" lon="6.14139">
        <ele>571.2</ele>
        <time>2022-09-26T12:29:11Z</time>
      </trkpt>
      <trkpt lat="43.66445" lon="6.1413">
        <ele>571.9</ele>
        <time>2022-09-26T12:29:27Z</time>
      </trkpt>
      <trkpt lat="43.66438" lon="6.14122">
        <ele>571.4</ele>
        <time>2022-09-26T12:29:37Z</time>
      </trkpt>
      <trkpt lat="43.66431" lon="6.14114">
        <ele>571.1</ele>
        <time>2022-09-26T12:29:47Z</time>
      </trkpt>
      <trkpt lat="43.66424" lon="6.14103">
        <ele>570.7</ele>
        <time>2022-09-26T12:29:57Z</time>
      </trkpt>
      <trkpt lat="43.66419" lon="6.14093">
        <ele>570.3</ele>
        <time>2022-09-26T12:30:07Z</time>
      </trkpt>
      <trkpt lat="43.66411" lon="6.14083">
        <ele>569.7</ele>
        <time>2022-09-26T12:30:19Z</time>
      </trkpt>
      <trkpt lat="43.66403" lon="6.14077">
        <ele>569.3</ele>
        <time>2022-09-26T12:30:29Z</time>
      </trkpt>
      <trkpt lat="43.66396" lon="6.14069">
        <ele>568.9</ele>
        <time>2022-09-26T12:30:39Z</time>
      </trkpt>
      <trkpt lat="43.6639" lon="6.14059">
        <ele>568.5</ele>
        <time>2022-09-26T12:30:48Z</time>
      </trkpt>
      <trkpt lat="43.66382" lon="6.14051">
        <ele>568</ele>
        <time>2022-09-26T12:30:57Z</time>
      </trkpt>
      <trkpt lat="43.66374" lon="6.14043">
        <ele>567.4</ele>
        <time>2022-09-26T12:31:06Z</time>
      </trkpt>
      <trkpt lat="43.66366" lon="6.14039">
        <ele>566.8</ele>
        <time>2022-09-26T12:31:18Z</time>
      </trkpt>
      <trkpt lat="43.66358" lon="6.14031">
        <ele>566.5</ele>
        <time>2022-09-26T12:31:27Z</time>
      </trkpt>
      <trkpt lat="43.66349" lon="6.14025">
        <ele>566</ele>
        <time>2022-09-26T12:31:37Z</time>
      </trkpt>
      <trkpt lat="43.6634" lon="6.14022">
        <ele>565.8</ele>
        <time>2022-09-26T12:31:47Z</time>
      </trkpt>
      <trkpt lat="43.66331" lon="6.14017">
        <ele>565.8</ele>
        <time>2022-09-26T12:31:57Z</time>
      </trkpt>
      <trkpt lat="43.66323" lon="6.1401">
        <ele>565.1</ele>
        <time>2022-09-26T12:32:06Z</time>
      </trkpt>
      <trkpt lat="43.66315" lon="6.14004">
        <ele>565.6</ele>
        <time>2022-09-26T12:32:14Z</time>
      </trkpt>
      <trkpt lat="43.66306" lon="6.13998">
        <ele>566.2</ele>
        <time>2022-09-26T12:32:30Z</time>
      </trkpt>
      <trkpt lat="43.66298" lon="6.13989">
        <ele>566.4</ele>
        <time>2022-09-26T12:32:40Z</time>
      </trkpt>
      <trkpt lat="43.6629" lon="6.13983">
        <ele>566.2</ele>
        <time>2022-09-26T12:32:50Z</time>
      </trkpt>
      <trkpt lat="43.66282" lon="6.13977">
        <ele>566</ele>
        <time>2022-09-26T12:33:00Z</time>
      </trkpt>
      <trkpt lat="43.66273" lon="6.13973">
        <ele>565.7</ele>
        <time>2022-09-26T12:33:22Z</time>
      </trkpt>
      <trkpt lat="43.66265" lon="6.13967">
        <ele>565.5</ele>
        <time>2022-09-26T12:33:30Z</time>
      </trkpt>
      <trkpt lat="43.66255" lon="6.13965">
        <ele>562</ele>
        <time>2022-09-26T12:33:44Z</time>
      </trkpt>
      <trkpt lat="43.66246" lon="6.13962">
        <ele>563</ele>
        <time>2022-09-26T12:33:48Z</time>
      </trkpt>
      <trkpt lat="43.66237" lon="6.13956">
        <ele>564.8</ele>
        <time>2022-09-26T12:33:52Z</time>
      </trkpt>
      <trkpt lat="43.66228" lon="6.13951">
        <ele>565.9</ele>
        <time>2022-09-26T12:34:02Z</time>
      </trkpt>
      <trkpt lat="43.6622" lon="6.13946">
        <ele>565.5</ele>
        <time>2022-09-26T12:34:11Z</time>
      </trkpt>
      <trkpt lat="43.66211" lon="6.13942">
        <ele>564.8</ele>
        <time>2022-09-26T12:34:21Z</time>
      </trkpt>
      <trkpt lat="43.66201" lon="6.13939">
        <ele>564.4</ele>
        <time>2022-09-26T12:34:30Z</time>
      </trkpt>
      <trkpt lat="43.66193" lon="6.13935">
        <ele>564.2</ele>
        <time>2022-09-26T12:34:37Z</time>
      </trkpt>
      <trkpt lat="43.66184" lon="6.13931">
        <ele>564</ele>
        <time>2022-09-26T12:34:46Z</time>
      </trkpt>
      <trkpt lat="43.66175" lon="6.13928">
        <ele>563.2</ele>
        <time>2022-09-26T12:34:55Z</time>
      </trkpt>
      <trkpt lat="43.66165" lon="6.13924">
        <ele>563</ele>
        <time>2022-09-26T12:35:05Z</time>
      </trkpt>
      <trkpt lat="43.66156" lon="6.13922">
        <ele>562.7</ele>
        <time>2022-09-26T12:35:13Z</time>
      </trkpt>
      <trkpt lat="43.66147" lon="6.13915">
        <ele>559.3</ele>
        <time>2022-09-26T12:35:22Z</time>
      </trkpt>
      <trkpt lat="43.66137" lon="6.1391">
        <ele>560.3</ele>
        <time>2022-09-26T12:35:34Z</time>
      </trkpt>
      <trkpt lat="43.66128" lon="6.13906">
        <ele>562</ele>
        <time>2022-09-26T12:35:43Z</time>
      </trkpt>
      <trkpt lat="43.66119" lon="6.13905">
        <ele>563.5</ele>
        <time>2022-09-26T12:35:54Z</time>
      </trkpt>
      <trkpt lat="43.66111" lon="6.13899">
        <ele>565.1</ele>
        <time>2022-09-26T12:36:17Z</time>
      </trkpt>
      <trkpt lat="43.6612" lon="6.13896">
        <ele>564.3</ele>
        <time>2022-09-26T12:37:50Z</time>
      </trkpt>
      <trkpt lat="43.66129" lon="6.13893">
        <ele>563.5</ele>
        <time>2022-09-26T12:38:02Z</time>
      </trkpt>
      <trkpt lat="43.66133" lon="6.13881">
        <ele>563.1</ele>
        <time>2022-09-26T12:38:23Z</time>
      </trkpt>
      <trkpt lat="43.66134" lon="6.13868">
        <ele>563.5</ele>
        <time>2022-09-26T12:38:38Z</time>
      </trkpt>
      <trkpt lat="43.66137" lon="6.13856">
        <ele>563.9</ele>
        <time>2022-09-26T12:38:49Z</time>
      </trkpt>
      <trkpt lat="43.66139" lon="6.13843">
        <ele>564.3</ele>
        <time>2022-09-26T12:38:59Z</time>
      </trkpt>
      <trkpt lat="43.66143" lon="6.13831">
        <ele>564.8</ele>
        <time>2022-09-26T12:39:07Z</time>
      </trkpt>
      <trkpt lat="43.66146" lon="6.13818">
        <ele>565.3</ele>
        <time>2022-09-26T12:39:17Z</time>
      </trkpt>
      <trkpt lat="43.66149" lon="6.13806">
        <ele>565.5</ele>
        <time>2022-09-26T12:39:25Z</time>
      </trkpt>
      <trkpt lat="43.66148" lon="6.13793">
        <ele>565.8</ele>
        <time>2022-09-26T12:39:34Z</time>
      </trkpt>
      <trkpt lat="43.6615" lon="6.13781">
        <ele>566.3</ele>
        <time>2022-09-26T12:39:45Z</time>
      </trkpt>
      <trkpt lat="43.66154" lon="6.1377">
        <ele>566.9</ele>
        <time>2022-09-26T12:39:55Z</time>
      </trkpt>
      <trkpt lat="43.66158" lon="6.13757">
        <ele>567.7</ele>
        <time>2022-09-26T12:40:06Z</time>
      </trkpt>
      <trkpt lat="43.66161" lon="6.13745">
        <ele>568.2</ele>
        <time>2022-09-26T12:40:15Z</time>
      </trkpt>
      <trkpt lat="43.66163" lon="6.13733">
        <ele>568.4</ele>
        <time>2022-09-26T12:40:26Z</time>
      </trkpt>
      <trkpt lat="43.66164" lon="6.1372">
        <ele>568.9</ele>
        <time>2022-09-26T12:40:39Z</time>
      </trkpt>
      <trkpt lat="43.66167" lon="6.13708">
        <ele>569.1</ele>
        <time>2022-09-26T12:40:50Z</time>
      </trkpt>
      <trkpt lat="43.66168" lon="6.13694">
        <ele>569.7</ele>
        <time>2022-09-26T12:41:01Z</time>
      </trkpt>
      <trkpt lat="43.6617" lon="6.13681">
        <ele>570.2</ele>
        <time>2022-09-26T12:41:11Z</time>
      </trkpt>
      <trkpt lat="43.66171" lon="6.13668">
        <ele>570.7</ele>
        <time>2022-09-26T12:41:22Z</time>
      </trkpt>
      <trkpt lat="43.66169" lon="6.13655">
        <ele>571.2</ele>
        <time>2022-09-26T12:41:31Z</time>
      </trkpt>
      <trkpt lat="43.66168" lon="6.13641">
        <ele>571.7</ele>
        <time>2022-09-26T12:41:39Z</time>
      </trkpt>
      <trkpt lat="43.66167" lon="6.13627">
        <ele>571.9</ele>
        <time>2022-09-26T12:41:48Z</time>
      </trkpt>
      <trkpt lat="43.66164" lon="6.13614">
        <ele>572.3</ele>
        <time>2022-09-26T12:41:58Z</time>
      </trkpt>
      <trkpt lat="43.66159" lon="6.13602">
        <ele>572.8</ele>
        <time>2022-09-26T12:42:09Z</time>
      </trkpt>
      <trkpt lat="43.66158" lon="6.13589">
        <ele>572.7</ele>
        <time>2022-09-26T12:42:20Z</time>
      </trkpt>
      <trkpt lat="43.66156" lon="6.13576">
        <ele>572.7</ele>
        <time>2022-09-26T12:42:28Z</time>
      </trkpt>
      <trkpt lat="43.66154" lon="6.13563">
        <ele>572.9</ele>
        <time>2022-09-26T12:42:38Z</time>
      </trkpt>
      <trkpt lat="43.66159" lon="6.13551">
        <ele>573</ele>
        <time>2022-09-26T12:42:41Z</time>
      </trkpt>
      <trkpt lat="43.66151" lon="6.13541">
        <ele>572.6</ele>
        <time>2022-09-26T12:42:55Z</time>
      </trkpt>
      <trkpt lat="43.66146" lon="6.1353">
        <ele>572.6</ele>
        <time>2022-09-26T12:43:20Z</time>
      </trkpt>
      <trkpt lat="43.66146" lon="6.13517">
        <ele>572.3</ele>
        <time>2022-09-26T12:43:40Z</time>
      </trkpt>
      <trkpt lat="43.66144" lon="6.13504">
        <ele>571.7</ele>
        <time>2022-09-26T12:43:54Z</time>
      </trkpt>
      <trkpt lat="43.66141" lon="6.13491">
        <ele>571.4</ele>
        <time>2022-09-26T12:44:06Z</time>
      </trkpt>
      <trkpt lat="43.66139" lon="6.13478">
        <ele>571.2</ele>
        <time>2022-09-26T12:44:17Z</time>
      </trkpt>
      <trkpt lat="43.66135" lon="6.13465">
        <ele>571.1</ele>
        <time>2022-09-26T12:44:28Z</time>
      </trkpt>
      <trkpt lat="43.66134" lon="6.13452">
        <ele>571</ele>
        <time>2022-09-26T12:44:40Z</time>
      </trkpt>
      <trkpt lat="43.66135" lon="6.13438">
        <ele>571</ele>
        <time>2022-09-26T12:44:52Z</time>
      </trkpt>
      <trkpt lat="43.66135" lon="6.13425">
        <ele>571.1</ele>
        <time>2022-09-26T12:45:03Z</time>
      </trkpt>
      <trkpt lat="43.66133" lon="6.13413">
        <ele>570.7</ele>
        <time>2022-09-26T12:45:16Z</time>
      </trkpt>
      <trkpt lat="43.66134" lon="6.134">
        <ele>570.4</ele>
        <time>2022-09-26T12:45:28Z</time>
      </trkpt>
      <trkpt lat="43.6613" lon="6.13388">
        <ele>570.4</ele>
        <time>2022-09-26T12:45:42Z</time>
      </trkpt>
      <trkpt lat="43.66127" lon="6.13376">
        <ele>570</ele>
        <time>2022-09-26T12:45:55Z</time>
      </trkpt>
      <trkpt lat="43.66127" lon="6.13364">
        <ele>569.8</ele>
        <time>2022-09-26T12:46:09Z</time>
      </trkpt>
      <trkpt lat="43.66126" lon="6.13351">
        <ele>569.4</ele>
        <time>2022-09-26T12:46:30Z</time>
      </trkpt>
      <trkpt lat="43.66129" lon="6.13339">
        <ele>569.3</ele>
        <time>2022-09-26T12:46:41Z</time>
      </trkpt>
      <trkpt lat="43.6613" lon="6.13326">
        <ele>569.7</ele>
        <time>2022-09-26T12:46:55Z</time>
      </trkpt>
      <trkpt lat="43.66132" lon="6.13313">
        <ele>570.1</ele>
        <time>2022-09-26T12:47:08Z</time>
      </trkpt>
      <trkpt lat="43.66136" lon="6.133">
        <ele>570.9</ele>
        <time>2022-09-26T12:47:23Z</time>
      </trkpt>
      <trkpt lat="43.6614" lon="6.13289">
        <ele>572</ele>
        <time>2022-09-26T12:47:39Z</time>
      </trkpt>
      <trkpt lat="43.66144" lon="6.13277">
        <ele>572.9</ele>
        <time>2022-09-26T12:47:52Z</time>
      </trkpt>
      <trkpt lat="43.66148" lon="6.13266">
        <ele>573.8</ele>
        <time>2022-09-26T12:48:06Z</time>
      </trkpt>
      <trkpt lat="43.66152" lon="6.13254">
        <ele>574.3</ele>
        <time>2022-09-26T12:48:20Z</time>
      </trkpt>
      <trkpt lat="43.66154" lon="6.13242">
        <ele>574.8</ele>
        <time>2022-09-26T12:48:34Z</time>
      </trkpt>
      <trkpt lat="43.66158" lon="6.13229">
        <ele>575.7</ele>
        <time>2022-09-26T12:48:48Z</time>
      </trkpt>
      <trkpt lat="43.66158" lon="6.13217">
        <ele>575.1</ele>
        <time>2022-09-26T12:49:40Z</time>
      </trkpt>
      <trkpt lat="43.66164" lon="6.13207">
        <ele>575.7</ele>
        <time>2022-09-26T12:50:00Z</time>
      </trkpt>
      <trkpt lat="43.66168" lon="6.13196">
        <ele>576.9</ele>
        <time>2022-09-26T12:50:13Z</time>
      </trkpt>
      <trkpt lat="43.66173" lon="6.13185">
        <ele>576.4</ele>
        <time>2022-09-26T12:50:27Z</time>
      </trkpt>
      <trkpt lat="43.66179" lon="6.13174">
        <ele>576.7</ele>
        <time>2022-09-26T12:50:42Z</time>
      </trkpt>
      <trkpt lat="43.66182" lon="6.13163">
        <ele>577.3</ele>
        <time>2022-09-26T12:50:53Z</time>
      </trkpt>
      <trkpt lat="43.66176" lon="6.13153">
        <ele>577.4</ele>
        <time>2022-09-26T12:51:06Z</time>
      </trkpt>
      <trkpt lat="43.66168" lon="6.1315">
        <ele>575.9</ele>
        <time>2022-09-26T12:51:17Z</time>
      </trkpt>
      <trkpt lat="43.6616" lon="6.13144">
        <ele>574.3</ele>
        <time>2022-09-26T12:51:27Z</time>
      </trkpt>
      <trkpt lat="43.66151" lon="6.1314">
        <ele>573.4</ele>
        <time>2022-09-26T12:51:37Z</time>
      </trkpt>
      <trkpt lat="43.66142" lon="6.13136">
        <ele>572.9</ele>
        <time>2022-09-26T12:51:49Z</time>
      </trkpt>
      <trkpt lat="43.66133" lon="6.13132">
        <ele>572.2</ele>
        <time>2022-09-26T12:51:58Z</time>
      </trkpt>
      <trkpt lat="43.66125" lon="6.13126">
        <ele>571.5</ele>
        <time>2022-09-26T12:52:15Z</time>
      </trkpt>
      <trkpt lat="43.66116" lon="6.13122">
        <ele>570.4</ele>
        <time>2022-09-26T12:52:24Z</time>
      </trkpt>
      <trkpt lat="43.66106" lon="6.13119">
        <ele>569.1</ele>
        <time>2022-09-26T12:52:35Z</time>
      </trkpt>
      <trkpt lat="43.66096" lon="6.13115">
        <ele>568.4</ele>
        <time>2022-09-26T12:52:47Z</time>
      </trkpt>
      <trkpt lat="43.66087" lon="6.13111">
        <ele>567.5</ele>
        <time>2022-09-26T12:52:58Z</time>
      </trkpt>
      <trkpt lat="43.66078" lon="6.13104">
        <ele>567</ele>
        <time>2022-09-26T12:53:09Z</time>
      </trkpt>
      <trkpt lat="43.66069" lon="6.13101">
        <ele>566.5</ele>
        <time>2022-09-26T12:53:21Z</time>
      </trkpt>
      <trkpt lat="43.66059" lon="6.13098">
        <ele>566.3</ele>
        <time>2022-09-26T12:53:30Z</time>
      </trkpt>
      <trkpt lat="43.6605" lon="6.13093">
        <ele>565.7</ele>
        <time>2022-09-26T12:53:43Z</time>
      </trkpt>
      <trkpt lat="43.66041" lon="6.13087">
        <ele>565</ele>
        <time>2022-09-26T12:53:54Z</time>
      </trkpt>
      <trkpt lat="43.66033" lon="6.13082">
        <ele>564.6</ele>
        <time>2022-09-26T12:54:04Z</time>
      </trkpt>
      <trkpt lat="43.66024" lon="6.13076">
        <ele>563.8</ele>
        <time>2022-09-26T12:54:12Z</time>
      </trkpt>
      <trkpt lat="43.66016" lon="6.13071">
        <ele>561.7</ele>
        <time>2022-09-26T12:54:32Z</time>
      </trkpt>
      <trkpt lat="43.66008" lon="6.13064">
        <ele>559.5</ele>
        <time>2022-09-26T12:54:53Z</time>
      </trkpt>
      <trkpt lat="43.66" lon="6.13059">
        <ele>558.9</ele>
        <time>2022-09-26T12:55:09Z</time>
      </trkpt>
      <trkpt lat="43.65989" lon="6.1306">
        <ele>559.9</ele>
        <time>2022-09-26T12:55:20Z</time>
      </trkpt>
      <trkpt lat="43.6598" lon="6.13062">
        <ele>560.4</ele>
        <time>2022-09-26T12:55:29Z</time>
      </trkpt>
      <trkpt lat="43.65971" lon="6.13066">
        <ele>559.6</ele>
        <time>2022-09-26T12:55:42Z</time>
      </trkpt>
      <trkpt lat="43.65965" lon="6.13061">
        <ele>559.5</ele>
        <time>2022-09-26T12:56:05Z</time>
      </trkpt>
    </trkseg>
  </trk>
</gpx>